<?xml version="1.0" encoding="UTF-8" standalone="no" ?>
<gpx xmlns="http://www.topografix.com/GPX/1/1" xmlns:xsi="http://www.w3.org/2001/XMLSchema-instance" xsi:schemaLocation="http://www.topografix.com/GPX/1/1 http://www.topografix.com/GPX/1/1/gpx.xsd" version="1.1" creator="VisuGPX - https://www.visugpx.com">
  <metadata>
    <name>12-JUIL-19 Locronan</name>
    <desc><![CDATA[Autour de  Locronan,un des plus beaux villages du Finistère.A voir en chemin chapelle Notre Dame de bonne nouvelle, fontaine de Kergoat.Passage final dans une forêt privée mais autorisée aux randonneurs après vérification ( interdite aux deux roues motorisées et VVT),arrivée au sommet à la chapelle Ar Zonj.Très belle vue sur la baie de Douarnenez.]]></desc>
  </metadata>
  <trk>
    <name><![CDATA[12-JUIL-19 02:48:58 PM]]></name>
    <trkseg>
      <trkpt lat="48.09729" lon="-4.21186">
        <ele>127.99</ele>
        <time>2019-07-12T07:08:17Z</time>
      </trkpt>
      <trkpt lat="48.09729" lon="-4.21186">
        <ele>127.99</ele>
        <time>2019-07-12T07:08:32Z</time>
      </trkpt>
      <trkpt lat="48.0973" lon="-4.21184">
        <ele>128.47</ele>
        <time>2019-07-12T07:08:47Z</time>
      </trkpt>
      <trkpt lat="48.09732" lon="-4.21182">
        <ele>128.47</ele>
        <time>2019-07-12T07:09:02Z</time>
      </trkpt>
      <trkpt lat="48.09731" lon="-4.2118">
        <ele>128.95</ele>
        <time>2019-07-12T07:09:17Z</time>
      </trkpt>
      <trkpt lat="48.09735" lon="-4.21183">
        <ele>129.43</ele>
        <time>2019-07-12T07:09:32Z</time>
      </trkpt>
      <trkpt lat="48.09748" lon="-4.21176">
        <ele>128.95</ele>
        <time>2019-07-12T07:09:47Z</time>
      </trkpt>
      <trkpt lat="48.09758" lon="-4.21178">
        <ele>128.95</ele>
        <time>2019-07-12T07:10:02Z</time>
      </trkpt>
      <trkpt lat="48.09772" lon="-4.21165">
        <ele>128.47</ele>
        <time>2019-07-12T07:10:17Z</time>
      </trkpt>
      <trkpt lat="48.09778" lon="-4.21142">
        <ele>127.51</ele>
        <time>2019-07-12T07:10:32Z</time>
      </trkpt>
      <trkpt lat="48.09782" lon="-4.21119">
        <ele>127.51</ele>
        <time>2019-07-12T07:10:47Z</time>
      </trkpt>
      <trkpt lat="48.09787" lon="-4.21095">
        <ele>127.51</ele>
        <time>2019-07-12T07:11:02Z</time>
      </trkpt>
      <trkpt lat="48.09792" lon="-4.21072">
        <ele>127.03</ele>
        <time>2019-07-12T07:11:17Z</time>
      </trkpt>
      <trkpt lat="48.09795" lon="-4.21046">
        <ele>127.51</ele>
        <time>2019-07-12T07:11:32Z</time>
      </trkpt>
      <trkpt lat="48.09798" lon="-4.21024">
        <ele>127.03</ele>
        <time>2019-07-12T07:11:47Z</time>
      </trkpt>
      <trkpt lat="48.098" lon="-4.20999">
        <ele>127.51</ele>
        <time>2019-07-12T07:12:02Z</time>
      </trkpt>
      <trkpt lat="48.09804" lon="-4.20974">
        <ele>127.99</ele>
        <time>2019-07-12T07:12:17Z</time>
      </trkpt>
      <trkpt lat="48.09805" lon="-4.20951">
        <ele>127.99</ele>
        <time>2019-07-12T07:12:32Z</time>
      </trkpt>
      <trkpt lat="48.09812" lon="-4.20924">
        <ele>128.47</ele>
        <time>2019-07-12T07:12:47Z</time>
      </trkpt>
      <trkpt lat="48.09816" lon="-4.20898">
        <ele>128.47</ele>
        <time>2019-07-12T07:13:02Z</time>
      </trkpt>
      <trkpt lat="48.09821" lon="-4.20874">
        <ele>128.95</ele>
        <time>2019-07-12T07:13:17Z</time>
      </trkpt>
      <trkpt lat="48.09824" lon="-4.20852">
        <ele>129.43</ele>
        <time>2019-07-12T07:13:32Z</time>
      </trkpt>
      <trkpt lat="48.09825" lon="-4.20842">
        <ele>129.92</ele>
        <time>2019-07-12T07:13:47Z</time>
      </trkpt>
      <trkpt lat="48.09822" lon="-4.20838">
        <ele>129.92</ele>
        <time>2019-07-12T07:14:02Z</time>
      </trkpt>
      <trkpt lat="48.09817" lon="-4.20838">
        <ele>129.92</ele>
        <time>2019-07-12T07:14:17Z</time>
      </trkpt>
      <trkpt lat="48.09833" lon="-4.20829">
        <ele>129.43</ele>
        <time>2019-07-12T07:14:32Z</time>
      </trkpt>
      <trkpt lat="48.0984" lon="-4.20839">
        <ele>129.43</ele>
        <time>2019-07-12T07:14:47Z</time>
      </trkpt>
      <trkpt lat="48.09849" lon="-4.2084">
        <ele>128.95</ele>
        <time>2019-07-12T07:15:02Z</time>
      </trkpt>
      <trkpt lat="48.0986" lon="-4.20852">
        <ele>128.47</ele>
        <time>2019-07-12T07:15:17Z</time>
      </trkpt>
      <trkpt lat="48.09862" lon="-4.20853">
        <ele>128.47</ele>
        <time>2019-07-12T07:15:32Z</time>
      </trkpt>
      <trkpt lat="48.0986" lon="-4.20841">
        <ele>128.95</ele>
        <time>2019-07-12T07:15:47Z</time>
      </trkpt>
      <trkpt lat="48.09854" lon="-4.20837">
        <ele>129.92</ele>
        <time>2019-07-12T07:16:02Z</time>
      </trkpt>
      <trkpt lat="48.09854" lon="-4.20834">
        <ele>129.92</ele>
        <time>2019-07-12T07:16:17Z</time>
      </trkpt>
      <trkpt lat="48.09856" lon="-4.20836">
        <ele>130.4</ele>
        <time>2019-07-12T07:16:32Z</time>
      </trkpt>
      <trkpt lat="48.09854" lon="-4.20831">
        <ele>130.4</ele>
        <time>2019-07-12T07:16:47Z</time>
      </trkpt>
      <trkpt lat="48.09866" lon="-4.20826">
        <ele>129.92</ele>
        <time>2019-07-12T07:17:02Z</time>
      </trkpt>
      <trkpt lat="48.09869" lon="-4.20823">
        <ele>130.88</ele>
        <time>2019-07-12T07:17:17Z</time>
      </trkpt>
      <trkpt lat="48.09869" lon="-4.2082">
        <ele>130.4</ele>
        <time>2019-07-12T07:17:32Z</time>
      </trkpt>
      <trkpt lat="48.0988" lon="-4.20833">
        <ele>130.4</ele>
        <time>2019-07-12T07:17:47Z</time>
      </trkpt>
      <trkpt lat="48.09892" lon="-4.20851">
        <ele>129.43</ele>
        <time>2019-07-12T07:18:02Z</time>
      </trkpt>
      <trkpt lat="48.09898" lon="-4.20863">
        <ele>127.99</ele>
        <time>2019-07-12T07:18:17Z</time>
      </trkpt>
      <trkpt lat="48.09898" lon="-4.20865">
        <ele>127.99</ele>
        <time>2019-07-12T07:18:32Z</time>
      </trkpt>
      <trkpt lat="48.09905" lon="-4.20867">
        <ele>127.03</ele>
        <time>2019-07-12T07:18:47Z</time>
      </trkpt>
      <trkpt lat="48.09916" lon="-4.20886">
        <ele>125.11</ele>
        <time>2019-07-12T07:19:02Z</time>
      </trkpt>
      <trkpt lat="48.09928" lon="-4.20902">
        <ele>123.19</ele>
        <time>2019-07-12T07:19:17Z</time>
      </trkpt>
      <trkpt lat="48.09943" lon="-4.20904">
        <ele>120.3</ele>
        <time>2019-07-12T07:19:32Z</time>
      </trkpt>
      <trkpt lat="48.0995" lon="-4.20911">
        <ele>119.82</ele>
        <time>2019-07-12T07:19:47Z</time>
      </trkpt>
      <trkpt lat="48.09967" lon="-4.20922">
        <ele>115.98</ele>
        <time>2019-07-12T07:20:02Z</time>
      </trkpt>
      <trkpt lat="48.09968" lon="-4.20926">
        <ele>115.98</ele>
        <time>2019-07-12T07:20:17Z</time>
      </trkpt>
      <trkpt lat="48.0997" lon="-4.20931">
        <ele>115.5</ele>
        <time>2019-07-12T07:20:32Z</time>
      </trkpt>
      <trkpt lat="48.0997" lon="-4.20929">
        <ele>115.5</ele>
        <time>2019-07-12T07:20:47Z</time>
      </trkpt>
      <trkpt lat="48.09985" lon="-4.20939">
        <ele>114.05</ele>
        <time>2019-07-12T07:21:02Z</time>
      </trkpt>
      <trkpt lat="48.10002" lon="-4.20946">
        <ele>111.65</ele>
        <time>2019-07-12T07:21:17Z</time>
      </trkpt>
      <trkpt lat="48.10009" lon="-4.20954">
        <ele>110.69</ele>
        <time>2019-07-12T07:21:32Z</time>
      </trkpt>
      <trkpt lat="48.10007" lon="-4.20954">
        <ele>110.69</ele>
        <time>2019-07-12T07:21:47Z</time>
      </trkpt>
      <trkpt lat="48.10019" lon="-4.2096">
        <ele>109.73</ele>
        <time>2019-07-12T07:22:02Z</time>
      </trkpt>
      <trkpt lat="48.10025" lon="-4.20966">
        <ele>108.29</ele>
        <time>2019-07-12T07:22:17Z</time>
      </trkpt>
      <trkpt lat="48.10027" lon="-4.20969">
        <ele>108.29</ele>
        <time>2019-07-12T07:22:31Z</time>
      </trkpt>
      <trkpt lat="48.10029" lon="-4.20981">
        <ele>107.81</ele>
        <time>2019-07-12T07:22:47Z</time>
      </trkpt>
      <trkpt lat="48.10026" lon="-4.20994">
        <ele>105.88</ele>
        <time>2019-07-12T07:23:02Z</time>
      </trkpt>
      <trkpt lat="48.10025" lon="-4.21011">
        <ele>104.92</ele>
        <time>2019-07-12T07:23:17Z</time>
      </trkpt>
      <trkpt lat="48.10029" lon="-4.21034">
        <ele>103.96</ele>
        <time>2019-07-12T07:23:32Z</time>
      </trkpt>
      <trkpt lat="48.10029" lon="-4.21045">
        <ele>103.48</ele>
        <time>2019-07-12T07:23:47Z</time>
      </trkpt>
      <trkpt lat="48.10026" lon="-4.21044">
        <ele>103.48</ele>
        <time>2019-07-12T07:24:02Z</time>
      </trkpt>
      <trkpt lat="48.10026" lon="-4.21035">
        <ele>104.44</ele>
        <time>2019-07-12T07:24:17Z</time>
      </trkpt>
      <trkpt lat="48.10025" lon="-4.2103">
        <ele>103.48</ele>
        <time>2019-07-12T07:24:32Z</time>
      </trkpt>
      <trkpt lat="48.10026" lon="-4.21029">
        <ele>104.44</ele>
        <time>2019-07-12T07:24:47Z</time>
      </trkpt>
      <trkpt lat="48.10026" lon="-4.21028">
        <ele>104.44</ele>
        <time>2019-07-12T07:25:02Z</time>
      </trkpt>
      <trkpt lat="48.10021" lon="-4.21013">
        <ele>106.36</ele>
        <time>2019-07-12T07:25:17Z</time>
      </trkpt>
      <trkpt lat="48.10013" lon="-4.21013">
        <ele>106.36</ele>
        <time>2019-07-12T07:25:32Z</time>
      </trkpt>
      <trkpt lat="48.10008" lon="-4.21019">
        <ele>105.88</ele>
        <time>2019-07-12T07:25:47Z</time>
      </trkpt>
      <trkpt lat="48.10006" lon="-4.2103">
        <ele>105.88</ele>
        <time>2019-07-12T07:26:02Z</time>
      </trkpt>
      <trkpt lat="48.10033" lon="-4.2101">
        <ele>106.36</ele>
        <time>2019-07-12T07:26:38Z</time>
      </trkpt>
      <trkpt lat="48.10031" lon="-4.2101">
        <ele>105.88</ele>
        <time>2019-07-12T07:26:53Z</time>
      </trkpt>
      <trkpt lat="48.10029" lon="-4.20995">
        <ele>107.32</ele>
        <time>2019-07-12T07:27:08Z</time>
      </trkpt>
      <trkpt lat="48.10031" lon="-4.20978">
        <ele>108.29</ele>
        <time>2019-07-12T07:27:23Z</time>
      </trkpt>
      <trkpt lat="48.10041" lon="-4.20972">
        <ele>109.25</ele>
        <time>2019-07-12T07:27:38Z</time>
      </trkpt>
      <trkpt lat="48.10058" lon="-4.20981">
        <ele>106.36</ele>
        <time>2019-07-12T07:27:53Z</time>
      </trkpt>
      <trkpt lat="48.10078" lon="-4.20986">
        <ele>103.96</ele>
        <time>2019-07-12T07:28:08Z</time>
      </trkpt>
      <trkpt lat="48.10094" lon="-4.20994">
        <ele>101.56</ele>
        <time>2019-07-12T07:28:23Z</time>
      </trkpt>
      <trkpt lat="48.10112" lon="-4.20996">
        <ele>101.08</ele>
        <time>2019-07-12T07:28:38Z</time>
      </trkpt>
      <trkpt lat="48.10127" lon="-4.21003">
        <ele>100.11</ele>
        <time>2019-07-12T07:28:53Z</time>
      </trkpt>
      <trkpt lat="48.10143" lon="-4.21021">
        <ele>98.19</ele>
        <time>2019-07-12T07:29:08Z</time>
      </trkpt>
      <trkpt lat="48.10155" lon="-4.21042">
        <ele>97.71</ele>
        <time>2019-07-12T07:29:23Z</time>
      </trkpt>
      <trkpt lat="48.10167" lon="-4.2107">
        <ele>96.75</ele>
        <time>2019-07-12T07:29:38Z</time>
      </trkpt>
      <trkpt lat="48.10165" lon="-4.21095">
        <ele>96.27</ele>
        <time>2019-07-12T07:29:53Z</time>
      </trkpt>
      <trkpt lat="48.10151" lon="-4.21111">
        <ele>97.71</ele>
        <time>2019-07-12T07:30:08Z</time>
      </trkpt>
      <trkpt lat="48.1014" lon="-4.21127">
        <ele>99.15</ele>
        <time>2019-07-12T07:30:23Z</time>
      </trkpt>
      <trkpt lat="48.1014" lon="-4.21143">
        <ele>99.63</ele>
        <time>2019-07-12T07:30:38Z</time>
      </trkpt>
      <trkpt lat="48.1014" lon="-4.21144">
        <ele>99.15</ele>
        <time>2019-07-12T07:30:53Z</time>
      </trkpt>
      <trkpt lat="48.10129" lon="-4.21153">
        <ele>100.6</ele>
        <time>2019-07-12T07:31:08Z</time>
      </trkpt>
      <trkpt lat="48.10118" lon="-4.21172">
        <ele>102.04</ele>
        <time>2019-07-12T07:31:23Z</time>
      </trkpt>
      <trkpt lat="48.10106" lon="-4.21191">
        <ele>103</ele>
        <time>2019-07-12T07:31:38Z</time>
      </trkpt>
      <trkpt lat="48.10116" lon="-4.21201">
        <ele>103.48</ele>
        <time>2019-07-12T07:31:53Z</time>
      </trkpt>
      <trkpt lat="48.10132" lon="-4.21213">
        <ele>103.48</ele>
        <time>2019-07-12T07:32:08Z</time>
      </trkpt>
      <trkpt lat="48.10145" lon="-4.2122">
        <ele>102.52</ele>
        <time>2019-07-12T07:32:23Z</time>
      </trkpt>
      <trkpt lat="48.1016" lon="-4.21228">
        <ele>102.04</ele>
        <time>2019-07-12T07:32:38Z</time>
      </trkpt>
      <trkpt lat="48.10168" lon="-4.21237">
        <ele>101.08</ele>
        <time>2019-07-12T07:32:53Z</time>
      </trkpt>
      <trkpt lat="48.10171" lon="-4.21249">
        <ele>101.08</ele>
        <time>2019-07-12T07:33:08Z</time>
      </trkpt>
      <trkpt lat="48.1017" lon="-4.21257">
        <ele>101.56</ele>
        <time>2019-07-12T07:33:23Z</time>
      </trkpt>
      <trkpt lat="48.10168" lon="-4.21273">
        <ele>102.52</ele>
        <time>2019-07-12T07:33:38Z</time>
      </trkpt>
      <trkpt lat="48.10165" lon="-4.21296">
        <ele>103.48</ele>
        <time>2019-07-12T07:33:53Z</time>
      </trkpt>
      <trkpt lat="48.10159" lon="-4.21314">
        <ele>103.48</ele>
        <time>2019-07-12T07:34:08Z</time>
      </trkpt>
      <trkpt lat="48.10157" lon="-4.21345">
        <ele>103.96</ele>
        <time>2019-07-12T07:34:23Z</time>
      </trkpt>
      <trkpt lat="48.10156" lon="-4.21364">
        <ele>103.48</ele>
        <time>2019-07-12T07:34:38Z</time>
      </trkpt>
      <trkpt lat="48.10159" lon="-4.21395">
        <ele>103</ele>
        <time>2019-07-12T07:34:53Z</time>
      </trkpt>
      <trkpt lat="48.10172" lon="-4.21406">
        <ele>101.08</ele>
        <time>2019-07-12T07:35:08Z</time>
      </trkpt>
      <trkpt lat="48.10188" lon="-4.21412">
        <ele>100.11</ele>
        <time>2019-07-12T07:35:23Z</time>
      </trkpt>
      <trkpt lat="48.10203" lon="-4.21419">
        <ele>98.67</ele>
        <time>2019-07-12T07:35:38Z</time>
      </trkpt>
      <trkpt lat="48.10223" lon="-4.21427">
        <ele>97.71</ele>
        <time>2019-07-12T07:35:53Z</time>
      </trkpt>
      <trkpt lat="48.1024" lon="-4.21435">
        <ele>96.27</ele>
        <time>2019-07-12T07:36:08Z</time>
      </trkpt>
      <trkpt lat="48.10256" lon="-4.21445">
        <ele>95.31</ele>
        <time>2019-07-12T07:36:23Z</time>
      </trkpt>
      <trkpt lat="48.10275" lon="-4.21454">
        <ele>93.87</ele>
        <time>2019-07-12T07:36:38Z</time>
      </trkpt>
      <trkpt lat="48.10292" lon="-4.21459">
        <ele>92.42</ele>
        <time>2019-07-12T07:36:53Z</time>
      </trkpt>
      <trkpt lat="48.10299" lon="-4.21459">
        <ele>91.94</ele>
        <time>2019-07-12T07:37:08Z</time>
      </trkpt>
      <trkpt lat="48.10313" lon="-4.21463">
        <ele>91.94</ele>
        <time>2019-07-12T07:37:23Z</time>
      </trkpt>
      <trkpt lat="48.10328" lon="-4.2147">
        <ele>90.02</ele>
        <time>2019-07-12T07:37:38Z</time>
      </trkpt>
      <trkpt lat="48.10345" lon="-4.21476">
        <ele>88.1</ele>
        <time>2019-07-12T07:37:53Z</time>
      </trkpt>
      <trkpt lat="48.10361" lon="-4.21479">
        <ele>86.18</ele>
        <time>2019-07-12T07:38:08Z</time>
      </trkpt>
      <trkpt lat="48.10377" lon="-4.21485">
        <ele>84.25</ele>
        <time>2019-07-12T07:38:23Z</time>
      </trkpt>
      <trkpt lat="48.10393" lon="-4.21491">
        <ele>82.33</ele>
        <time>2019-07-12T07:38:38Z</time>
      </trkpt>
      <trkpt lat="48.10411" lon="-4.21493">
        <ele>80.41</ele>
        <time>2019-07-12T07:38:53Z</time>
      </trkpt>
      <trkpt lat="48.10436" lon="-4.21496">
        <ele>78</ele>
        <time>2019-07-12T07:39:08Z</time>
      </trkpt>
      <trkpt lat="48.10455" lon="-4.21502">
        <ele>76.08</ele>
        <time>2019-07-12T07:39:23Z</time>
      </trkpt>
      <trkpt lat="48.10463" lon="-4.21501">
        <ele>74.64</ele>
        <time>2019-07-12T07:39:38Z</time>
      </trkpt>
      <trkpt lat="48.10467" lon="-4.2149">
        <ele>73.68</ele>
        <time>2019-07-12T07:39:53Z</time>
      </trkpt>
      <trkpt lat="48.10471" lon="-4.21461">
        <ele>72.72</ele>
        <time>2019-07-12T07:40:08Z</time>
      </trkpt>
      <trkpt lat="48.10477" lon="-4.21448">
        <ele>71.76</ele>
        <time>2019-07-12T07:40:23Z</time>
      </trkpt>
      <trkpt lat="48.10479" lon="-4.21423">
        <ele>70.79</ele>
        <time>2019-07-12T07:40:38Z</time>
      </trkpt>
      <trkpt lat="48.10489" lon="-4.214">
        <ele>69.83</ele>
        <time>2019-07-12T07:40:53Z</time>
      </trkpt>
      <trkpt lat="48.10492" lon="-4.21366">
        <ele>68.39</ele>
        <time>2019-07-12T07:41:08Z</time>
      </trkpt>
      <trkpt lat="48.10493" lon="-4.21332">
        <ele>67.91</ele>
        <time>2019-07-12T07:41:23Z</time>
      </trkpt>
      <trkpt lat="48.10493" lon="-4.21306">
        <ele>67.43</ele>
        <time>2019-07-12T07:41:38Z</time>
      </trkpt>
      <trkpt lat="48.10492" lon="-4.21276">
        <ele>67.91</ele>
        <time>2019-07-12T07:41:53Z</time>
      </trkpt>
      <trkpt lat="48.10492" lon="-4.21248">
        <ele>67.43</ele>
        <time>2019-07-12T07:42:08Z</time>
      </trkpt>
      <trkpt lat="48.10493" lon="-4.21222">
        <ele>67.43</ele>
        <time>2019-07-12T07:42:23Z</time>
      </trkpt>
      <trkpt lat="48.10491" lon="-4.21197">
        <ele>68.39</ele>
        <time>2019-07-12T07:42:38Z</time>
      </trkpt>
      <trkpt lat="48.10485" lon="-4.2121">
        <ele>68.39</ele>
        <time>2019-07-12T07:42:53Z</time>
      </trkpt>
      <trkpt lat="48.10489" lon="-4.21192">
        <ele>67.91</ele>
        <time>2019-07-12T07:43:08Z</time>
      </trkpt>
      <trkpt lat="48.10488" lon="-4.21166">
        <ele>68.39</ele>
        <time>2019-07-12T07:43:23Z</time>
      </trkpt>
      <trkpt lat="48.10486" lon="-4.21136">
        <ele>68.87</ele>
        <time>2019-07-12T07:43:38Z</time>
      </trkpt>
      <trkpt lat="48.10484" lon="-4.21105">
        <ele>69.35</ele>
        <time>2019-07-12T07:43:53Z</time>
      </trkpt>
      <trkpt lat="48.10481" lon="-4.21076">
        <ele>70.31</ele>
        <time>2019-07-12T07:44:08Z</time>
      </trkpt>
      <trkpt lat="48.10478" lon="-4.21047">
        <ele>70.31</ele>
        <time>2019-07-12T07:44:23Z</time>
      </trkpt>
      <trkpt lat="48.10475" lon="-4.21019">
        <ele>71.27</ele>
        <time>2019-07-12T07:44:38Z</time>
      </trkpt>
      <trkpt lat="48.10482" lon="-4.20996">
        <ele>71.27</ele>
        <time>2019-07-12T07:44:53Z</time>
      </trkpt>
      <trkpt lat="48.10498" lon="-4.20996">
        <ele>71.27</ele>
        <time>2019-07-12T07:45:08Z</time>
      </trkpt>
      <trkpt lat="48.10505" lon="-4.21001">
        <ele>71.27</ele>
        <time>2019-07-12T07:45:23Z</time>
      </trkpt>
      <trkpt lat="48.1051" lon="-4.20996">
        <ele>70.31</ele>
        <time>2019-07-12T07:45:38Z</time>
      </trkpt>
      <trkpt lat="48.10517" lon="-4.21003">
        <ele>71.27</ele>
        <time>2019-07-12T07:45:53Z</time>
      </trkpt>
      <trkpt lat="48.10517" lon="-4.21005">
        <ele>71.76</ele>
        <time>2019-07-12T07:46:08Z</time>
      </trkpt>
      <trkpt lat="48.10521" lon="-4.21002">
        <ele>71.76</ele>
        <time>2019-07-12T07:46:23Z</time>
      </trkpt>
      <trkpt lat="48.10532" lon="-4.21007">
        <ele>71.27</ele>
        <time>2019-07-12T07:46:38Z</time>
      </trkpt>
      <trkpt lat="48.10533" lon="-4.21006">
        <ele>71.76</ele>
        <time>2019-07-12T07:46:53Z</time>
      </trkpt>
      <trkpt lat="48.10534" lon="-4.21004">
        <ele>71.76</ele>
        <time>2019-07-12T07:47:08Z</time>
      </trkpt>
      <trkpt lat="48.10538" lon="-4.21004">
        <ele>71.76</ele>
        <time>2019-07-12T07:47:23Z</time>
      </trkpt>
      <trkpt lat="48.10545" lon="-4.21001">
        <ele>72.24</ele>
        <time>2019-07-12T07:47:38Z</time>
      </trkpt>
      <trkpt lat="48.10546" lon="-4.21003">
        <ele>72.24</ele>
        <time>2019-07-12T07:47:53Z</time>
      </trkpt>
      <trkpt lat="48.1056" lon="-4.21">
        <ele>72.72</ele>
        <time>2019-07-12T07:48:08Z</time>
      </trkpt>
      <trkpt lat="48.10565" lon="-4.20997">
        <ele>73.68</ele>
        <time>2019-07-12T07:48:23Z</time>
      </trkpt>
      <trkpt lat="48.1058" lon="-4.21002">
        <ele>74.64</ele>
        <time>2019-07-12T07:48:38Z</time>
      </trkpt>
      <trkpt lat="48.10581" lon="-4.21006">
        <ele>75.12</ele>
        <time>2019-07-12T07:48:53Z</time>
      </trkpt>
      <trkpt lat="48.10597" lon="-4.21005">
        <ele>77.52</ele>
        <time>2019-07-12T07:49:08Z</time>
      </trkpt>
      <trkpt lat="48.10609" lon="-4.21015">
        <ele>77.52</ele>
        <time>2019-07-12T07:49:23Z</time>
      </trkpt>
      <trkpt lat="48.10621" lon="-4.21017">
        <ele>79.45</ele>
        <time>2019-07-12T07:49:38Z</time>
      </trkpt>
      <trkpt lat="48.10641" lon="-4.21023">
        <ele>80.89</ele>
        <time>2019-07-12T07:49:53Z</time>
      </trkpt>
      <trkpt lat="48.10658" lon="-4.2103">
        <ele>82.81</ele>
        <time>2019-07-12T07:50:08Z</time>
      </trkpt>
      <trkpt lat="48.10677" lon="-4.21038">
        <ele>83.77</ele>
        <time>2019-07-12T07:50:23Z</time>
      </trkpt>
      <trkpt lat="48.10694" lon="-4.21046">
        <ele>84.73</ele>
        <time>2019-07-12T07:50:38Z</time>
      </trkpt>
      <trkpt lat="48.10712" lon="-4.21054">
        <ele>86.18</ele>
        <time>2019-07-12T07:50:53Z</time>
      </trkpt>
      <trkpt lat="48.10719" lon="-4.2106">
        <ele>86.18</ele>
        <time>2019-07-12T07:51:08Z</time>
      </trkpt>
      <trkpt lat="48.10718" lon="-4.21059">
        <ele>86.18</ele>
        <time>2019-07-12T07:51:23Z</time>
      </trkpt>
      <trkpt lat="48.10715" lon="-4.21055">
        <ele>86.18</ele>
        <time>2019-07-12T07:51:38Z</time>
      </trkpt>
      <trkpt lat="48.10715" lon="-4.21046">
        <ele>86.66</ele>
        <time>2019-07-12T07:51:53Z</time>
      </trkpt>
      <trkpt lat="48.10715" lon="-4.21041">
        <ele>86.66</ele>
        <time>2019-07-12T07:52:08Z</time>
      </trkpt>
      <trkpt lat="48.10714" lon="-4.21039">
        <ele>86.66</ele>
        <time>2019-07-12T07:52:23Z</time>
      </trkpt>
      <trkpt lat="48.10715" lon="-4.2104">
        <ele>87.14</ele>
        <time>2019-07-12T07:52:38Z</time>
      </trkpt>
      <trkpt lat="48.10716" lon="-4.21035">
        <ele>87.14</ele>
        <time>2019-07-12T07:52:53Z</time>
      </trkpt>
      <trkpt lat="48.10715" lon="-4.21036">
        <ele>87.62</ele>
        <time>2019-07-12T07:53:08Z</time>
      </trkpt>
      <trkpt lat="48.10715" lon="-4.21034">
        <ele>87.14</ele>
        <time>2019-07-12T07:53:23Z</time>
      </trkpt>
      <trkpt lat="48.10715" lon="-4.21027">
        <ele>88.1</ele>
        <time>2019-07-12T07:53:38Z</time>
      </trkpt>
      <trkpt lat="48.10718" lon="-4.21003">
        <ele>88.58</ele>
        <time>2019-07-12T07:53:53Z</time>
      </trkpt>
      <trkpt lat="48.10719" lon="-4.20975">
        <ele>90.02</ele>
        <time>2019-07-12T07:54:08Z</time>
      </trkpt>
      <trkpt lat="48.10719" lon="-4.20957">
        <ele>90.02</ele>
        <time>2019-07-12T07:54:23Z</time>
      </trkpt>
      <trkpt lat="48.10718" lon="-4.20955">
        <ele>89.54</ele>
        <time>2019-07-12T07:54:38Z</time>
      </trkpt>
      <trkpt lat="48.10719" lon="-4.20944">
        <ele>90.02</ele>
        <time>2019-07-12T07:54:53Z</time>
      </trkpt>
      <trkpt lat="48.10723" lon="-4.20926">
        <ele>90.5</ele>
        <time>2019-07-12T07:55:08Z</time>
      </trkpt>
      <trkpt lat="48.10726" lon="-4.20904">
        <ele>91.46</ele>
        <time>2019-07-12T07:55:23Z</time>
      </trkpt>
      <trkpt lat="48.10724" lon="-4.20879">
        <ele>91.46</ele>
        <time>2019-07-12T07:55:38Z</time>
      </trkpt>
      <trkpt lat="48.10725" lon="-4.20854">
        <ele>91.94</ele>
        <time>2019-07-12T07:55:53Z</time>
      </trkpt>
      <trkpt lat="48.10722" lon="-4.20826">
        <ele>92.9</ele>
        <time>2019-07-12T07:56:08Z</time>
      </trkpt>
      <trkpt lat="48.10719" lon="-4.20796">
        <ele>92.9</ele>
        <time>2019-07-12T07:56:23Z</time>
      </trkpt>
      <trkpt lat="48.10716" lon="-4.20766">
        <ele>92.9</ele>
        <time>2019-07-12T07:56:38Z</time>
      </trkpt>
      <trkpt lat="48.10715" lon="-4.2074">
        <ele>93.87</ele>
        <time>2019-07-12T07:56:53Z</time>
      </trkpt>
      <trkpt lat="48.10711" lon="-4.20709">
        <ele>94.35</ele>
        <time>2019-07-12T07:57:08Z</time>
      </trkpt>
      <trkpt lat="48.10707" lon="-4.20676">
        <ele>95.79</ele>
        <time>2019-07-12T07:57:23Z</time>
      </trkpt>
      <trkpt lat="48.10704" lon="-4.20648">
        <ele>95.31</ele>
        <time>2019-07-12T07:57:38Z</time>
      </trkpt>
      <trkpt lat="48.107" lon="-4.2062">
        <ele>95.79</ele>
        <time>2019-07-12T07:57:53Z</time>
      </trkpt>
      <trkpt lat="48.10698" lon="-4.20591">
        <ele>97.23</ele>
        <time>2019-07-12T07:58:08Z</time>
      </trkpt>
      <trkpt lat="48.10696" lon="-4.20561">
        <ele>97.71</ele>
        <time>2019-07-12T07:58:23Z</time>
      </trkpt>
      <trkpt lat="48.10695" lon="-4.20535">
        <ele>98.67</ele>
        <time>2019-07-12T07:58:38Z</time>
      </trkpt>
      <trkpt lat="48.10694" lon="-4.20505">
        <ele>99.15</ele>
        <time>2019-07-12T07:58:53Z</time>
      </trkpt>
      <trkpt lat="48.10692" lon="-4.20476">
        <ele>100.6</ele>
        <time>2019-07-12T07:59:08Z</time>
      </trkpt>
      <trkpt lat="48.10688" lon="-4.20445">
        <ele>100.6</ele>
        <time>2019-07-12T07:59:23Z</time>
      </trkpt>
      <trkpt lat="48.10685" lon="-4.20415">
        <ele>100.6</ele>
        <time>2019-07-12T07:59:38Z</time>
      </trkpt>
      <trkpt lat="48.10683" lon="-4.20388">
        <ele>100.6</ele>
        <time>2019-07-12T07:59:53Z</time>
      </trkpt>
      <trkpt lat="48.10684" lon="-4.20368">
        <ele>99.63</ele>
        <time>2019-07-12T08:00:08Z</time>
      </trkpt>
      <trkpt lat="48.10682" lon="-4.20357">
        <ele>99.63</ele>
        <time>2019-07-12T08:00:23Z</time>
      </trkpt>
      <trkpt lat="48.10681" lon="-4.20354">
        <ele>99.63</ele>
        <time>2019-07-12T08:00:38Z</time>
      </trkpt>
      <trkpt lat="48.10677" lon="-4.20338">
        <ele>100.11</ele>
        <time>2019-07-12T08:00:53Z</time>
      </trkpt>
      <trkpt lat="48.10675" lon="-4.20317">
        <ele>101.56</ele>
        <time>2019-07-12T08:01:08Z</time>
      </trkpt>
      <trkpt lat="48.10675" lon="-4.20295">
        <ele>102.52</ele>
        <time>2019-07-12T08:01:23Z</time>
      </trkpt>
      <trkpt lat="48.10672" lon="-4.20271">
        <ele>104.92</ele>
        <time>2019-07-12T08:01:38Z</time>
      </trkpt>
      <trkpt lat="48.1067" lon="-4.20247">
        <ele>105.88</ele>
        <time>2019-07-12T08:01:53Z</time>
      </trkpt>
      <trkpt lat="48.10666" lon="-4.20218">
        <ele>105.88</ele>
        <time>2019-07-12T08:02:08Z</time>
      </trkpt>
      <trkpt lat="48.10667" lon="-4.20195">
        <ele>106.84</ele>
        <time>2019-07-12T08:02:23Z</time>
      </trkpt>
      <trkpt lat="48.10667" lon="-4.20179">
        <ele>106.84</ele>
        <time>2019-07-12T08:02:38Z</time>
      </trkpt>
      <trkpt lat="48.10664" lon="-4.20159">
        <ele>107.32</ele>
        <time>2019-07-12T08:02:53Z</time>
      </trkpt>
      <trkpt lat="48.10664" lon="-4.20156">
        <ele>107.32</ele>
        <time>2019-07-12T08:03:08Z</time>
      </trkpt>
      <trkpt lat="48.10663" lon="-4.20155">
        <ele>106.36</ele>
        <time>2019-07-12T08:03:23Z</time>
      </trkpt>
      <trkpt lat="48.10664" lon="-4.20153">
        <ele>106.36</ele>
        <time>2019-07-12T08:03:38Z</time>
      </trkpt>
      <trkpt lat="48.10663" lon="-4.20152">
        <ele>106.36</ele>
        <time>2019-07-12T08:03:53Z</time>
      </trkpt>
      <trkpt lat="48.1066" lon="-4.20149">
        <ele>106.84</ele>
        <time>2019-07-12T08:04:08Z</time>
      </trkpt>
      <trkpt lat="48.10661" lon="-4.20148">
        <ele>106.84</ele>
        <time>2019-07-12T08:04:23Z</time>
      </trkpt>
      <trkpt lat="48.10659" lon="-4.20149">
        <ele>107.81</ele>
        <time>2019-07-12T08:04:38Z</time>
      </trkpt>
      <trkpt lat="48.10661" lon="-4.20144">
        <ele>107.81</ele>
        <time>2019-07-12T08:04:53Z</time>
      </trkpt>
      <trkpt lat="48.1066" lon="-4.20126">
        <ele>108.29</ele>
        <time>2019-07-12T08:05:08Z</time>
      </trkpt>
      <trkpt lat="48.10657" lon="-4.2009">
        <ele>109.25</ele>
        <time>2019-07-12T08:05:23Z</time>
      </trkpt>
      <trkpt lat="48.10659" lon="-4.20068">
        <ele>109.25</ele>
        <time>2019-07-12T08:05:38Z</time>
      </trkpt>
      <trkpt lat="48.10658" lon="-4.20047">
        <ele>109.25</ele>
        <time>2019-07-12T08:05:53Z</time>
      </trkpt>
      <trkpt lat="48.10653" lon="-4.20023">
        <ele>110.21</ele>
        <time>2019-07-12T08:06:08Z</time>
      </trkpt>
      <trkpt lat="48.1065" lon="-4.19997">
        <ele>111.65</ele>
        <time>2019-07-12T08:06:23Z</time>
      </trkpt>
      <trkpt lat="48.10648" lon="-4.19973">
        <ele>112.13</ele>
        <time>2019-07-12T08:06:38Z</time>
      </trkpt>
      <trkpt lat="48.10642" lon="-4.19948">
        <ele>113.09</ele>
        <time>2019-07-12T08:06:53Z</time>
      </trkpt>
      <trkpt lat="48.10632" lon="-4.19911">
        <ele>114.05</ele>
        <time>2019-07-12T08:07:08Z</time>
      </trkpt>
      <trkpt lat="48.10627" lon="-4.19884">
        <ele>114.05</ele>
        <time>2019-07-12T08:07:23Z</time>
      </trkpt>
      <trkpt lat="48.10622" lon="-4.1986">
        <ele>115.01</ele>
        <time>2019-07-12T08:07:38Z</time>
      </trkpt>
      <trkpt lat="48.10616" lon="-4.19831">
        <ele>115.5</ele>
        <time>2019-07-12T08:07:53Z</time>
      </trkpt>
      <trkpt lat="48.10607" lon="-4.19814">
        <ele>115.5</ele>
        <time>2019-07-12T08:08:08Z</time>
      </trkpt>
      <trkpt lat="48.10606" lon="-4.19816">
        <ele>115.98</ele>
        <time>2019-07-12T08:08:23Z</time>
      </trkpt>
      <trkpt lat="48.10606" lon="-4.19813">
        <ele>115.5</ele>
        <time>2019-07-12T08:08:38Z</time>
      </trkpt>
      <trkpt lat="48.10603" lon="-4.19812">
        <ele>115.98</ele>
        <time>2019-07-12T08:08:53Z</time>
      </trkpt>
      <trkpt lat="48.10589" lon="-4.19808">
        <ele>115.98</ele>
        <time>2019-07-12T08:09:08Z</time>
      </trkpt>
      <trkpt lat="48.10578" lon="-4.19804">
        <ele>116.94</ele>
        <time>2019-07-12T08:09:23Z</time>
      </trkpt>
      <trkpt lat="48.10554" lon="-4.19798">
        <ele>116.94</ele>
        <time>2019-07-12T08:09:38Z</time>
      </trkpt>
      <trkpt lat="48.10533" lon="-4.19791">
        <ele>117.9</ele>
        <time>2019-07-12T08:09:53Z</time>
      </trkpt>
      <trkpt lat="48.10514" lon="-4.19781">
        <ele>117.9</ele>
        <time>2019-07-12T08:10:08Z</time>
      </trkpt>
      <trkpt lat="48.1051" lon="-4.19776">
        <ele>118.38</ele>
        <time>2019-07-12T08:10:23Z</time>
      </trkpt>
      <trkpt lat="48.10511" lon="-4.19754">
        <ele>118.86</ele>
        <time>2019-07-12T08:10:38Z</time>
      </trkpt>
      <trkpt lat="48.10515" lon="-4.19722">
        <ele>118.86</ele>
        <time>2019-07-12T08:10:53Z</time>
      </trkpt>
      <trkpt lat="48.10521" lon="-4.19697">
        <ele>117.9</ele>
        <time>2019-07-12T08:11:08Z</time>
      </trkpt>
      <trkpt lat="48.1053" lon="-4.19672">
        <ele>118.38</ele>
        <time>2019-07-12T08:11:23Z</time>
      </trkpt>
      <trkpt lat="48.10536" lon="-4.19646">
        <ele>117.9</ele>
        <time>2019-07-12T08:11:38Z</time>
      </trkpt>
      <trkpt lat="48.10539" lon="-4.19619">
        <ele>118.38</ele>
        <time>2019-07-12T08:11:53Z</time>
      </trkpt>
      <trkpt lat="48.10545" lon="-4.19591">
        <ele>118.38</ele>
        <time>2019-07-12T08:12:08Z</time>
      </trkpt>
      <trkpt lat="48.10552" lon="-4.19565">
        <ele>117.42</ele>
        <time>2019-07-12T08:12:23Z</time>
      </trkpt>
      <trkpt lat="48.10559" lon="-4.19538">
        <ele>116.46</ele>
        <time>2019-07-12T08:12:38Z</time>
      </trkpt>
      <trkpt lat="48.10562" lon="-4.19506">
        <ele>115.98</ele>
        <time>2019-07-12T08:12:53Z</time>
      </trkpt>
      <trkpt lat="48.10563" lon="-4.19485">
        <ele>115.98</ele>
        <time>2019-07-12T08:13:08Z</time>
      </trkpt>
      <trkpt lat="48.10566" lon="-4.19454">
        <ele>115.98</ele>
        <time>2019-07-12T08:13:23Z</time>
      </trkpt>
      <trkpt lat="48.10567" lon="-4.19436">
        <ele>115.98</ele>
        <time>2019-07-12T08:13:38Z</time>
      </trkpt>
      <trkpt lat="48.10572" lon="-4.19432">
        <ele>115.01</ele>
        <time>2019-07-12T08:13:53Z</time>
      </trkpt>
      <trkpt lat="48.10583" lon="-4.19415">
        <ele>115.5</ele>
        <time>2019-07-12T08:14:08Z</time>
      </trkpt>
      <trkpt lat="48.10585" lon="-4.19395">
        <ele>117.42</ele>
        <time>2019-07-12T08:14:23Z</time>
      </trkpt>
      <trkpt lat="48.10568" lon="-4.19369">
        <ele>116.46</ele>
        <time>2019-07-12T08:14:38Z</time>
      </trkpt>
      <trkpt lat="48.10557" lon="-4.19351">
        <ele>114.53</ele>
        <time>2019-07-12T08:14:53Z</time>
      </trkpt>
      <trkpt lat="48.10548" lon="-4.19341">
        <ele>114.05</ele>
        <time>2019-07-12T08:15:08Z</time>
      </trkpt>
      <trkpt lat="48.10545" lon="-4.19334">
        <ele>114.05</ele>
        <time>2019-07-12T08:15:23Z</time>
      </trkpt>
      <trkpt lat="48.10537" lon="-4.1933">
        <ele>114.05</ele>
        <time>2019-07-12T08:15:38Z</time>
      </trkpt>
      <trkpt lat="48.10529" lon="-4.19317">
        <ele>112.13</ele>
        <time>2019-07-12T08:15:53Z</time>
      </trkpt>
      <trkpt lat="48.10521" lon="-4.19302">
        <ele>111.17</ele>
        <time>2019-07-12T08:16:08Z</time>
      </trkpt>
      <trkpt lat="48.10519" lon="-4.193">
        <ele>110.69</ele>
        <time>2019-07-12T08:16:23Z</time>
      </trkpt>
      <trkpt lat="48.10515" lon="-4.19293">
        <ele>110.69</ele>
        <time>2019-07-12T08:16:38Z</time>
      </trkpt>
      <trkpt lat="48.10513" lon="-4.19273">
        <ele>108.77</ele>
        <time>2019-07-12T08:16:53Z</time>
      </trkpt>
      <trkpt lat="48.10514" lon="-4.19256">
        <ele>106.36</ele>
        <time>2019-07-12T08:17:08Z</time>
      </trkpt>
      <trkpt lat="48.10507" lon="-4.19251">
        <ele>104.92</ele>
        <time>2019-07-12T08:17:23Z</time>
      </trkpt>
      <trkpt lat="48.10508" lon="-4.1924">
        <ele>106.36</ele>
        <time>2019-07-12T08:17:38Z</time>
      </trkpt>
      <trkpt lat="48.10511" lon="-4.19236">
        <ele>106.36</ele>
        <time>2019-07-12T08:17:53Z</time>
      </trkpt>
      <trkpt lat="48.10515" lon="-4.19226">
        <ele>106.36</ele>
        <time>2019-07-12T08:18:08Z</time>
      </trkpt>
      <trkpt lat="48.10509" lon="-4.19226">
        <ele>107.81</ele>
        <time>2019-07-12T08:18:23Z</time>
      </trkpt>
      <trkpt lat="48.10508" lon="-4.19221">
        <ele>107.81</ele>
        <time>2019-07-12T08:18:38Z</time>
      </trkpt>
      <trkpt lat="48.1051" lon="-4.19218">
        <ele>107.81</ele>
        <time>2019-07-12T08:18:53Z</time>
      </trkpt>
      <trkpt lat="48.10508" lon="-4.19221">
        <ele>108.29</ele>
        <time>2019-07-12T08:19:08Z</time>
      </trkpt>
      <trkpt lat="48.10509" lon="-4.19223">
        <ele>108.29</ele>
        <time>2019-07-12T08:19:23Z</time>
      </trkpt>
      <trkpt lat="48.10508" lon="-4.19236">
        <ele>106.36</ele>
        <time>2019-07-12T08:19:38Z</time>
      </trkpt>
      <trkpt lat="48.10514" lon="-4.19257">
        <ele>105.88</ele>
        <time>2019-07-12T08:19:53Z</time>
      </trkpt>
      <trkpt lat="48.10517" lon="-4.1926">
        <ele>105.88</ele>
        <time>2019-07-12T08:20:08Z</time>
      </trkpt>
      <trkpt lat="48.10516" lon="-4.19276">
        <ele>108.29</ele>
        <time>2019-07-12T08:20:23Z</time>
      </trkpt>
      <trkpt lat="48.10517" lon="-4.19286">
        <ele>109.73</ele>
        <time>2019-07-12T08:20:38Z</time>
      </trkpt>
      <trkpt lat="48.10516" lon="-4.19296">
        <ele>110.69</ele>
        <time>2019-07-12T08:20:53Z</time>
      </trkpt>
      <trkpt lat="48.10517" lon="-4.19309">
        <ele>112.13</ele>
        <time>2019-07-12T08:21:08Z</time>
      </trkpt>
      <trkpt lat="48.10526" lon="-4.19312">
        <ele>113.09</ele>
        <time>2019-07-12T08:21:23Z</time>
      </trkpt>
      <trkpt lat="48.10532" lon="-4.19325">
        <ele>114.53</ele>
        <time>2019-07-12T08:21:38Z</time>
      </trkpt>
      <trkpt lat="48.10543" lon="-4.19334">
        <ele>115.98</ele>
        <time>2019-07-12T08:21:53Z</time>
      </trkpt>
      <trkpt lat="48.10553" lon="-4.19348">
        <ele>116.46</ele>
        <time>2019-07-12T08:22:08Z</time>
      </trkpt>
      <trkpt lat="48.10558" lon="-4.19356">
        <ele>117.42</ele>
        <time>2019-07-12T08:22:23Z</time>
      </trkpt>
      <trkpt lat="48.1056" lon="-4.19356">
        <ele>116.46</ele>
        <time>2019-07-12T08:22:38Z</time>
      </trkpt>
      <trkpt lat="48.10569" lon="-4.19377">
        <ele>116.94</ele>
        <time>2019-07-12T08:22:53Z</time>
      </trkpt>
      <trkpt lat="48.10578" lon="-4.19397">
        <ele>117.9</ele>
        <time>2019-07-12T08:23:08Z</time>
      </trkpt>
      <trkpt lat="48.10582" lon="-4.19421">
        <ele>116.94</ele>
        <time>2019-07-12T08:23:23Z</time>
      </trkpt>
      <trkpt lat="48.10593" lon="-4.19426">
        <ele>116.46</ele>
        <time>2019-07-12T08:23:38Z</time>
      </trkpt>
      <trkpt lat="48.1061" lon="-4.19415">
        <ele>115.5</ele>
        <time>2019-07-12T08:23:53Z</time>
      </trkpt>
      <trkpt lat="48.10614" lon="-4.19397">
        <ele>115.5</ele>
        <time>2019-07-12T08:24:08Z</time>
      </trkpt>
      <trkpt lat="48.10625" lon="-4.19379">
        <ele>116.46</ele>
        <time>2019-07-12T08:24:23Z</time>
      </trkpt>
      <trkpt lat="48.10632" lon="-4.1937">
        <ele>115.98</ele>
        <time>2019-07-12T08:24:38Z</time>
      </trkpt>
      <trkpt lat="48.10632" lon="-4.1937">
        <ele>115.5</ele>
        <time>2019-07-12T08:24:53Z</time>
      </trkpt>
      <trkpt lat="48.10637" lon="-4.1936">
        <ele>115.01</ele>
        <time>2019-07-12T08:25:08Z</time>
      </trkpt>
      <trkpt lat="48.10645" lon="-4.1934">
        <ele>113.57</ele>
        <time>2019-07-12T08:25:23Z</time>
      </trkpt>
      <trkpt lat="48.10653" lon="-4.19326">
        <ele>111.65</ele>
        <time>2019-07-12T08:25:38Z</time>
      </trkpt>
      <trkpt lat="48.10661" lon="-4.19295">
        <ele>109.73</ele>
        <time>2019-07-12T08:25:53Z</time>
      </trkpt>
      <trkpt lat="48.10668" lon="-4.19272">
        <ele>107.81</ele>
        <time>2019-07-12T08:26:08Z</time>
      </trkpt>
      <trkpt lat="48.10677" lon="-4.19258">
        <ele>105.4</ele>
        <time>2019-07-12T08:26:23Z</time>
      </trkpt>
      <trkpt lat="48.10688" lon="-4.19244">
        <ele>102.04</ele>
        <time>2019-07-12T08:26:38Z</time>
      </trkpt>
      <trkpt lat="48.107" lon="-4.1923">
        <ele>99.63</ele>
        <time>2019-07-12T08:26:53Z</time>
      </trkpt>
      <trkpt lat="48.10716" lon="-4.19218">
        <ele>96.75</ele>
        <time>2019-07-12T08:27:08Z</time>
      </trkpt>
      <trkpt lat="48.10731" lon="-4.19214">
        <ele>93.39</ele>
        <time>2019-07-12T08:27:23Z</time>
      </trkpt>
      <trkpt lat="48.10733" lon="-4.19216">
        <ele>93.39</ele>
        <time>2019-07-12T08:27:38Z</time>
      </trkpt>
      <trkpt lat="48.10739" lon="-4.19216">
        <ele>92.42</ele>
        <time>2019-07-12T08:27:53Z</time>
      </trkpt>
      <trkpt lat="48.10742" lon="-4.19211">
        <ele>91.46</ele>
        <time>2019-07-12T08:28:08Z</time>
      </trkpt>
      <trkpt lat="48.10757" lon="-4.19206">
        <ele>90.5</ele>
        <time>2019-07-12T08:28:23Z</time>
      </trkpt>
      <trkpt lat="48.10766" lon="-4.19193">
        <ele>89.06</ele>
        <time>2019-07-12T08:28:38Z</time>
      </trkpt>
      <trkpt lat="48.10783" lon="-4.19191">
        <ele>88.1</ele>
        <time>2019-07-12T08:28:53Z</time>
      </trkpt>
      <trkpt lat="48.10796" lon="-4.19197">
        <ele>88.1</ele>
        <time>2019-07-12T08:29:08Z</time>
      </trkpt>
      <trkpt lat="48.10799" lon="-4.19197">
        <ele>88.1</ele>
        <time>2019-07-12T08:29:23Z</time>
      </trkpt>
      <trkpt lat="48.108" lon="-4.19193">
        <ele>88.1</ele>
        <time>2019-07-12T08:29:38Z</time>
      </trkpt>
      <trkpt lat="48.10801" lon="-4.19193">
        <ele>88.1</ele>
        <time>2019-07-12T08:29:53Z</time>
      </trkpt>
      <trkpt lat="48.10804" lon="-4.19188">
        <ele>88.1</ele>
        <time>2019-07-12T08:30:08Z</time>
      </trkpt>
      <trkpt lat="48.10807" lon="-4.19165">
        <ele>87.62</ele>
        <time>2019-07-12T08:30:23Z</time>
      </trkpt>
      <trkpt lat="48.10815" lon="-4.19142">
        <ele>88.1</ele>
        <time>2019-07-12T08:30:38Z</time>
      </trkpt>
      <trkpt lat="48.10827" lon="-4.1913">
        <ele>89.06</ele>
        <time>2019-07-12T08:30:53Z</time>
      </trkpt>
      <trkpt lat="48.10841" lon="-4.19128">
        <ele>89.06</ele>
        <time>2019-07-12T08:31:08Z</time>
      </trkpt>
      <trkpt lat="48.10859" lon="-4.19132">
        <ele>89.54</ele>
        <time>2019-07-12T08:31:23Z</time>
      </trkpt>
      <trkpt lat="48.10876" lon="-4.19134">
        <ele>90.02</ele>
        <time>2019-07-12T08:31:38Z</time>
      </trkpt>
      <trkpt lat="48.10892" lon="-4.19134">
        <ele>90.98</ele>
        <time>2019-07-12T08:31:53Z</time>
      </trkpt>
      <trkpt lat="48.10905" lon="-4.19123">
        <ele>91.94</ele>
        <time>2019-07-12T08:32:08Z</time>
      </trkpt>
      <trkpt lat="48.10907" lon="-4.19099">
        <ele>93.39</ele>
        <time>2019-07-12T08:32:23Z</time>
      </trkpt>
      <trkpt lat="48.10907" lon="-4.19076">
        <ele>94.83</ele>
        <time>2019-07-12T08:32:38Z</time>
      </trkpt>
      <trkpt lat="48.10908" lon="-4.19051">
        <ele>96.75</ele>
        <time>2019-07-12T08:32:53Z</time>
      </trkpt>
      <trkpt lat="48.10909" lon="-4.19025">
        <ele>97.23</ele>
        <time>2019-07-12T08:33:08Z</time>
      </trkpt>
      <trkpt lat="48.1091" lon="-4.18999">
        <ele>98.19</ele>
        <time>2019-07-12T08:33:23Z</time>
      </trkpt>
      <trkpt lat="48.10911" lon="-4.18973">
        <ele>99.15</ele>
        <time>2019-07-12T08:33:38Z</time>
      </trkpt>
      <trkpt lat="48.10912" lon="-4.18953">
        <ele>99.63</ele>
        <time>2019-07-12T08:33:53Z</time>
      </trkpt>
      <trkpt lat="48.10913" lon="-4.18924">
        <ele>100.11</ele>
        <time>2019-07-12T08:34:08Z</time>
      </trkpt>
      <trkpt lat="48.10914" lon="-4.18898">
        <ele>100.6</ele>
        <time>2019-07-12T08:34:23Z</time>
      </trkpt>
      <trkpt lat="48.10916" lon="-4.18871">
        <ele>101.56</ele>
        <time>2019-07-12T08:34:38Z</time>
      </trkpt>
      <trkpt lat="48.10928" lon="-4.18856">
        <ele>102.04</ele>
        <time>2019-07-12T08:34:53Z</time>
      </trkpt>
      <trkpt lat="48.10928" lon="-4.18854">
        <ele>101.56</ele>
        <time>2019-07-12T08:35:08Z</time>
      </trkpt>
      <trkpt lat="48.10928" lon="-4.18853">
        <ele>102.52</ele>
        <time>2019-07-12T08:35:23Z</time>
      </trkpt>
      <trkpt lat="48.10929" lon="-4.18858">
        <ele>102.52</ele>
        <time>2019-07-12T08:35:38Z</time>
      </trkpt>
      <trkpt lat="48.10929" lon="-4.18854">
        <ele>102.04</ele>
        <time>2019-07-12T08:35:53Z</time>
      </trkpt>
      <trkpt lat="48.10938" lon="-4.18855">
        <ele>103</ele>
        <time>2019-07-12T08:36:08Z</time>
      </trkpt>
      <trkpt lat="48.10952" lon="-4.18851">
        <ele>103.96</ele>
        <time>2019-07-12T08:36:23Z</time>
      </trkpt>
      <trkpt lat="48.1095" lon="-4.1885">
        <ele>103.96</ele>
        <time>2019-07-12T08:36:38Z</time>
      </trkpt>
      <trkpt lat="48.1095" lon="-4.18849">
        <ele>103.96</ele>
        <time>2019-07-12T08:36:53Z</time>
      </trkpt>
      <trkpt lat="48.10953" lon="-4.18854">
        <ele>103.96</ele>
        <time>2019-07-12T08:37:08Z</time>
      </trkpt>
      <trkpt lat="48.10952" lon="-4.18853">
        <ele>103.96</ele>
        <time>2019-07-12T08:37:23Z</time>
      </trkpt>
      <trkpt lat="48.10961" lon="-4.18851">
        <ele>104.44</ele>
        <time>2019-07-12T08:37:38Z</time>
      </trkpt>
      <trkpt lat="48.10972" lon="-4.18841">
        <ele>105.4</ele>
        <time>2019-07-12T08:37:53Z</time>
      </trkpt>
      <trkpt lat="48.10977" lon="-4.18844">
        <ele>105.88</ele>
        <time>2019-07-12T08:38:08Z</time>
      </trkpt>
      <trkpt lat="48.10995" lon="-4.18845">
        <ele>107.32</ele>
        <time>2019-07-12T08:38:23Z</time>
      </trkpt>
      <trkpt lat="48.11012" lon="-4.1884">
        <ele>108.29</ele>
        <time>2019-07-12T08:38:38Z</time>
      </trkpt>
      <trkpt lat="48.1103" lon="-4.18837">
        <ele>109.25</ele>
        <time>2019-07-12T08:38:53Z</time>
      </trkpt>
      <trkpt lat="48.11048" lon="-4.18832">
        <ele>110.21</ele>
        <time>2019-07-12T08:39:08Z</time>
      </trkpt>
      <trkpt lat="48.11067" lon="-4.18827">
        <ele>111.17</ele>
        <time>2019-07-12T08:39:23Z</time>
      </trkpt>
      <trkpt lat="48.11083" lon="-4.18822">
        <ele>112.61</ele>
        <time>2019-07-12T08:39:38Z</time>
      </trkpt>
      <trkpt lat="48.11102" lon="-4.18818">
        <ele>113.57</ele>
        <time>2019-07-12T08:39:53Z</time>
      </trkpt>
      <trkpt lat="48.1112" lon="-4.18814">
        <ele>114.05</ele>
        <time>2019-07-12T08:40:08Z</time>
      </trkpt>
      <trkpt lat="48.11138" lon="-4.1881">
        <ele>115.01</ele>
        <time>2019-07-12T08:40:23Z</time>
      </trkpt>
      <trkpt lat="48.11157" lon="-4.18804">
        <ele>115.5</ele>
        <time>2019-07-12T08:40:38Z</time>
      </trkpt>
      <trkpt lat="48.11175" lon="-4.188">
        <ele>115.98</ele>
        <time>2019-07-12T08:40:53Z</time>
      </trkpt>
      <trkpt lat="48.11194" lon="-4.18796">
        <ele>116.46</ele>
        <time>2019-07-12T08:41:08Z</time>
      </trkpt>
      <trkpt lat="48.11215" lon="-4.18791">
        <ele>116.94</ele>
        <time>2019-07-12T08:41:23Z</time>
      </trkpt>
      <trkpt lat="48.11232" lon="-4.18789">
        <ele>117.42</ele>
        <time>2019-07-12T08:41:38Z</time>
      </trkpt>
      <trkpt lat="48.11249" lon="-4.18784">
        <ele>117.9</ele>
        <time>2019-07-12T08:41:53Z</time>
      </trkpt>
      <trkpt lat="48.1127" lon="-4.18778">
        <ele>118.38</ele>
        <time>2019-07-12T08:42:08Z</time>
      </trkpt>
      <trkpt lat="48.11289" lon="-4.18773">
        <ele>118.38</ele>
        <time>2019-07-12T08:42:23Z</time>
      </trkpt>
      <trkpt lat="48.11307" lon="-4.1877">
        <ele>118.86</ele>
        <time>2019-07-12T08:42:38Z</time>
      </trkpt>
      <trkpt lat="48.11328" lon="-4.18765">
        <ele>117.9</ele>
        <time>2019-07-12T08:42:53Z</time>
      </trkpt>
      <trkpt lat="48.11347" lon="-4.1876">
        <ele>118.38</ele>
        <time>2019-07-12T08:43:08Z</time>
      </trkpt>
      <trkpt lat="48.11368" lon="-4.18754">
        <ele>117.42</ele>
        <time>2019-07-12T08:43:23Z</time>
      </trkpt>
      <trkpt lat="48.11387" lon="-4.1875">
        <ele>117.9</ele>
        <time>2019-07-12T08:43:38Z</time>
      </trkpt>
      <trkpt lat="48.11407" lon="-4.18745">
        <ele>117.42</ele>
        <time>2019-07-12T08:43:53Z</time>
      </trkpt>
      <trkpt lat="48.11426" lon="-4.18742">
        <ele>116.94</ele>
        <time>2019-07-12T08:44:08Z</time>
      </trkpt>
      <trkpt lat="48.11432" lon="-4.18737">
        <ele>116.94</ele>
        <time>2019-07-12T08:44:23Z</time>
      </trkpt>
      <trkpt lat="48.1144" lon="-4.18737">
        <ele>117.9</ele>
        <time>2019-07-12T08:44:38Z</time>
      </trkpt>
      <trkpt lat="48.11462" lon="-4.18733">
        <ele>115.98</ele>
        <time>2019-07-12T08:44:53Z</time>
      </trkpt>
      <trkpt lat="48.11484" lon="-4.18728">
        <ele>115.98</ele>
        <time>2019-07-12T08:45:08Z</time>
      </trkpt>
      <trkpt lat="48.11505" lon="-4.18723">
        <ele>115.5</ele>
        <time>2019-07-12T08:45:23Z</time>
      </trkpt>
      <trkpt lat="48.11526" lon="-4.18717">
        <ele>115.01</ele>
        <time>2019-07-12T08:45:38Z</time>
      </trkpt>
      <trkpt lat="48.11538" lon="-4.18712">
        <ele>114.05</ele>
        <time>2019-07-12T08:45:53Z</time>
      </trkpt>
      <trkpt lat="48.11537" lon="-4.18713">
        <ele>114.53</ele>
        <time>2019-07-12T08:46:08Z</time>
      </trkpt>
      <trkpt lat="48.11554" lon="-4.18713">
        <ele>114.53</ele>
        <time>2019-07-12T08:46:23Z</time>
      </trkpt>
      <trkpt lat="48.11575" lon="-4.18709">
        <ele>113.57</ele>
        <time>2019-07-12T08:46:38Z</time>
      </trkpt>
      <trkpt lat="48.11595" lon="-4.18703">
        <ele>113.57</ele>
        <time>2019-07-12T08:46:53Z</time>
      </trkpt>
      <trkpt lat="48.11599" lon="-4.18698">
        <ele>112.61</ele>
        <time>2019-07-12T08:47:08Z</time>
      </trkpt>
      <trkpt lat="48.11598" lon="-4.18701">
        <ele>112.61</ele>
        <time>2019-07-12T08:47:23Z</time>
      </trkpt>
      <trkpt lat="48.11615" lon="-4.18698">
        <ele>112.61</ele>
        <time>2019-07-12T08:47:38Z</time>
      </trkpt>
      <trkpt lat="48.11635" lon="-4.18693">
        <ele>112.61</ele>
        <time>2019-07-12T08:47:53Z</time>
      </trkpt>
      <trkpt lat="48.11637" lon="-4.1869">
        <ele>112.13</ele>
        <time>2019-07-12T08:48:08Z</time>
      </trkpt>
      <trkpt lat="48.11636" lon="-4.1869">
        <ele>111.17</ele>
        <time>2019-07-12T08:48:23Z</time>
      </trkpt>
      <trkpt lat="48.11657" lon="-4.1869">
        <ele>111.65</ele>
        <time>2019-07-12T08:48:38Z</time>
      </trkpt>
      <trkpt lat="48.11679" lon="-4.18684">
        <ele>111.65</ele>
        <time>2019-07-12T08:48:53Z</time>
      </trkpt>
      <trkpt lat="48.11682" lon="-4.18684">
        <ele>111.17</ele>
        <time>2019-07-12T08:49:08Z</time>
      </trkpt>
      <trkpt lat="48.11682" lon="-4.18681">
        <ele>110.69</ele>
        <time>2019-07-12T08:49:23Z</time>
      </trkpt>
      <trkpt lat="48.11683" lon="-4.18684">
        <ele>110.69</ele>
        <time>2019-07-12T08:49:38Z</time>
      </trkpt>
      <trkpt lat="48.11684" lon="-4.18684">
        <ele>111.17</ele>
        <time>2019-07-12T08:49:53Z</time>
      </trkpt>
      <trkpt lat="48.11682" lon="-4.18681">
        <ele>111.17</ele>
        <time>2019-07-12T08:50:08Z</time>
      </trkpt>
      <trkpt lat="48.11682" lon="-4.18683">
        <ele>110.21</ele>
        <time>2019-07-12T08:50:23Z</time>
      </trkpt>
      <trkpt lat="48.11682" lon="-4.18682">
        <ele>110.69</ele>
        <time>2019-07-12T08:50:38Z</time>
      </trkpt>
      <trkpt lat="48.11682" lon="-4.18683">
        <ele>110.69</ele>
        <time>2019-07-12T08:50:53Z</time>
      </trkpt>
      <trkpt lat="48.11683" lon="-4.18682">
        <ele>111.65</ele>
        <time>2019-07-12T08:51:08Z</time>
      </trkpt>
      <trkpt lat="48.11685" lon="-4.18682">
        <ele>111.17</ele>
        <time>2019-07-12T08:51:23Z</time>
      </trkpt>
      <trkpt lat="48.11686" lon="-4.18681">
        <ele>111.17</ele>
        <time>2019-07-12T08:51:38Z</time>
      </trkpt>
      <trkpt lat="48.11682" lon="-4.18679">
        <ele>111.65</ele>
        <time>2019-07-12T08:51:53Z</time>
      </trkpt>
      <trkpt lat="48.11685" lon="-4.18677">
        <ele>111.17</ele>
        <time>2019-07-12T08:52:08Z</time>
      </trkpt>
      <trkpt lat="48.11678" lon="-4.18652">
        <ele>112.61</ele>
        <time>2019-07-12T08:52:23Z</time>
      </trkpt>
      <trkpt lat="48.1167" lon="-4.18629">
        <ele>113.09</ele>
        <time>2019-07-12T08:52:38Z</time>
      </trkpt>
      <trkpt lat="48.11662" lon="-4.18604">
        <ele>114.05</ele>
        <time>2019-07-12T08:52:53Z</time>
      </trkpt>
      <trkpt lat="48.11654" lon="-4.18581">
        <ele>115.01</ele>
        <time>2019-07-12T08:53:08Z</time>
      </trkpt>
      <trkpt lat="48.11645" lon="-4.18557">
        <ele>115.98</ele>
        <time>2019-07-12T08:53:23Z</time>
      </trkpt>
      <trkpt lat="48.11638" lon="-4.18532">
        <ele>115.98</ele>
        <time>2019-07-12T08:53:38Z</time>
      </trkpt>
      <trkpt lat="48.11629" lon="-4.1851">
        <ele>116.94</ele>
        <time>2019-07-12T08:53:53Z</time>
      </trkpt>
      <trkpt lat="48.11622" lon="-4.18486">
        <ele>117.9</ele>
        <time>2019-07-12T08:54:08Z</time>
      </trkpt>
      <trkpt lat="48.11614" lon="-4.18463">
        <ele>118.86</ele>
        <time>2019-07-12T08:54:23Z</time>
      </trkpt>
      <trkpt lat="48.11605" lon="-4.18441">
        <ele>119.82</ele>
        <time>2019-07-12T08:54:38Z</time>
      </trkpt>
      <trkpt lat="48.11595" lon="-4.18415">
        <ele>119.82</ele>
        <time>2019-07-12T08:54:53Z</time>
      </trkpt>
      <trkpt lat="48.11587" lon="-4.1839">
        <ele>120.78</ele>
        <time>2019-07-12T08:55:08Z</time>
      </trkpt>
      <trkpt lat="48.1158" lon="-4.18364">
        <ele>121.26</ele>
        <time>2019-07-12T08:55:23Z</time>
      </trkpt>
      <trkpt lat="48.11574" lon="-4.1834">
        <ele>122.22</ele>
        <time>2019-07-12T08:55:38Z</time>
      </trkpt>
      <trkpt lat="48.11568" lon="-4.18317">
        <ele>123.67</ele>
        <time>2019-07-12T08:55:53Z</time>
      </trkpt>
      <trkpt lat="48.11562" lon="-4.18289">
        <ele>124.15</ele>
        <time>2019-07-12T08:56:08Z</time>
      </trkpt>
      <trkpt lat="48.11555" lon="-4.18264">
        <ele>124.63</ele>
        <time>2019-07-12T08:56:23Z</time>
      </trkpt>
      <trkpt lat="48.11551" lon="-4.18238">
        <ele>125.11</ele>
        <time>2019-07-12T08:56:38Z</time>
      </trkpt>
      <trkpt lat="48.11545" lon="-4.18218">
        <ele>126.07</ele>
        <time>2019-07-12T08:56:53Z</time>
      </trkpt>
      <trkpt lat="48.11538" lon="-4.18194">
        <ele>126.55</ele>
        <time>2019-07-12T08:57:08Z</time>
      </trkpt>
      <trkpt lat="48.11531" lon="-4.18167">
        <ele>126.55</ele>
        <time>2019-07-12T08:57:23Z</time>
      </trkpt>
      <trkpt lat="48.11526" lon="-4.18141">
        <ele>127.99</ele>
        <time>2019-07-12T08:57:38Z</time>
      </trkpt>
      <trkpt lat="48.11519" lon="-4.18116">
        <ele>128.47</ele>
        <time>2019-07-12T08:57:53Z</time>
      </trkpt>
      <trkpt lat="48.11514" lon="-4.18088">
        <ele>128.95</ele>
        <time>2019-07-12T08:58:08Z</time>
      </trkpt>
      <trkpt lat="48.11508" lon="-4.18064">
        <ele>128.95</ele>
        <time>2019-07-12T08:58:23Z</time>
      </trkpt>
      <trkpt lat="48.11501" lon="-4.18037">
        <ele>129.43</ele>
        <time>2019-07-12T08:58:38Z</time>
      </trkpt>
      <trkpt lat="48.11493" lon="-4.1801">
        <ele>129.92</ele>
        <time>2019-07-12T08:58:53Z</time>
      </trkpt>
      <trkpt lat="48.11484" lon="-4.17986">
        <ele>130.88</ele>
        <time>2019-07-12T08:59:08Z</time>
      </trkpt>
      <trkpt lat="48.11475" lon="-4.17961">
        <ele>130.88</ele>
        <time>2019-07-12T08:59:23Z</time>
      </trkpt>
      <trkpt lat="48.11465" lon="-4.17937">
        <ele>131.36</ele>
        <time>2019-07-12T08:59:38Z</time>
      </trkpt>
      <trkpt lat="48.11454" lon="-4.17915">
        <ele>131.84</ele>
        <time>2019-07-12T08:59:53Z</time>
      </trkpt>
      <trkpt lat="48.11446" lon="-4.17892">
        <ele>131.84</ele>
        <time>2019-07-12T09:00:08Z</time>
      </trkpt>
      <trkpt lat="48.11437" lon="-4.17867">
        <ele>132.8</ele>
        <time>2019-07-12T09:00:23Z</time>
      </trkpt>
      <trkpt lat="48.11431" lon="-4.17844">
        <ele>132.8</ele>
        <time>2019-07-12T09:00:38Z</time>
      </trkpt>
      <trkpt lat="48.11424" lon="-4.1782">
        <ele>132.8</ele>
        <time>2019-07-12T09:00:53Z</time>
      </trkpt>
      <trkpt lat="48.11424" lon="-4.17817">
        <ele>133.76</ele>
        <time>2019-07-12T09:01:08Z</time>
      </trkpt>
      <trkpt lat="48.11426" lon="-4.1782">
        <ele>132.8</ele>
        <time>2019-07-12T09:01:23Z</time>
      </trkpt>
      <trkpt lat="48.11426" lon="-4.1782">
        <ele>133.28</ele>
        <time>2019-07-12T09:01:38Z</time>
      </trkpt>
      <trkpt lat="48.11425" lon="-4.1782">
        <ele>133.28</ele>
        <time>2019-07-12T09:01:53Z</time>
      </trkpt>
      <trkpt lat="48.11425" lon="-4.17819">
        <ele>133.28</ele>
        <time>2019-07-12T09:02:08Z</time>
      </trkpt>
      <trkpt lat="48.11426" lon="-4.17819">
        <ele>133.76</ele>
        <time>2019-07-12T09:02:23Z</time>
      </trkpt>
      <trkpt lat="48.11427" lon="-4.17818">
        <ele>133.28</ele>
        <time>2019-07-12T09:02:38Z</time>
      </trkpt>
      <trkpt lat="48.11428" lon="-4.17818">
        <ele>133.76</ele>
        <time>2019-07-12T09:02:53Z</time>
      </trkpt>
      <trkpt lat="48.11426" lon="-4.17816">
        <ele>133.76</ele>
        <time>2019-07-12T09:03:08Z</time>
      </trkpt>
      <trkpt lat="48.11425" lon="-4.17813">
        <ele>133.28</ele>
        <time>2019-07-12T09:03:23Z</time>
      </trkpt>
      <trkpt lat="48.11424" lon="-4.17792">
        <ele>133.28</ele>
        <time>2019-07-12T09:03:38Z</time>
      </trkpt>
      <trkpt lat="48.11427" lon="-4.17765">
        <ele>133.76</ele>
        <time>2019-07-12T09:03:53Z</time>
      </trkpt>
      <trkpt lat="48.11431" lon="-4.17738">
        <ele>134.24</ele>
        <time>2019-07-12T09:04:08Z</time>
      </trkpt>
      <trkpt lat="48.11434" lon="-4.17709">
        <ele>133.76</ele>
        <time>2019-07-12T09:04:23Z</time>
      </trkpt>
      <trkpt lat="48.11438" lon="-4.17684">
        <ele>133.28</ele>
        <time>2019-07-12T09:04:38Z</time>
      </trkpt>
      <trkpt lat="48.11443" lon="-4.17658">
        <ele>133.28</ele>
        <time>2019-07-12T09:04:53Z</time>
      </trkpt>
      <trkpt lat="48.11446" lon="-4.17627">
        <ele>133.28</ele>
        <time>2019-07-12T09:05:08Z</time>
      </trkpt>
      <trkpt lat="48.11448" lon="-4.17597">
        <ele>132.8</ele>
        <time>2019-07-12T09:05:23Z</time>
      </trkpt>
      <trkpt lat="48.1145" lon="-4.17568">
        <ele>132.8</ele>
        <time>2019-07-12T09:05:37Z</time>
      </trkpt>
      <trkpt lat="48.11451" lon="-4.17539">
        <ele>132.32</ele>
        <time>2019-07-12T09:05:52Z</time>
      </trkpt>
      <trkpt lat="48.11451" lon="-4.17525">
        <ele>132.32</ele>
        <time>2019-07-12T09:06:07Z</time>
      </trkpt>
      <trkpt lat="48.1145" lon="-4.17497">
        <ele>132.32</ele>
        <time>2019-07-12T09:06:22Z</time>
      </trkpt>
      <trkpt lat="48.11451" lon="-4.17468">
        <ele>132.8</ele>
        <time>2019-07-12T09:06:37Z</time>
      </trkpt>
      <trkpt lat="48.1145" lon="-4.17444">
        <ele>132.32</ele>
        <time>2019-07-12T09:06:52Z</time>
      </trkpt>
      <trkpt lat="48.1145" lon="-4.17421">
        <ele>132.32</ele>
        <time>2019-07-12T09:07:07Z</time>
      </trkpt>
      <trkpt lat="48.11449" lon="-4.17389">
        <ele>131.84</ele>
        <time>2019-07-12T09:07:22Z</time>
      </trkpt>
      <trkpt lat="48.11447" lon="-4.17357">
        <ele>131.36</ele>
        <time>2019-07-12T09:07:37Z</time>
      </trkpt>
      <trkpt lat="48.11448" lon="-4.17349">
        <ele>131.84</ele>
        <time>2019-07-12T09:07:52Z</time>
      </trkpt>
      <trkpt lat="48.1145" lon="-4.17345">
        <ele>131.36</ele>
        <time>2019-07-12T09:08:07Z</time>
      </trkpt>
      <trkpt lat="48.11449" lon="-4.17343">
        <ele>131.84</ele>
        <time>2019-07-12T09:08:22Z</time>
      </trkpt>
      <trkpt lat="48.11447" lon="-4.17338">
        <ele>131.36</ele>
        <time>2019-07-12T09:08:37Z</time>
      </trkpt>
      <trkpt lat="48.11447" lon="-4.17336">
        <ele>131.84</ele>
        <time>2019-07-12T09:08:52Z</time>
      </trkpt>
      <trkpt lat="48.11449" lon="-4.17335">
        <ele>131.84</ele>
        <time>2019-07-12T09:09:07Z</time>
      </trkpt>
      <trkpt lat="48.11447" lon="-4.17336">
        <ele>131.84</ele>
        <time>2019-07-12T09:09:22Z</time>
      </trkpt>
      <trkpt lat="48.11448" lon="-4.17335">
        <ele>131.84</ele>
        <time>2019-07-12T09:09:37Z</time>
      </trkpt>
      <trkpt lat="48.11449" lon="-4.17338">
        <ele>131.84</ele>
        <time>2019-07-12T09:09:52Z</time>
      </trkpt>
      <trkpt lat="48.11447" lon="-4.17339">
        <ele>131.84</ele>
        <time>2019-07-12T09:10:07Z</time>
      </trkpt>
      <trkpt lat="48.11449" lon="-4.17345">
        <ele>131.36</ele>
        <time>2019-07-12T09:10:22Z</time>
      </trkpt>
      <trkpt lat="48.11448" lon="-4.17347">
        <ele>131.84</ele>
        <time>2019-07-12T09:10:37Z</time>
      </trkpt>
      <trkpt lat="48.11447" lon="-4.17321">
        <ele>131.84</ele>
        <time>2019-07-12T09:10:52Z</time>
      </trkpt>
      <trkpt lat="48.11447" lon="-4.17292">
        <ele>131.84</ele>
        <time>2019-07-12T09:11:07Z</time>
      </trkpt>
      <trkpt lat="48.11449" lon="-4.17263">
        <ele>131.84</ele>
        <time>2019-07-12T09:11:22Z</time>
      </trkpt>
      <trkpt lat="48.11453" lon="-4.17235">
        <ele>130.88</ele>
        <time>2019-07-12T09:11:37Z</time>
      </trkpt>
      <trkpt lat="48.11456" lon="-4.1721">
        <ele>130.88</ele>
        <time>2019-07-12T09:11:52Z</time>
      </trkpt>
      <trkpt lat="48.11456" lon="-4.17183">
        <ele>130.88</ele>
        <time>2019-07-12T09:12:07Z</time>
      </trkpt>
      <trkpt lat="48.11456" lon="-4.17178">
        <ele>130.4</ele>
        <time>2019-07-12T09:12:22Z</time>
      </trkpt>
      <trkpt lat="48.11457" lon="-4.17147">
        <ele>130.4</ele>
        <time>2019-07-12T09:12:37Z</time>
      </trkpt>
      <trkpt lat="48.11452" lon="-4.17121">
        <ele>129.92</ele>
        <time>2019-07-12T09:12:52Z</time>
      </trkpt>
      <trkpt lat="48.11444" lon="-4.17099">
        <ele>130.4</ele>
        <time>2019-07-12T09:13:07Z</time>
      </trkpt>
      <trkpt lat="48.11433" lon="-4.17084">
        <ele>130.4</ele>
        <time>2019-07-12T09:13:22Z</time>
      </trkpt>
      <trkpt lat="48.11422" lon="-4.17059">
        <ele>130.88</ele>
        <time>2019-07-12T09:13:37Z</time>
      </trkpt>
      <trkpt lat="48.1141" lon="-4.17035">
        <ele>130.4</ele>
        <time>2019-07-12T09:13:52Z</time>
      </trkpt>
      <trkpt lat="48.114" lon="-4.17014">
        <ele>130.88</ele>
        <time>2019-07-12T09:14:07Z</time>
      </trkpt>
      <trkpt lat="48.11393" lon="-4.16998">
        <ele>131.36</ele>
        <time>2019-07-12T09:14:22Z</time>
      </trkpt>
      <trkpt lat="48.11405" lon="-4.16976">
        <ele>130.4</ele>
        <time>2019-07-12T09:14:37Z</time>
      </trkpt>
      <trkpt lat="48.11417" lon="-4.16957">
        <ele>130.4</ele>
        <time>2019-07-12T09:14:52Z</time>
      </trkpt>
      <trkpt lat="48.11429" lon="-4.16949">
        <ele>129.92</ele>
        <time>2019-07-12T09:15:07Z</time>
      </trkpt>
      <trkpt lat="48.1143" lon="-4.16946">
        <ele>129.92</ele>
        <time>2019-07-12T09:15:22Z</time>
      </trkpt>
      <trkpt lat="48.11426" lon="-4.16943">
        <ele>129.92</ele>
        <time>2019-07-12T09:15:37Z</time>
      </trkpt>
      <trkpt lat="48.11427" lon="-4.16939">
        <ele>130.4</ele>
        <time>2019-07-12T09:15:52Z</time>
      </trkpt>
      <trkpt lat="48.1143" lon="-4.1694">
        <ele>129.92</ele>
        <time>2019-07-12T09:16:07Z</time>
      </trkpt>
      <trkpt lat="48.11438" lon="-4.16944">
        <ele>129.92</ele>
        <time>2019-07-12T09:16:22Z</time>
      </trkpt>
      <trkpt lat="48.1144" lon="-4.16936">
        <ele>129.92</ele>
        <time>2019-07-12T09:16:37Z</time>
      </trkpt>
      <trkpt lat="48.11441" lon="-4.16934">
        <ele>129.43</ele>
        <time>2019-07-12T09:16:52Z</time>
      </trkpt>
      <trkpt lat="48.11437" lon="-4.16936">
        <ele>129.43</ele>
        <time>2019-07-12T09:17:07Z</time>
      </trkpt>
      <trkpt lat="48.11436" lon="-4.16936">
        <ele>128.47</ele>
        <time>2019-07-12T09:17:22Z</time>
      </trkpt>
      <trkpt lat="48.11433" lon="-4.16936">
        <ele>129.92</ele>
        <time>2019-07-12T09:17:37Z</time>
      </trkpt>
      <trkpt lat="48.11437" lon="-4.16935">
        <ele>130.4</ele>
        <time>2019-07-12T09:17:52Z</time>
      </trkpt>
      <trkpt lat="48.11432" lon="-4.16929">
        <ele>129.92</ele>
        <time>2019-07-12T09:18:07Z</time>
      </trkpt>
      <trkpt lat="48.11433" lon="-4.1693">
        <ele>129.92</ele>
        <time>2019-07-12T09:18:22Z</time>
      </trkpt>
      <trkpt lat="48.11438" lon="-4.16935">
        <ele>129.43</ele>
        <time>2019-07-12T09:18:37Z</time>
      </trkpt>
      <trkpt lat="48.11437" lon="-4.16927">
        <ele>129.92</ele>
        <time>2019-07-12T09:18:52Z</time>
      </trkpt>
      <trkpt lat="48.11435" lon="-4.16944">
        <ele>130.88</ele>
        <time>2019-07-12T09:19:07Z</time>
      </trkpt>
      <trkpt lat="48.11418" lon="-4.1696">
        <ele>130.88</ele>
        <time>2019-07-12T09:19:22Z</time>
      </trkpt>
      <trkpt lat="48.11405" lon="-4.16978">
        <ele>131.84</ele>
        <time>2019-07-12T09:19:37Z</time>
      </trkpt>
      <trkpt lat="48.11396" lon="-4.16995">
        <ele>132.32</ele>
        <time>2019-07-12T09:19:52Z</time>
      </trkpt>
      <trkpt lat="48.11387" lon="-4.16995">
        <ele>132.8</ele>
        <time>2019-07-12T09:20:07Z</time>
      </trkpt>
      <trkpt lat="48.1138" lon="-4.17007">
        <ele>132.8</ele>
        <time>2019-07-12T09:20:22Z</time>
      </trkpt>
      <trkpt lat="48.11366" lon="-4.1702">
        <ele>132.8</ele>
        <time>2019-07-12T09:20:37Z</time>
      </trkpt>
      <trkpt lat="48.11353" lon="-4.17036">
        <ele>133.76</ele>
        <time>2019-07-12T09:20:52Z</time>
      </trkpt>
      <trkpt lat="48.1134" lon="-4.17058">
        <ele>133.76</ele>
        <time>2019-07-12T09:21:07Z</time>
      </trkpt>
      <trkpt lat="48.11328" lon="-4.17084">
        <ele>134.24</ele>
        <time>2019-07-12T09:21:22Z</time>
      </trkpt>
      <trkpt lat="48.11318" lon="-4.17109">
        <ele>134.24</ele>
        <time>2019-07-12T09:21:37Z</time>
      </trkpt>
      <trkpt lat="48.11307" lon="-4.1713">
        <ele>134.72</ele>
        <time>2019-07-12T09:21:52Z</time>
      </trkpt>
      <trkpt lat="48.11296" lon="-4.17149">
        <ele>136.16</ele>
        <time>2019-07-12T09:22:07Z</time>
      </trkpt>
      <trkpt lat="48.11279" lon="-4.17149">
        <ele>136.64</ele>
        <time>2019-07-12T09:22:22Z</time>
      </trkpt>
      <trkpt lat="48.11261" lon="-4.1714">
        <ele>136.64</ele>
        <time>2019-07-12T09:22:37Z</time>
      </trkpt>
      <trkpt lat="48.11245" lon="-4.17129">
        <ele>137.61</ele>
        <time>2019-07-12T09:22:52Z</time>
      </trkpt>
      <trkpt lat="48.1123" lon="-4.17119">
        <ele>137.13</ele>
        <time>2019-07-12T09:23:07Z</time>
      </trkpt>
      <trkpt lat="48.11214" lon="-4.17113">
        <ele>137.61</ele>
        <time>2019-07-12T09:23:22Z</time>
      </trkpt>
      <trkpt lat="48.11197" lon="-4.17103">
        <ele>137.61</ele>
        <time>2019-07-12T09:23:37Z</time>
      </trkpt>
      <trkpt lat="48.11178" lon="-4.17096">
        <ele>138.57</ele>
        <time>2019-07-12T09:23:52Z</time>
      </trkpt>
      <trkpt lat="48.1116" lon="-4.17084">
        <ele>138.09</ele>
        <time>2019-07-12T09:24:07Z</time>
      </trkpt>
      <trkpt lat="48.11143" lon="-4.17074">
        <ele>138.09</ele>
        <time>2019-07-12T09:24:22Z</time>
      </trkpt>
      <trkpt lat="48.11136" lon="-4.1705">
        <ele>138.57</ele>
        <time>2019-07-12T09:24:37Z</time>
      </trkpt>
      <trkpt lat="48.11138" lon="-4.17022">
        <ele>137.13</ele>
        <time>2019-07-12T09:24:52Z</time>
      </trkpt>
      <trkpt lat="48.11142" lon="-4.16996">
        <ele>137.13</ele>
        <time>2019-07-12T09:25:07Z</time>
      </trkpt>
      <trkpt lat="48.11148" lon="-4.16971">
        <ele>136.16</ele>
        <time>2019-07-12T09:25:22Z</time>
      </trkpt>
      <trkpt lat="48.11153" lon="-4.16945">
        <ele>135.2</ele>
        <time>2019-07-12T09:25:37Z</time>
      </trkpt>
      <trkpt lat="48.11154" lon="-4.16937">
        <ele>135.2</ele>
        <time>2019-07-12T09:25:52Z</time>
      </trkpt>
      <trkpt lat="48.1116" lon="-4.16918">
        <ele>134.24</ele>
        <time>2019-07-12T09:26:07Z</time>
      </trkpt>
      <trkpt lat="48.11166" lon="-4.16894">
        <ele>133.76</ele>
        <time>2019-07-12T09:26:22Z</time>
      </trkpt>
      <trkpt lat="48.11173" lon="-4.16872">
        <ele>132.8</ele>
        <time>2019-07-12T09:26:37Z</time>
      </trkpt>
      <trkpt lat="48.11179" lon="-4.16839">
        <ele>131.84</ele>
        <time>2019-07-12T09:26:52Z</time>
      </trkpt>
      <trkpt lat="48.11184" lon="-4.16811">
        <ele>131.36</ele>
        <time>2019-07-12T09:27:07Z</time>
      </trkpt>
      <trkpt lat="48.11191" lon="-4.16786">
        <ele>129.92</ele>
        <time>2019-07-12T09:27:22Z</time>
      </trkpt>
      <trkpt lat="48.11193" lon="-4.16769">
        <ele>129.43</ele>
        <time>2019-07-12T09:27:37Z</time>
      </trkpt>
      <trkpt lat="48.11195" lon="-4.16767">
        <ele>129.92</ele>
        <time>2019-07-12T09:27:52Z</time>
      </trkpt>
      <trkpt lat="48.11195" lon="-4.16766">
        <ele>129.43</ele>
        <time>2019-07-12T09:28:07Z</time>
      </trkpt>
      <trkpt lat="48.11191" lon="-4.16759">
        <ele>129.92</ele>
        <time>2019-07-12T09:28:22Z</time>
      </trkpt>
      <trkpt lat="48.11175" lon="-4.16754">
        <ele>129.92</ele>
        <time>2019-07-12T09:28:37Z</time>
      </trkpt>
      <trkpt lat="48.11159" lon="-4.16748">
        <ele>130.4</ele>
        <time>2019-07-12T09:28:52Z</time>
      </trkpt>
      <trkpt lat="48.11143" lon="-4.16739">
        <ele>130.4</ele>
        <time>2019-07-12T09:29:07Z</time>
      </trkpt>
      <trkpt lat="48.11125" lon="-4.16733">
        <ele>130.88</ele>
        <time>2019-07-12T09:29:22Z</time>
      </trkpt>
      <trkpt lat="48.11107" lon="-4.16726">
        <ele>130.4</ele>
        <time>2019-07-12T09:29:37Z</time>
      </trkpt>
      <trkpt lat="48.11088" lon="-4.1672">
        <ele>130.4</ele>
        <time>2019-07-12T09:29:52Z</time>
      </trkpt>
      <trkpt lat="48.11071" lon="-4.16713">
        <ele>129.92</ele>
        <time>2019-07-12T09:30:07Z</time>
      </trkpt>
      <trkpt lat="48.11054" lon="-4.16703">
        <ele>129.92</ele>
        <time>2019-07-12T09:30:22Z</time>
      </trkpt>
      <trkpt lat="48.11036" lon="-4.16697">
        <ele>129.43</ele>
        <time>2019-07-12T09:30:37Z</time>
      </trkpt>
      <trkpt lat="48.11018" lon="-4.16688">
        <ele>128.95</ele>
        <time>2019-07-12T09:30:52Z</time>
      </trkpt>
      <trkpt lat="48.11006" lon="-4.16679">
        <ele>127.99</ele>
        <time>2019-07-12T09:31:07Z</time>
      </trkpt>
      <trkpt lat="48.1099" lon="-4.16673">
        <ele>127.99</ele>
        <time>2019-07-12T09:31:22Z</time>
      </trkpt>
      <trkpt lat="48.10972" lon="-4.16666">
        <ele>127.51</ele>
        <time>2019-07-12T09:31:37Z</time>
      </trkpt>
      <trkpt lat="48.10953" lon="-4.16658">
        <ele>126.55</ele>
        <time>2019-07-12T09:31:52Z</time>
      </trkpt>
      <trkpt lat="48.10935" lon="-4.16651">
        <ele>125.11</ele>
        <time>2019-07-12T09:32:07Z</time>
      </trkpt>
      <trkpt lat="48.10918" lon="-4.16643">
        <ele>124.15</ele>
        <time>2019-07-12T09:32:22Z</time>
      </trkpt>
      <trkpt lat="48.10901" lon="-4.16634">
        <ele>123.67</ele>
        <time>2019-07-12T09:32:37Z</time>
      </trkpt>
      <trkpt lat="48.10885" lon="-4.16627">
        <ele>122.71</ele>
        <time>2019-07-12T09:32:52Z</time>
      </trkpt>
      <trkpt lat="48.10883" lon="-4.16633">
        <ele>122.71</ele>
        <time>2019-07-12T09:33:07Z</time>
      </trkpt>
      <trkpt lat="48.10879" lon="-4.1665">
        <ele>123.67</ele>
        <time>2019-07-12T09:33:22Z</time>
      </trkpt>
      <trkpt lat="48.10877" lon="-4.16672">
        <ele>124.15</ele>
        <time>2019-07-12T09:33:37Z</time>
      </trkpt>
      <trkpt lat="48.10878" lon="-4.16695">
        <ele>124.63</ele>
        <time>2019-07-12T09:33:52Z</time>
      </trkpt>
      <trkpt lat="48.10878" lon="-4.16721">
        <ele>126.07</ele>
        <time>2019-07-12T09:34:07Z</time>
      </trkpt>
      <trkpt lat="48.10878" lon="-4.16748">
        <ele>126.07</ele>
        <time>2019-07-12T09:34:22Z</time>
      </trkpt>
      <trkpt lat="48.10874" lon="-4.16773">
        <ele>126.55</ele>
        <time>2019-07-12T09:34:37Z</time>
      </trkpt>
      <trkpt lat="48.10872" lon="-4.16798">
        <ele>127.03</ele>
        <time>2019-07-12T09:34:52Z</time>
      </trkpt>
      <trkpt lat="48.10869" lon="-4.16822">
        <ele>127.03</ele>
        <time>2019-07-12T09:35:07Z</time>
      </trkpt>
      <trkpt lat="48.10868" lon="-4.16846">
        <ele>128.47</ele>
        <time>2019-07-12T09:35:22Z</time>
      </trkpt>
      <trkpt lat="48.10864" lon="-4.16873">
        <ele>129.43</ele>
        <time>2019-07-12T09:35:37Z</time>
      </trkpt>
      <trkpt lat="48.1086" lon="-4.16898">
        <ele>129.43</ele>
        <time>2019-07-12T09:35:52Z</time>
      </trkpt>
      <trkpt lat="48.10858" lon="-4.16902">
        <ele>129.92</ele>
        <time>2019-07-12T09:36:07Z</time>
      </trkpt>
      <trkpt lat="48.1085" lon="-4.16902">
        <ele>129.43</ele>
        <time>2019-07-12T09:36:22Z</time>
      </trkpt>
      <trkpt lat="48.10835" lon="-4.16904">
        <ele>130.4</ele>
        <time>2019-07-12T09:36:37Z</time>
      </trkpt>
      <trkpt lat="48.10817" lon="-4.16905">
        <ele>129.92</ele>
        <time>2019-07-12T09:36:52Z</time>
      </trkpt>
      <trkpt lat="48.10799" lon="-4.16906">
        <ele>129.43</ele>
        <time>2019-07-12T09:37:07Z</time>
      </trkpt>
      <trkpt lat="48.10783" lon="-4.16909">
        <ele>130.4</ele>
        <time>2019-07-12T09:37:22Z</time>
      </trkpt>
      <trkpt lat="48.10772" lon="-4.1692">
        <ele>130.88</ele>
        <time>2019-07-12T09:37:37Z</time>
      </trkpt>
      <trkpt lat="48.1077" lon="-4.16939">
        <ele>132.32</ele>
        <time>2019-07-12T09:37:52Z</time>
      </trkpt>
      <trkpt lat="48.10762" lon="-4.16967">
        <ele>134.24</ele>
        <time>2019-07-12T09:38:07Z</time>
      </trkpt>
      <trkpt lat="48.10756" lon="-4.16986">
        <ele>135.2</ele>
        <time>2019-07-12T09:38:22Z</time>
      </trkpt>
      <trkpt lat="48.10744" lon="-4.17">
        <ele>136.16</ele>
        <time>2019-07-12T09:38:37Z</time>
      </trkpt>
      <trkpt lat="48.10745" lon="-4.16999">
        <ele>136.64</ele>
        <time>2019-07-12T09:38:52Z</time>
      </trkpt>
      <trkpt lat="48.10745" lon="-4.16995">
        <ele>136.64</ele>
        <time>2019-07-12T09:39:07Z</time>
      </trkpt>
      <trkpt lat="48.10745" lon="-4.16995">
        <ele>136.64</ele>
        <time>2019-07-12T09:39:22Z</time>
      </trkpt>
      <trkpt lat="48.10745" lon="-4.16986">
        <ele>136.16</ele>
        <time>2019-07-12T09:39:37Z</time>
      </trkpt>
      <trkpt lat="48.10732" lon="-4.16981">
        <ele>135.2</ele>
        <time>2019-07-12T09:39:52Z</time>
      </trkpt>
      <trkpt lat="48.10725" lon="-4.16967">
        <ele>134.72</ele>
        <time>2019-07-12T09:40:07Z</time>
      </trkpt>
      <trkpt lat="48.10727" lon="-4.16946">
        <ele>133.28</ele>
        <time>2019-07-12T09:40:22Z</time>
      </trkpt>
      <trkpt lat="48.10724" lon="-4.16918">
        <ele>133.76</ele>
        <time>2019-07-12T09:40:37Z</time>
      </trkpt>
      <trkpt lat="48.10727" lon="-4.16911">
        <ele>132.8</ele>
        <time>2019-07-12T09:40:52Z</time>
      </trkpt>
      <trkpt lat="48.10728" lon="-4.16909">
        <ele>132.32</ele>
        <time>2019-07-12T09:41:07Z</time>
      </trkpt>
      <trkpt lat="48.10726" lon="-4.16904">
        <ele>132.32</ele>
        <time>2019-07-12T09:41:22Z</time>
      </trkpt>
      <trkpt lat="48.10728" lon="-4.1691">
        <ele>132.32</ele>
        <time>2019-07-12T09:41:37Z</time>
      </trkpt>
      <trkpt lat="48.10726" lon="-4.16908">
        <ele>132.32</ele>
        <time>2019-07-12T09:41:52Z</time>
      </trkpt>
      <trkpt lat="48.10725" lon="-4.1691">
        <ele>132.32</ele>
        <time>2019-07-12T09:42:07Z</time>
      </trkpt>
      <trkpt lat="48.10734" lon="-4.16911">
        <ele>133.28</ele>
        <time>2019-07-12T09:42:22Z</time>
      </trkpt>
      <trkpt lat="48.10736" lon="-4.16916">
        <ele>133.28</ele>
        <time>2019-07-12T09:42:37Z</time>
      </trkpt>
      <trkpt lat="48.10735" lon="-4.16916">
        <ele>133.28</ele>
        <time>2019-07-12T09:42:52Z</time>
      </trkpt>
      <trkpt lat="48.10732" lon="-4.16915">
        <ele>132.8</ele>
        <time>2019-07-12T09:43:07Z</time>
      </trkpt>
      <trkpt lat="48.10733" lon="-4.16915">
        <ele>133.28</ele>
        <time>2019-07-12T09:43:22Z</time>
      </trkpt>
      <trkpt lat="48.10725" lon="-4.1692">
        <ele>132.32</ele>
        <time>2019-07-12T09:43:37Z</time>
      </trkpt>
      <trkpt lat="48.10725" lon="-4.16919">
        <ele>132.8</ele>
        <time>2019-07-12T09:43:52Z</time>
      </trkpt>
      <trkpt lat="48.10725" lon="-4.16923">
        <ele>132.32</ele>
        <time>2019-07-12T09:44:07Z</time>
      </trkpt>
      <trkpt lat="48.10722" lon="-4.16923">
        <ele>134.24</ele>
        <time>2019-07-12T09:44:22Z</time>
      </trkpt>
      <trkpt lat="48.10726" lon="-4.16907">
        <ele>134.24</ele>
        <time>2019-07-12T09:44:37Z</time>
      </trkpt>
      <trkpt lat="48.10727" lon="-4.16918">
        <ele>133.76</ele>
        <time>2019-07-12T09:44:52Z</time>
      </trkpt>
      <trkpt lat="48.10728" lon="-4.1692">
        <ele>133.76</ele>
        <time>2019-07-12T09:45:07Z</time>
      </trkpt>
      <trkpt lat="48.10725" lon="-4.16915">
        <ele>134.72</ele>
        <time>2019-07-12T09:45:22Z</time>
      </trkpt>
      <trkpt lat="48.10718" lon="-4.16911">
        <ele>136.16</ele>
        <time>2019-07-12T09:45:37Z</time>
      </trkpt>
      <trkpt lat="48.10714" lon="-4.16908">
        <ele>135.68</ele>
        <time>2019-07-12T09:45:52Z</time>
      </trkpt>
      <trkpt lat="48.10712" lon="-4.16902">
        <ele>136.16</ele>
        <time>2019-07-12T09:46:07Z</time>
      </trkpt>
      <trkpt lat="48.10716" lon="-4.16891">
        <ele>136.16</ele>
        <time>2019-07-12T09:46:22Z</time>
      </trkpt>
      <trkpt lat="48.10716" lon="-4.16884">
        <ele>136.16</ele>
        <time>2019-07-12T09:46:37Z</time>
      </trkpt>
      <trkpt lat="48.10717" lon="-4.16872">
        <ele>135.68</ele>
        <time>2019-07-12T09:46:52Z</time>
      </trkpt>
      <trkpt lat="48.10719" lon="-4.16849">
        <ele>135.2</ele>
        <time>2019-07-12T09:47:07Z</time>
      </trkpt>
      <trkpt lat="48.10715" lon="-4.16819">
        <ele>135.68</ele>
        <time>2019-07-12T09:47:22Z</time>
      </trkpt>
      <trkpt lat="48.10712" lon="-4.16796">
        <ele>136.16</ele>
        <time>2019-07-12T09:47:37Z</time>
      </trkpt>
      <trkpt lat="48.10712" lon="-4.16773">
        <ele>134.72</ele>
        <time>2019-07-12T09:47:52Z</time>
      </trkpt>
      <trkpt lat="48.10707" lon="-4.16747">
        <ele>135.2</ele>
        <time>2019-07-12T09:48:07Z</time>
      </trkpt>
      <trkpt lat="48.10704" lon="-4.16725">
        <ele>136.16</ele>
        <time>2019-07-12T09:48:22Z</time>
      </trkpt>
      <trkpt lat="48.10705" lon="-4.167">
        <ele>136.16</ele>
        <time>2019-07-12T09:48:37Z</time>
      </trkpt>
      <trkpt lat="48.10706" lon="-4.16679">
        <ele>137.13</ele>
        <time>2019-07-12T09:48:52Z</time>
      </trkpt>
      <trkpt lat="48.10701" lon="-4.16658">
        <ele>138.09</ele>
        <time>2019-07-12T09:49:07Z</time>
      </trkpt>
      <trkpt lat="48.107" lon="-4.16631">
        <ele>137.61</ele>
        <time>2019-07-12T09:49:22Z</time>
      </trkpt>
      <trkpt lat="48.1069" lon="-4.16614">
        <ele>138.57</ele>
        <time>2019-07-12T09:49:37Z</time>
      </trkpt>
      <trkpt lat="48.10683" lon="-4.16597">
        <ele>138.57</ele>
        <time>2019-07-12T09:49:52Z</time>
      </trkpt>
      <trkpt lat="48.10682" lon="-4.16595">
        <ele>140.01</ele>
        <time>2019-07-12T09:50:07Z</time>
      </trkpt>
      <trkpt lat="48.10683" lon="-4.16599">
        <ele>139.53</ele>
        <time>2019-07-12T09:50:22Z</time>
      </trkpt>
      <trkpt lat="48.10671" lon="-4.16591">
        <ele>140.01</ele>
        <time>2019-07-12T09:50:37Z</time>
      </trkpt>
      <trkpt lat="48.1066" lon="-4.16578">
        <ele>141.45</ele>
        <time>2019-07-12T09:50:52Z</time>
      </trkpt>
      <trkpt lat="48.10645" lon="-4.16561">
        <ele>141.45</ele>
        <time>2019-07-12T09:51:07Z</time>
      </trkpt>
      <trkpt lat="48.10637" lon="-4.1655">
        <ele>140.97</ele>
        <time>2019-07-12T09:51:22Z</time>
      </trkpt>
      <trkpt lat="48.10634" lon="-4.16557">
        <ele>141.45</ele>
        <time>2019-07-12T09:51:37Z</time>
      </trkpt>
      <trkpt lat="48.10642" lon="-4.16553">
        <ele>141.45</ele>
        <time>2019-07-12T09:51:52Z</time>
      </trkpt>
      <trkpt lat="48.10643" lon="-4.16553">
        <ele>141.45</ele>
        <time>2019-07-12T09:52:07Z</time>
      </trkpt>
      <trkpt lat="48.10645" lon="-4.16555">
        <ele>141.45</ele>
        <time>2019-07-12T09:52:22Z</time>
      </trkpt>
      <trkpt lat="48.10647" lon="-4.16555">
        <ele>141.45</ele>
        <time>2019-07-12T09:52:37Z</time>
      </trkpt>
      <trkpt lat="48.10639" lon="-4.16547">
        <ele>142.41</ele>
        <time>2019-07-12T09:52:52Z</time>
      </trkpt>
      <trkpt lat="48.10624" lon="-4.16532">
        <ele>141.93</ele>
        <time>2019-07-12T09:53:07Z</time>
      </trkpt>
      <trkpt lat="48.10613" lon="-4.16515">
        <ele>142.41</ele>
        <time>2019-07-12T09:53:22Z</time>
      </trkpt>
      <trkpt lat="48.10602" lon="-4.16497">
        <ele>144.34</ele>
        <time>2019-07-12T09:53:37Z</time>
      </trkpt>
      <trkpt lat="48.10598" lon="-4.16471">
        <ele>146.74</ele>
        <time>2019-07-12T09:53:52Z</time>
      </trkpt>
      <trkpt lat="48.10608" lon="-4.16445">
        <ele>146.74</ele>
        <time>2019-07-12T09:54:07Z</time>
      </trkpt>
      <trkpt lat="48.10619" lon="-4.16445">
        <ele>144.82</ele>
        <time>2019-07-12T09:54:22Z</time>
      </trkpt>
      <trkpt lat="48.10639" lon="-4.16437">
        <ele>144.34</ele>
        <time>2019-07-12T09:54:37Z</time>
      </trkpt>
      <trkpt lat="48.10659" lon="-4.16449">
        <ele>142.41</ele>
        <time>2019-07-12T09:54:52Z</time>
      </trkpt>
      <trkpt lat="48.10667" lon="-4.16458">
        <ele>140.01</ele>
        <time>2019-07-12T09:55:07Z</time>
      </trkpt>
      <trkpt lat="48.10676" lon="-4.16462">
        <ele>139.05</ele>
        <time>2019-07-12T09:55:22Z</time>
      </trkpt>
      <trkpt lat="48.10682" lon="-4.16469">
        <ele>138.57</ele>
        <time>2019-07-12T09:55:37Z</time>
      </trkpt>
      <trkpt lat="48.10694" lon="-4.16482">
        <ele>137.61</ele>
        <time>2019-07-12T09:55:52Z</time>
      </trkpt>
      <trkpt lat="48.10709" lon="-4.16488">
        <ele>137.61</ele>
        <time>2019-07-12T09:56:07Z</time>
      </trkpt>
      <trkpt lat="48.10728" lon="-4.16493">
        <ele>136.64</ele>
        <time>2019-07-12T09:56:22Z</time>
      </trkpt>
      <trkpt lat="48.10738" lon="-4.16493">
        <ele>136.64</ele>
        <time>2019-07-12T09:56:37Z</time>
      </trkpt>
      <trkpt lat="48.10758" lon="-4.16491">
        <ele>134.24</ele>
        <time>2019-07-12T09:56:52Z</time>
      </trkpt>
      <trkpt lat="48.1078" lon="-4.16488">
        <ele>131.84</ele>
        <time>2019-07-12T09:57:07Z</time>
      </trkpt>
      <trkpt lat="48.10796" lon="-4.16481">
        <ele>130.4</ele>
        <time>2019-07-12T09:57:22Z</time>
      </trkpt>
      <trkpt lat="48.10809" lon="-4.16478">
        <ele>128.47</ele>
        <time>2019-07-12T09:57:37Z</time>
      </trkpt>
      <trkpt lat="48.10814" lon="-4.16484">
        <ele>127.99</ele>
        <time>2019-07-12T09:57:52Z</time>
      </trkpt>
      <trkpt lat="48.10816" lon="-4.16485">
        <ele>127.99</ele>
        <time>2019-07-12T09:58:07Z</time>
      </trkpt>
      <trkpt lat="48.10819" lon="-4.16487">
        <ele>127.99</ele>
        <time>2019-07-12T09:58:22Z</time>
      </trkpt>
      <trkpt lat="48.10821" lon="-4.1649">
        <ele>128.47</ele>
        <time>2019-07-12T09:58:37Z</time>
      </trkpt>
      <trkpt lat="48.1082" lon="-4.16492">
        <ele>128.95</ele>
        <time>2019-07-12T09:58:52Z</time>
      </trkpt>
      <trkpt lat="48.10825" lon="-4.16492">
        <ele>127.99</ele>
        <time>2019-07-12T09:59:07Z</time>
      </trkpt>
      <trkpt lat="48.10836" lon="-4.165">
        <ele>126.55</ele>
        <time>2019-07-12T09:59:22Z</time>
      </trkpt>
      <trkpt lat="48.10846" lon="-4.16513">
        <ele>126.55</ele>
        <time>2019-07-12T09:59:37Z</time>
      </trkpt>
      <trkpt lat="48.10865" lon="-4.16521">
        <ele>125.11</ele>
        <time>2019-07-12T09:59:52Z</time>
      </trkpt>
      <trkpt lat="48.10875" lon="-4.16508">
        <ele>125.11</ele>
        <time>2019-07-12T10:00:07Z</time>
      </trkpt>
      <trkpt lat="48.10883" lon="-4.16484">
        <ele>125.59</ele>
        <time>2019-07-12T10:00:22Z</time>
      </trkpt>
      <trkpt lat="48.10889" lon="-4.1646">
        <ele>125.11</ele>
        <time>2019-07-12T10:00:37Z</time>
      </trkpt>
      <trkpt lat="48.10898" lon="-4.16436">
        <ele>125.59</ele>
        <time>2019-07-12T10:00:52Z</time>
      </trkpt>
      <trkpt lat="48.10906" lon="-4.16411">
        <ele>126.55</ele>
        <time>2019-07-12T10:01:07Z</time>
      </trkpt>
      <trkpt lat="48.10913" lon="-4.16389">
        <ele>126.55</ele>
        <time>2019-07-12T10:01:22Z</time>
      </trkpt>
      <trkpt lat="48.1092" lon="-4.16363">
        <ele>127.03</ele>
        <time>2019-07-12T10:01:37Z</time>
      </trkpt>
      <trkpt lat="48.10925" lon="-4.16335">
        <ele>127.51</ele>
        <time>2019-07-12T10:01:52Z</time>
      </trkpt>
      <trkpt lat="48.10931" lon="-4.1631">
        <ele>127.03</ele>
        <time>2019-07-12T10:02:07Z</time>
      </trkpt>
      <trkpt lat="48.10937" lon="-4.16287">
        <ele>127.99</ele>
        <time>2019-07-12T10:02:22Z</time>
      </trkpt>
      <trkpt lat="48.10946" lon="-4.16264">
        <ele>127.99</ele>
        <time>2019-07-12T10:02:37Z</time>
      </trkpt>
      <trkpt lat="48.10954" lon="-4.16236">
        <ele>128.47</ele>
        <time>2019-07-12T10:02:52Z</time>
      </trkpt>
      <trkpt lat="48.1096" lon="-4.16211">
        <ele>127.99</ele>
        <time>2019-07-12T10:03:07Z</time>
      </trkpt>
      <trkpt lat="48.10965" lon="-4.16185">
        <ele>127.99</ele>
        <time>2019-07-12T10:03:22Z</time>
      </trkpt>
      <trkpt lat="48.10968" lon="-4.1616">
        <ele>127.51</ele>
        <time>2019-07-12T10:03:37Z</time>
      </trkpt>
      <trkpt lat="48.10973" lon="-4.16137">
        <ele>126.55</ele>
        <time>2019-07-12T10:03:52Z</time>
      </trkpt>
      <trkpt lat="48.10975" lon="-4.16107">
        <ele>127.03</ele>
        <time>2019-07-12T10:04:07Z</time>
      </trkpt>
      <trkpt lat="48.10981" lon="-4.16079">
        <ele>126.55</ele>
        <time>2019-07-12T10:04:22Z</time>
      </trkpt>
      <trkpt lat="48.10988" lon="-4.16051">
        <ele>127.03</ele>
        <time>2019-07-12T10:04:37Z</time>
      </trkpt>
      <trkpt lat="48.10994" lon="-4.16029">
        <ele>127.03</ele>
        <time>2019-07-12T10:04:52Z</time>
      </trkpt>
      <trkpt lat="48.10996" lon="-4.16001">
        <ele>127.51</ele>
        <time>2019-07-12T10:05:07Z</time>
      </trkpt>
      <trkpt lat="48.11" lon="-4.15977">
        <ele>127.99</ele>
        <time>2019-07-12T10:05:22Z</time>
      </trkpt>
      <trkpt lat="48.11004" lon="-4.15954">
        <ele>128.47</ele>
        <time>2019-07-12T10:05:37Z</time>
      </trkpt>
      <trkpt lat="48.11004" lon="-4.15929">
        <ele>129.92</ele>
        <time>2019-07-12T10:05:52Z</time>
      </trkpt>
      <trkpt lat="48.11003" lon="-4.15905">
        <ele>131.36</ele>
        <time>2019-07-12T10:06:07Z</time>
      </trkpt>
      <trkpt lat="48.11004" lon="-4.15878">
        <ele>132.32</ele>
        <time>2019-07-12T10:06:22Z</time>
      </trkpt>
      <trkpt lat="48.11004" lon="-4.15867">
        <ele>132.8</ele>
        <time>2019-07-12T10:06:37Z</time>
      </trkpt>
      <trkpt lat="48.11005" lon="-4.15837">
        <ele>133.28</ele>
        <time>2019-07-12T10:06:52Z</time>
      </trkpt>
      <trkpt lat="48.11006" lon="-4.15809">
        <ele>133.76</ele>
        <time>2019-07-12T10:07:07Z</time>
      </trkpt>
      <trkpt lat="48.11006" lon="-4.15782">
        <ele>133.76</ele>
        <time>2019-07-12T10:07:22Z</time>
      </trkpt>
      <trkpt lat="48.11007" lon="-4.15757">
        <ele>133.76</ele>
        <time>2019-07-12T10:07:37Z</time>
      </trkpt>
      <trkpt lat="48.1101" lon="-4.15732">
        <ele>133.76</ele>
        <time>2019-07-12T10:07:52Z</time>
      </trkpt>
      <trkpt lat="48.11013" lon="-4.15706">
        <ele>133.28</ele>
        <time>2019-07-12T10:08:07Z</time>
      </trkpt>
      <trkpt lat="48.11015" lon="-4.15679">
        <ele>133.28</ele>
        <time>2019-07-12T10:08:22Z</time>
      </trkpt>
      <trkpt lat="48.11017" lon="-4.1565">
        <ele>132.8</ele>
        <time>2019-07-12T10:08:37Z</time>
      </trkpt>
      <trkpt lat="48.11019" lon="-4.15623">
        <ele>132.8</ele>
        <time>2019-07-12T10:08:52Z</time>
      </trkpt>
      <trkpt lat="48.11024" lon="-4.15602">
        <ele>131.84</ele>
        <time>2019-07-12T10:09:07Z</time>
      </trkpt>
      <trkpt lat="48.11025" lon="-4.15575">
        <ele>131.36</ele>
        <time>2019-07-12T10:09:22Z</time>
      </trkpt>
      <trkpt lat="48.11029" lon="-4.15545">
        <ele>130.88</ele>
        <time>2019-07-12T10:09:37Z</time>
      </trkpt>
      <trkpt lat="48.11027" lon="-4.15517">
        <ele>131.36</ele>
        <time>2019-07-12T10:09:52Z</time>
      </trkpt>
      <trkpt lat="48.11022" lon="-4.15494">
        <ele>130.88</ele>
        <time>2019-07-12T10:10:07Z</time>
      </trkpt>
      <trkpt lat="48.11023" lon="-4.15496">
        <ele>130.88</ele>
        <time>2019-07-12T10:10:22Z</time>
      </trkpt>
      <trkpt lat="48.11022" lon="-4.15497">
        <ele>130.88</ele>
        <time>2019-07-12T10:10:37Z</time>
      </trkpt>
      <trkpt lat="48.11021" lon="-4.15496">
        <ele>130.88</ele>
        <time>2019-07-12T10:10:52Z</time>
      </trkpt>
      <trkpt lat="48.11022" lon="-4.15496">
        <ele>130.88</ele>
        <time>2019-07-12T10:11:07Z</time>
      </trkpt>
      <trkpt lat="48.11019" lon="-4.15485">
        <ele>130.88</ele>
        <time>2019-07-12T10:11:22Z</time>
      </trkpt>
      <trkpt lat="48.11004" lon="-4.15477">
        <ele>130.88</ele>
        <time>2019-07-12T10:11:37Z</time>
      </trkpt>
      <trkpt lat="48.10993" lon="-4.15458">
        <ele>130.4</ele>
        <time>2019-07-12T10:11:52Z</time>
      </trkpt>
      <trkpt lat="48.10982" lon="-4.15438">
        <ele>129.92</ele>
        <time>2019-07-12T10:12:07Z</time>
      </trkpt>
      <trkpt lat="48.10974" lon="-4.15413">
        <ele>129.92</ele>
        <time>2019-07-12T10:12:22Z</time>
      </trkpt>
      <trkpt lat="48.10964" lon="-4.15389">
        <ele>130.4</ele>
        <time>2019-07-12T10:12:37Z</time>
      </trkpt>
      <trkpt lat="48.10951" lon="-4.15369">
        <ele>130.4</ele>
        <time>2019-07-12T10:12:52Z</time>
      </trkpt>
      <trkpt lat="48.10943" lon="-4.15353">
        <ele>130.88</ele>
        <time>2019-07-12T10:13:07Z</time>
      </trkpt>
      <trkpt lat="48.10932" lon="-4.15336">
        <ele>131.36</ele>
        <time>2019-07-12T10:13:22Z</time>
      </trkpt>
      <trkpt lat="48.10914" lon="-4.15306">
        <ele>131.84</ele>
        <time>2019-07-12T10:13:37Z</time>
      </trkpt>
      <trkpt lat="48.10901" lon="-4.15287">
        <ele>132.8</ele>
        <time>2019-07-12T10:13:52Z</time>
      </trkpt>
      <trkpt lat="48.1089" lon="-4.15268">
        <ele>133.28</ele>
        <time>2019-07-12T10:14:07Z</time>
      </trkpt>
      <trkpt lat="48.10878" lon="-4.15245">
        <ele>133.76</ele>
        <time>2019-07-12T10:14:22Z</time>
      </trkpt>
      <trkpt lat="48.10872" lon="-4.15225">
        <ele>134.24</ele>
        <time>2019-07-12T10:14:37Z</time>
      </trkpt>
      <trkpt lat="48.10865" lon="-4.15199">
        <ele>134.24</ele>
        <time>2019-07-12T10:14:52Z</time>
      </trkpt>
      <trkpt lat="48.10858" lon="-4.15175">
        <ele>134.72</ele>
        <time>2019-07-12T10:15:07Z</time>
      </trkpt>
      <trkpt lat="48.1085" lon="-4.15154">
        <ele>134.72</ele>
        <time>2019-07-12T10:15:22Z</time>
      </trkpt>
      <trkpt lat="48.10841" lon="-4.15132">
        <ele>135.68</ele>
        <time>2019-07-12T10:15:37Z</time>
      </trkpt>
      <trkpt lat="48.1083" lon="-4.15107">
        <ele>136.16</ele>
        <time>2019-07-12T10:15:52Z</time>
      </trkpt>
      <trkpt lat="48.10821" lon="-4.15089">
        <ele>136.64</ele>
        <time>2019-07-12T10:16:07Z</time>
      </trkpt>
      <trkpt lat="48.10813" lon="-4.15068">
        <ele>138.09</ele>
        <time>2019-07-12T10:16:22Z</time>
      </trkpt>
      <trkpt lat="48.10805" lon="-4.15045">
        <ele>139.53</ele>
        <time>2019-07-12T10:16:37Z</time>
      </trkpt>
      <trkpt lat="48.10796" lon="-4.15009">
        <ele>140.01</ele>
        <time>2019-07-12T10:16:52Z</time>
      </trkpt>
      <trkpt lat="48.10789" lon="-4.1499">
        <ele>141.45</ele>
        <time>2019-07-12T10:17:07Z</time>
      </trkpt>
      <trkpt lat="48.10783" lon="-4.14984">
        <ele>142.41</ele>
        <time>2019-07-12T10:17:22Z</time>
      </trkpt>
      <trkpt lat="48.10778" lon="-4.1498">
        <ele>141.93</ele>
        <time>2019-07-12T10:17:37Z</time>
      </trkpt>
      <trkpt lat="48.10777" lon="-4.14978">
        <ele>141.45</ele>
        <time>2019-07-12T10:17:52Z</time>
      </trkpt>
      <trkpt lat="48.10776" lon="-4.14955">
        <ele>142.89</ele>
        <time>2019-07-12T10:18:07Z</time>
      </trkpt>
      <trkpt lat="48.10766" lon="-4.14928">
        <ele>143.85</ele>
        <time>2019-07-12T10:18:22Z</time>
      </trkpt>
      <trkpt lat="48.10761" lon="-4.14906">
        <ele>145.78</ele>
        <time>2019-07-12T10:18:37Z</time>
      </trkpt>
      <trkpt lat="48.10754" lon="-4.1489">
        <ele>147.22</ele>
        <time>2019-07-12T10:18:52Z</time>
      </trkpt>
      <trkpt lat="48.10743" lon="-4.14863">
        <ele>148.66</ele>
        <time>2019-07-12T10:19:07Z</time>
      </trkpt>
      <trkpt lat="48.10731" lon="-4.14845">
        <ele>150.1</ele>
        <time>2019-07-12T10:19:22Z</time>
      </trkpt>
      <trkpt lat="48.10723" lon="-4.14834">
        <ele>152.03</ele>
        <time>2019-07-12T10:19:37Z</time>
      </trkpt>
      <trkpt lat="48.10715" lon="-4.14824">
        <ele>152.99</ele>
        <time>2019-07-12T10:19:52Z</time>
      </trkpt>
      <trkpt lat="48.107" lon="-4.14811">
        <ele>153.47</ele>
        <time>2019-07-12T10:20:07Z</time>
      </trkpt>
      <trkpt lat="48.10696" lon="-4.14807">
        <ele>152.99</ele>
        <time>2019-07-12T10:20:22Z</time>
      </trkpt>
      <trkpt lat="48.10684" lon="-4.14793">
        <ele>154.91</ele>
        <time>2019-07-12T10:20:37Z</time>
      </trkpt>
      <trkpt lat="48.10663" lon="-4.14784">
        <ele>155.87</ele>
        <time>2019-07-12T10:20:52Z</time>
      </trkpt>
      <trkpt lat="48.10646" lon="-4.14775">
        <ele>157.31</ele>
        <time>2019-07-12T10:21:07Z</time>
      </trkpt>
      <trkpt lat="48.1063" lon="-4.14763">
        <ele>158.27</ele>
        <time>2019-07-12T10:21:22Z</time>
      </trkpt>
      <trkpt lat="48.10619" lon="-4.14745">
        <ele>159.72</ele>
        <time>2019-07-12T10:21:37Z</time>
      </trkpt>
      <trkpt lat="48.10609" lon="-4.14718">
        <ele>160.68</ele>
        <time>2019-07-12T10:21:52Z</time>
      </trkpt>
      <trkpt lat="48.10603" lon="-4.14698">
        <ele>161.64</ele>
        <time>2019-07-12T10:22:07Z</time>
      </trkpt>
      <trkpt lat="48.10596" lon="-4.14675">
        <ele>162.12</ele>
        <time>2019-07-12T10:22:22Z</time>
      </trkpt>
      <trkpt lat="48.10584" lon="-4.14654">
        <ele>163.56</ele>
        <time>2019-07-12T10:22:37Z</time>
      </trkpt>
      <trkpt lat="48.10574" lon="-4.14638">
        <ele>165</ele>
        <time>2019-07-12T10:22:52Z</time>
      </trkpt>
      <trkpt lat="48.10569" lon="-4.14636">
        <ele>164.52</ele>
        <time>2019-07-12T10:23:07Z</time>
      </trkpt>
      <trkpt lat="48.1056" lon="-4.14614">
        <ele>166.45</ele>
        <time>2019-07-12T10:23:22Z</time>
      </trkpt>
      <trkpt lat="48.1055" lon="-4.14594">
        <ele>166.93</ele>
        <time>2019-07-12T10:23:37Z</time>
      </trkpt>
      <trkpt lat="48.10537" lon="-4.14576">
        <ele>168.85</ele>
        <time>2019-07-12T10:23:52Z</time>
      </trkpt>
      <trkpt lat="48.10521" lon="-4.14569">
        <ele>170.29</ele>
        <time>2019-07-12T10:24:07Z</time>
      </trkpt>
      <trkpt lat="48.10502" lon="-4.14569">
        <ele>171.25</ele>
        <time>2019-07-12T10:24:22Z</time>
      </trkpt>
      <trkpt lat="48.1049" lon="-4.14575">
        <ele>172.69</ele>
        <time>2019-07-12T10:24:37Z</time>
      </trkpt>
      <trkpt lat="48.10472" lon="-4.14585">
        <ele>174.14</ele>
        <time>2019-07-12T10:24:52Z</time>
      </trkpt>
      <trkpt lat="48.10456" lon="-4.14595">
        <ele>174.62</ele>
        <time>2019-07-12T10:25:07Z</time>
      </trkpt>
      <trkpt lat="48.10442" lon="-4.14603">
        <ele>175.58</ele>
        <time>2019-07-12T10:25:22Z</time>
      </trkpt>
      <trkpt lat="48.10438" lon="-4.14614">
        <ele>175.1</ele>
        <time>2019-07-12T10:25:37Z</time>
      </trkpt>
      <trkpt lat="48.1044" lon="-4.14619">
        <ele>175.1</ele>
        <time>2019-07-12T10:25:52Z</time>
      </trkpt>
      <trkpt lat="48.10438" lon="-4.14616">
        <ele>175.58</ele>
        <time>2019-07-12T10:26:07Z</time>
      </trkpt>
      <trkpt lat="48.10437" lon="-4.14614">
        <ele>174.62</ele>
        <time>2019-07-12T10:26:22Z</time>
      </trkpt>
      <trkpt lat="48.10438" lon="-4.14613">
        <ele>174.62</ele>
        <time>2019-07-12T10:26:37Z</time>
      </trkpt>
      <trkpt lat="48.10442" lon="-4.14617">
        <ele>175.58</ele>
        <time>2019-07-12T10:26:52Z</time>
      </trkpt>
      <trkpt lat="48.10443" lon="-4.14618">
        <ele>174.62</ele>
        <time>2019-07-12T10:27:07Z</time>
      </trkpt>
      <trkpt lat="48.1044" lon="-4.1462">
        <ele>174.14</ele>
        <time>2019-07-12T10:27:22Z</time>
      </trkpt>
      <trkpt lat="48.1044" lon="-4.1462">
        <ele>173.66</ele>
        <time>2019-07-12T10:27:37Z</time>
      </trkpt>
      <trkpt lat="48.10443" lon="-4.14623">
        <ele>174.62</ele>
        <time>2019-07-12T10:27:52Z</time>
      </trkpt>
      <trkpt lat="48.10444" lon="-4.14625">
        <ele>174.62</ele>
        <time>2019-07-12T10:28:07Z</time>
      </trkpt>
      <trkpt lat="48.10444" lon="-4.14626">
        <ele>175.1</ele>
        <time>2019-07-12T10:28:22Z</time>
      </trkpt>
      <trkpt lat="48.10443" lon="-4.14623">
        <ele>175.1</ele>
        <time>2019-07-12T10:28:37Z</time>
      </trkpt>
      <trkpt lat="48.10443" lon="-4.14619">
        <ele>174.62</ele>
        <time>2019-07-12T10:28:52Z</time>
      </trkpt>
      <trkpt lat="48.10442" lon="-4.14616">
        <ele>174.62</ele>
        <time>2019-07-12T10:29:07Z</time>
      </trkpt>
      <trkpt lat="48.1044" lon="-4.14617">
        <ele>174.62</ele>
        <time>2019-07-12T10:29:22Z</time>
      </trkpt>
      <trkpt lat="48.10438" lon="-4.14613">
        <ele>175.1</ele>
        <time>2019-07-12T10:29:37Z</time>
      </trkpt>
      <trkpt lat="48.10439" lon="-4.14614">
        <ele>174.62</ele>
        <time>2019-07-12T10:29:52Z</time>
      </trkpt>
      <trkpt lat="48.10437" lon="-4.14613">
        <ele>174.62</ele>
        <time>2019-07-12T10:30:07Z</time>
      </trkpt>
      <trkpt lat="48.10438" lon="-4.14613">
        <ele>174.62</ele>
        <time>2019-07-12T10:30:22Z</time>
      </trkpt>
      <trkpt lat="48.10439" lon="-4.14613">
        <ele>174.14</ele>
        <time>2019-07-12T10:30:37Z</time>
      </trkpt>
      <trkpt lat="48.1044" lon="-4.14616">
        <ele>174.62</ele>
        <time>2019-07-12T10:30:52Z</time>
      </trkpt>
      <trkpt lat="48.1044" lon="-4.14615">
        <ele>175.1</ele>
        <time>2019-07-12T10:31:07Z</time>
      </trkpt>
      <trkpt lat="48.10438" lon="-4.14617">
        <ele>175.1</ele>
        <time>2019-07-12T10:31:22Z</time>
      </trkpt>
      <trkpt lat="48.10443" lon="-4.14609">
        <ele>174.62</ele>
        <time>2019-07-12T10:31:37Z</time>
      </trkpt>
      <trkpt lat="48.10446" lon="-4.14608">
        <ele>174.62</ele>
        <time>2019-07-12T10:31:52Z</time>
      </trkpt>
      <trkpt lat="48.10445" lon="-4.1461">
        <ele>174.14</ele>
        <time>2019-07-12T10:32:07Z</time>
      </trkpt>
      <trkpt lat="48.10444" lon="-4.1461">
        <ele>174.14</ele>
        <time>2019-07-12T10:32:22Z</time>
      </trkpt>
      <trkpt lat="48.10443" lon="-4.14611">
        <ele>173.66</ele>
        <time>2019-07-12T10:32:37Z</time>
      </trkpt>
      <trkpt lat="48.10443" lon="-4.14612">
        <ele>174.14</ele>
        <time>2019-07-12T10:32:52Z</time>
      </trkpt>
      <trkpt lat="48.10443" lon="-4.14607">
        <ele>174.14</ele>
        <time>2019-07-12T10:33:07Z</time>
      </trkpt>
      <trkpt lat="48.10447" lon="-4.14605">
        <ele>174.14</ele>
        <time>2019-07-12T10:33:22Z</time>
      </trkpt>
      <trkpt lat="48.10449" lon="-4.14602">
        <ele>174.62</ele>
        <time>2019-07-12T10:33:37Z</time>
      </trkpt>
      <trkpt lat="48.10451" lon="-4.14608">
        <ele>175.1</ele>
        <time>2019-07-12T10:33:52Z</time>
      </trkpt>
      <trkpt lat="48.10453" lon="-4.1461">
        <ele>175.1</ele>
        <time>2019-07-12T10:34:07Z</time>
      </trkpt>
      <trkpt lat="48.10459" lon="-4.14611">
        <ele>175.1</ele>
        <time>2019-07-12T10:34:22Z</time>
      </trkpt>
      <trkpt lat="48.10453" lon="-4.14607">
        <ele>175.1</ele>
        <time>2019-07-12T10:34:37Z</time>
      </trkpt>
      <trkpt lat="48.1045" lon="-4.14607">
        <ele>175.58</ele>
        <time>2019-07-12T10:34:52Z</time>
      </trkpt>
      <trkpt lat="48.10452" lon="-4.14607">
        <ele>175.1</ele>
        <time>2019-07-12T10:35:07Z</time>
      </trkpt>
      <trkpt lat="48.10453" lon="-4.14606">
        <ele>175.58</ele>
        <time>2019-07-12T10:35:22Z</time>
      </trkpt>
      <trkpt lat="48.10454" lon="-4.14604">
        <ele>175.58</ele>
        <time>2019-07-12T10:35:37Z</time>
      </trkpt>
      <trkpt lat="48.10451" lon="-4.14607">
        <ele>175.58</ele>
        <time>2019-07-12T10:35:52Z</time>
      </trkpt>
      <trkpt lat="48.10443" lon="-4.14607">
        <ele>175.1</ele>
        <time>2019-07-12T10:36:07Z</time>
      </trkpt>
      <trkpt lat="48.10441" lon="-4.14607">
        <ele>176.06</ele>
        <time>2019-07-12T10:36:22Z</time>
      </trkpt>
      <trkpt lat="48.1044" lon="-4.1461">
        <ele>175.58</ele>
        <time>2019-07-12T10:36:37Z</time>
      </trkpt>
      <trkpt lat="48.10443" lon="-4.14613">
        <ele>176.06</ele>
        <time>2019-07-12T10:36:52Z</time>
      </trkpt>
      <trkpt lat="48.10445" lon="-4.14613">
        <ele>175.58</ele>
        <time>2019-07-12T10:37:07Z</time>
      </trkpt>
      <trkpt lat="48.10447" lon="-4.14607">
        <ele>176.06</ele>
        <time>2019-07-12T10:37:22Z</time>
      </trkpt>
      <trkpt lat="48.10449" lon="-4.14606">
        <ele>176.06</ele>
        <time>2019-07-12T10:37:37Z</time>
      </trkpt>
      <trkpt lat="48.10449" lon="-4.14604">
        <ele>176.06</ele>
        <time>2019-07-12T10:37:52Z</time>
      </trkpt>
      <trkpt lat="48.10449" lon="-4.14603">
        <ele>176.06</ele>
        <time>2019-07-12T10:38:07Z</time>
      </trkpt>
      <trkpt lat="48.1045" lon="-4.14603">
        <ele>176.54</ele>
        <time>2019-07-12T10:38:22Z</time>
      </trkpt>
      <trkpt lat="48.10452" lon="-4.14601">
        <ele>176.06</ele>
        <time>2019-07-12T10:38:37Z</time>
      </trkpt>
      <trkpt lat="48.10452" lon="-4.146">
        <ele>176.06</ele>
        <time>2019-07-12T10:38:52Z</time>
      </trkpt>
      <trkpt lat="48.1045" lon="-4.14605">
        <ele>176.54</ele>
        <time>2019-07-12T10:39:07Z</time>
      </trkpt>
      <trkpt lat="48.1045" lon="-4.14611">
        <ele>176.06</ele>
        <time>2019-07-12T10:39:22Z</time>
      </trkpt>
      <trkpt lat="48.10449" lon="-4.14605">
        <ele>176.54</ele>
        <time>2019-07-12T10:39:37Z</time>
      </trkpt>
      <trkpt lat="48.10447" lon="-4.14606">
        <ele>176.54</ele>
        <time>2019-07-12T10:39:52Z</time>
      </trkpt>
      <trkpt lat="48.10444" lon="-4.14608">
        <ele>176.54</ele>
        <time>2019-07-12T10:40:07Z</time>
      </trkpt>
      <trkpt lat="48.10441" lon="-4.14604">
        <ele>176.54</ele>
        <time>2019-07-12T10:40:22Z</time>
      </trkpt>
      <trkpt lat="48.10441" lon="-4.14604">
        <ele>176.54</ele>
        <time>2019-07-12T10:40:37Z</time>
      </trkpt>
      <trkpt lat="48.1045" lon="-4.14604">
        <ele>176.54</ele>
        <time>2019-07-12T10:40:52Z</time>
      </trkpt>
      <trkpt lat="48.1045" lon="-4.14604">
        <ele>176.54</ele>
        <time>2019-07-12T10:41:07Z</time>
      </trkpt>
      <trkpt lat="48.10448" lon="-4.14606">
        <ele>176.54</ele>
        <time>2019-07-12T10:41:22Z</time>
      </trkpt>
      <trkpt lat="48.10445" lon="-4.14607">
        <ele>177.02</ele>
        <time>2019-07-12T10:41:37Z</time>
      </trkpt>
      <trkpt lat="48.10437" lon="-4.14607">
        <ele>176.06</ele>
        <time>2019-07-12T10:41:52Z</time>
      </trkpt>
      <trkpt lat="48.1044" lon="-4.14607">
        <ele>176.54</ele>
        <time>2019-07-12T10:42:07Z</time>
      </trkpt>
      <trkpt lat="48.10447" lon="-4.14608">
        <ele>176.54</ele>
        <time>2019-07-12T10:42:22Z</time>
      </trkpt>
      <trkpt lat="48.10447" lon="-4.14609">
        <ele>176.54</ele>
        <time>2019-07-12T10:42:37Z</time>
      </trkpt>
      <trkpt lat="48.10446" lon="-4.14611">
        <ele>176.54</ele>
        <time>2019-07-12T10:42:52Z</time>
      </trkpt>
      <trkpt lat="48.10443" lon="-4.14614">
        <ele>177.02</ele>
        <time>2019-07-12T10:43:07Z</time>
      </trkpt>
      <trkpt lat="48.10446" lon="-4.1461">
        <ele>177.5</ele>
        <time>2019-07-12T10:43:22Z</time>
      </trkpt>
      <trkpt lat="48.10439" lon="-4.14609">
        <ele>177.02</ele>
        <time>2019-07-12T10:43:37Z</time>
      </trkpt>
      <trkpt lat="48.1044" lon="-4.1461">
        <ele>177.02</ele>
        <time>2019-07-12T10:43:52Z</time>
      </trkpt>
      <trkpt lat="48.10446" lon="-4.14615">
        <ele>177.02</ele>
        <time>2019-07-12T10:44:07Z</time>
      </trkpt>
      <trkpt lat="48.10447" lon="-4.14614">
        <ele>176.54</ele>
        <time>2019-07-12T10:44:22Z</time>
      </trkpt>
      <trkpt lat="48.10449" lon="-4.14612">
        <ele>177.5</ele>
        <time>2019-07-12T10:44:37Z</time>
      </trkpt>
      <trkpt lat="48.10445" lon="-4.14613">
        <ele>177.5</ele>
        <time>2019-07-12T10:44:52Z</time>
      </trkpt>
      <trkpt lat="48.10444" lon="-4.14611">
        <ele>177.5</ele>
        <time>2019-07-12T10:45:07Z</time>
      </trkpt>
      <trkpt lat="48.10439" lon="-4.14619">
        <ele>177.02</ele>
        <time>2019-07-12T10:45:22Z</time>
      </trkpt>
      <trkpt lat="48.10436" lon="-4.1462">
        <ele>177.5</ele>
        <time>2019-07-12T10:45:37Z</time>
      </trkpt>
      <trkpt lat="48.10441" lon="-4.14613">
        <ele>177.02</ele>
        <time>2019-07-12T10:45:52Z</time>
      </trkpt>
      <trkpt lat="48.10442" lon="-4.14613">
        <ele>177.02</ele>
        <time>2019-07-12T10:46:07Z</time>
      </trkpt>
      <trkpt lat="48.10441" lon="-4.14614">
        <ele>177.5</ele>
        <time>2019-07-12T10:46:22Z</time>
      </trkpt>
      <trkpt lat="48.1044" lon="-4.14611">
        <ele>177.02</ele>
        <time>2019-07-12T10:46:37Z</time>
      </trkpt>
      <trkpt lat="48.1044" lon="-4.14615">
        <ele>177.98</ele>
        <time>2019-07-12T10:46:52Z</time>
      </trkpt>
      <trkpt lat="48.10436" lon="-4.14617">
        <ele>178.94</ele>
        <time>2019-07-12T10:47:07Z</time>
      </trkpt>
      <trkpt lat="48.10436" lon="-4.14617">
        <ele>178.46</ele>
        <time>2019-07-12T10:47:22Z</time>
      </trkpt>
      <trkpt lat="48.1044" lon="-4.14621">
        <ele>178.46</ele>
        <time>2019-07-12T10:47:37Z</time>
      </trkpt>
      <trkpt lat="48.1044" lon="-4.14619">
        <ele>178.94</ele>
        <time>2019-07-12T10:47:52Z</time>
      </trkpt>
      <trkpt lat="48.10445" lon="-4.14612">
        <ele>178.46</ele>
        <time>2019-07-12T10:48:07Z</time>
      </trkpt>
      <trkpt lat="48.10446" lon="-4.14605">
        <ele>178.94</ele>
        <time>2019-07-12T10:48:22Z</time>
      </trkpt>
      <trkpt lat="48.10447" lon="-4.14604">
        <ele>178.46</ele>
        <time>2019-07-12T10:48:37Z</time>
      </trkpt>
      <trkpt lat="48.10449" lon="-4.14609">
        <ele>178.94</ele>
        <time>2019-07-12T10:48:52Z</time>
      </trkpt>
      <trkpt lat="48.10447" lon="-4.14613">
        <ele>179.42</ele>
        <time>2019-07-12T10:49:07Z</time>
      </trkpt>
      <trkpt lat="48.10449" lon="-4.14614">
        <ele>178.94</ele>
        <time>2019-07-12T10:49:22Z</time>
      </trkpt>
      <trkpt lat="48.10454" lon="-4.14613">
        <ele>178.94</ele>
        <time>2019-07-12T10:49:37Z</time>
      </trkpt>
      <trkpt lat="48.10459" lon="-4.14611">
        <ele>178.94</ele>
        <time>2019-07-12T10:49:52Z</time>
      </trkpt>
      <trkpt lat="48.10459" lon="-4.14607">
        <ele>178.94</ele>
        <time>2019-07-12T10:50:07Z</time>
      </trkpt>
      <trkpt lat="48.10454" lon="-4.14604">
        <ele>179.42</ele>
        <time>2019-07-12T10:50:22Z</time>
      </trkpt>
      <trkpt lat="48.10439" lon="-4.14615">
        <ele>178.94</ele>
        <time>2019-07-12T10:50:37Z</time>
      </trkpt>
      <trkpt lat="48.10431" lon="-4.14637">
        <ele>179.9</ele>
        <time>2019-07-12T10:50:52Z</time>
      </trkpt>
      <trkpt lat="48.10419" lon="-4.14651">
        <ele>180.38</ele>
        <time>2019-07-12T10:51:07Z</time>
      </trkpt>
      <trkpt lat="48.10404" lon="-4.14672">
        <ele>180.87</ele>
        <time>2019-07-12T10:51:22Z</time>
      </trkpt>
      <trkpt lat="48.10398" lon="-4.14685">
        <ele>180.87</ele>
        <time>2019-07-12T10:51:37Z</time>
      </trkpt>
      <trkpt lat="48.10387" lon="-4.147">
        <ele>181.83</ele>
        <time>2019-07-12T10:51:52Z</time>
      </trkpt>
      <trkpt lat="48.10375" lon="-4.14711">
        <ele>181.83</ele>
        <time>2019-07-12T10:52:07Z</time>
      </trkpt>
      <trkpt lat="48.10363" lon="-4.14727">
        <ele>183.27</ele>
        <time>2019-07-12T10:52:21Z</time>
      </trkpt>
      <trkpt lat="48.10352" lon="-4.14747">
        <ele>182.79</ele>
        <time>2019-07-12T10:52:36Z</time>
      </trkpt>
      <trkpt lat="48.10338" lon="-4.14764">
        <ele>183.75</ele>
        <time>2019-07-12T10:52:50Z</time>
      </trkpt>
      <trkpt lat="48.10334" lon="-4.14791">
        <ele>184.71</ele>
        <time>2019-07-12T10:53:05Z</time>
      </trkpt>
      <trkpt lat="48.10333" lon="-4.14824">
        <ele>185.67</ele>
        <time>2019-07-12T10:53:20Z</time>
      </trkpt>
      <trkpt lat="48.1033" lon="-4.14847">
        <ele>186.63</ele>
        <time>2019-07-12T10:53:34Z</time>
      </trkpt>
      <trkpt lat="48.10324" lon="-4.14873">
        <ele>187.59</ele>
        <time>2019-07-12T10:53:49Z</time>
      </trkpt>
      <trkpt lat="48.1032" lon="-4.14904">
        <ele>188.56</ele>
        <time>2019-07-12T10:54:03Z</time>
      </trkpt>
      <trkpt lat="48.10316" lon="-4.14927">
        <ele>190</ele>
        <time>2019-07-12T10:54:18Z</time>
      </trkpt>
      <trkpt lat="48.10305" lon="-4.14982">
        <ele>190.48</ele>
        <time>2019-07-12T10:54:33Z</time>
      </trkpt>
      <trkpt lat="48.10299" lon="-4.15005">
        <ele>191.44</ele>
        <time>2019-07-12T10:54:48Z</time>
      </trkpt>
      <trkpt lat="48.10301" lon="-4.15026">
        <ele>193.84</ele>
        <time>2019-07-12T10:55:03Z</time>
      </trkpt>
      <trkpt lat="48.103" lon="-4.15046">
        <ele>196.25</ele>
        <time>2019-07-12T10:55:18Z</time>
      </trkpt>
      <trkpt lat="48.10301" lon="-4.15072">
        <ele>197.21</ele>
        <time>2019-07-12T10:55:33Z</time>
      </trkpt>
      <trkpt lat="48.10304" lon="-4.15093">
        <ele>199.13</ele>
        <time>2019-07-12T10:55:48Z</time>
      </trkpt>
      <trkpt lat="48.10299" lon="-4.15116">
        <ele>201.05</ele>
        <time>2019-07-12T10:56:03Z</time>
      </trkpt>
      <trkpt lat="48.10301" lon="-4.15132">
        <ele>202.49</ele>
        <time>2019-07-12T10:56:18Z</time>
      </trkpt>
      <trkpt lat="48.10302" lon="-4.15149">
        <ele>203.94</ele>
        <time>2019-07-12T10:56:33Z</time>
      </trkpt>
      <trkpt lat="48.10306" lon="-4.15147">
        <ele>203.46</ele>
        <time>2019-07-12T10:56:48Z</time>
      </trkpt>
      <trkpt lat="48.10303" lon="-4.15154">
        <ele>203.46</ele>
        <time>2019-07-12T10:57:03Z</time>
      </trkpt>
      <trkpt lat="48.10295" lon="-4.15156">
        <ele>202.98</ele>
        <time>2019-07-12T10:57:18Z</time>
      </trkpt>
      <trkpt lat="48.10297" lon="-4.15153">
        <ele>202.98</ele>
        <time>2019-07-12T10:57:33Z</time>
      </trkpt>
      <trkpt lat="48.10296" lon="-4.15151">
        <ele>202.98</ele>
        <time>2019-07-12T10:57:48Z</time>
      </trkpt>
      <trkpt lat="48.103" lon="-4.15151">
        <ele>202.98</ele>
        <time>2019-07-12T10:58:03Z</time>
      </trkpt>
      <trkpt lat="48.10299" lon="-4.15167">
        <ele>202.98</ele>
        <time>2019-07-12T10:58:18Z</time>
      </trkpt>
      <trkpt lat="48.10294" lon="-4.15182">
        <ele>204.42</ele>
        <time>2019-07-12T10:58:33Z</time>
      </trkpt>
      <trkpt lat="48.10293" lon="-4.152">
        <ele>205.86</ele>
        <time>2019-07-12T10:58:48Z</time>
      </trkpt>
      <trkpt lat="48.10293" lon="-4.15224">
        <ele>207.78</ele>
        <time>2019-07-12T10:59:03Z</time>
      </trkpt>
      <trkpt lat="48.10285" lon="-4.15251">
        <ele>208.26</ele>
        <time>2019-07-12T10:59:18Z</time>
      </trkpt>
      <trkpt lat="48.10281" lon="-4.15261">
        <ele>209.7</ele>
        <time>2019-07-12T10:59:33Z</time>
      </trkpt>
      <trkpt lat="48.10282" lon="-4.15275">
        <ele>210.67</ele>
        <time>2019-07-12T10:59:48Z</time>
      </trkpt>
      <trkpt lat="48.10282" lon="-4.15288">
        <ele>212.11</ele>
        <time>2019-07-12T11:00:03Z</time>
      </trkpt>
      <trkpt lat="48.10285" lon="-4.1531">
        <ele>213.55</ele>
        <time>2019-07-12T11:00:18Z</time>
      </trkpt>
      <trkpt lat="48.10287" lon="-4.15331">
        <ele>214.99</ele>
        <time>2019-07-12T11:00:33Z</time>
      </trkpt>
      <trkpt lat="48.10289" lon="-4.15349">
        <ele>215.95</ele>
        <time>2019-07-12T11:00:48Z</time>
      </trkpt>
      <trkpt lat="48.10292" lon="-4.15367">
        <ele>217.4</ele>
        <time>2019-07-12T11:01:03Z</time>
      </trkpt>
      <trkpt lat="48.10294" lon="-4.1539">
        <ele>218.36</ele>
        <time>2019-07-12T11:01:18Z</time>
      </trkpt>
      <trkpt lat="48.10297" lon="-4.15411">
        <ele>219.32</ele>
        <time>2019-07-12T11:01:33Z</time>
      </trkpt>
      <trkpt lat="48.10299" lon="-4.15433">
        <ele>220.28</ele>
        <time>2019-07-12T11:01:48Z</time>
      </trkpt>
      <trkpt lat="48.10301" lon="-4.15452">
        <ele>222.2</ele>
        <time>2019-07-12T11:02:03Z</time>
      </trkpt>
      <trkpt lat="48.10305" lon="-4.15468">
        <ele>222.2</ele>
        <time>2019-07-12T11:02:18Z</time>
      </trkpt>
      <trkpt lat="48.10303" lon="-4.15474">
        <ele>222.68</ele>
        <time>2019-07-12T11:02:33Z</time>
      </trkpt>
      <trkpt lat="48.10302" lon="-4.15473">
        <ele>222.2</ele>
        <time>2019-07-12T11:02:48Z</time>
      </trkpt>
      <trkpt lat="48.10297" lon="-4.15474">
        <ele>222.68</ele>
        <time>2019-07-12T11:03:03Z</time>
      </trkpt>
      <trkpt lat="48.10299" lon="-4.15486">
        <ele>222.68</ele>
        <time>2019-07-12T11:03:18Z</time>
      </trkpt>
      <trkpt lat="48.103" lon="-4.15497">
        <ele>223.64</ele>
        <time>2019-07-12T11:03:33Z</time>
      </trkpt>
      <trkpt lat="48.10302" lon="-4.15499">
        <ele>223.16</ele>
        <time>2019-07-12T11:03:48Z</time>
      </trkpt>
      <trkpt lat="48.10302" lon="-4.15523">
        <ele>223.64</ele>
        <time>2019-07-12T11:04:03Z</time>
      </trkpt>
      <trkpt lat="48.10299" lon="-4.15545">
        <ele>224.12</ele>
        <time>2019-07-12T11:04:18Z</time>
      </trkpt>
      <trkpt lat="48.10297" lon="-4.15564">
        <ele>224.12</ele>
        <time>2019-07-12T11:04:33Z</time>
      </trkpt>
      <trkpt lat="48.10296" lon="-4.15587">
        <ele>223.16</ele>
        <time>2019-07-12T11:04:48Z</time>
      </trkpt>
      <trkpt lat="48.10292" lon="-4.15613">
        <ele>221.24</ele>
        <time>2019-07-12T11:05:03Z</time>
      </trkpt>
      <trkpt lat="48.10293" lon="-4.15636">
        <ele>218.84</ele>
        <time>2019-07-12T11:05:18Z</time>
      </trkpt>
      <trkpt lat="48.10293" lon="-4.15662">
        <ele>216.43</ele>
        <time>2019-07-12T11:05:33Z</time>
      </trkpt>
      <trkpt lat="48.10291" lon="-4.15684">
        <ele>214.99</ele>
        <time>2019-07-12T11:05:48Z</time>
      </trkpt>
      <trkpt lat="48.10291" lon="-4.15706">
        <ele>212.59</ele>
        <time>2019-07-12T11:06:03Z</time>
      </trkpt>
      <trkpt lat="48.10287" lon="-4.15728">
        <ele>210.19</ele>
        <time>2019-07-12T11:06:18Z</time>
      </trkpt>
      <trkpt lat="48.10278" lon="-4.15739">
        <ele>209.22</ele>
        <time>2019-07-12T11:06:33Z</time>
      </trkpt>
      <trkpt lat="48.10278" lon="-4.15746">
        <ele>209.7</ele>
        <time>2019-07-12T11:06:48Z</time>
      </trkpt>
      <trkpt lat="48.10275" lon="-4.15745">
        <ele>209.7</ele>
        <time>2019-07-12T11:07:03Z</time>
      </trkpt>
      <trkpt lat="48.10268" lon="-4.15757">
        <ele>211.15</ele>
        <time>2019-07-12T11:07:18Z</time>
      </trkpt>
      <trkpt lat="48.10263" lon="-4.15776">
        <ele>213.07</ele>
        <time>2019-07-12T11:07:33Z</time>
      </trkpt>
      <trkpt lat="48.10261" lon="-4.15785">
        <ele>214.99</ele>
        <time>2019-07-12T11:07:48Z</time>
      </trkpt>
      <trkpt lat="48.10259" lon="-4.15808">
        <ele>216.43</ele>
        <time>2019-07-12T11:08:03Z</time>
      </trkpt>
      <trkpt lat="48.10259" lon="-4.15823">
        <ele>217.88</ele>
        <time>2019-07-12T11:08:18Z</time>
      </trkpt>
      <trkpt lat="48.10256" lon="-4.15837">
        <ele>219.32</ele>
        <time>2019-07-12T11:08:33Z</time>
      </trkpt>
      <trkpt lat="48.10254" lon="-4.15857">
        <ele>221.24</ele>
        <time>2019-07-12T11:08:48Z</time>
      </trkpt>
      <trkpt lat="48.10252" lon="-4.15876">
        <ele>221.72</ele>
        <time>2019-07-12T11:09:03Z</time>
      </trkpt>
      <trkpt lat="48.10247" lon="-4.15901">
        <ele>222.2</ele>
        <time>2019-07-12T11:09:18Z</time>
      </trkpt>
      <trkpt lat="48.10238" lon="-4.15921">
        <ele>222.2</ele>
        <time>2019-07-12T11:09:33Z</time>
      </trkpt>
      <trkpt lat="48.10219" lon="-4.15955">
        <ele>222.2</ele>
        <time>2019-07-12T11:09:48Z</time>
      </trkpt>
      <trkpt lat="48.10212" lon="-4.15968">
        <ele>222.68</ele>
        <time>2019-07-12T11:10:03Z</time>
      </trkpt>
      <trkpt lat="48.10199" lon="-4.15994">
        <ele>224.12</ele>
        <time>2019-07-12T11:10:18Z</time>
      </trkpt>
      <trkpt lat="48.10191" lon="-4.16008">
        <ele>225.57</ele>
        <time>2019-07-12T11:10:33Z</time>
      </trkpt>
      <trkpt lat="48.10186" lon="-4.16033">
        <ele>227.01</ele>
        <time>2019-07-12T11:10:48Z</time>
      </trkpt>
      <trkpt lat="48.10189" lon="-4.16051">
        <ele>227.49</ele>
        <time>2019-07-12T11:11:03Z</time>
      </trkpt>
      <trkpt lat="48.10194" lon="-4.16062">
        <ele>227.97</ele>
        <time>2019-07-12T11:11:18Z</time>
      </trkpt>
      <trkpt lat="48.10198" lon="-4.16084">
        <ele>228.93</ele>
        <time>2019-07-12T11:11:33Z</time>
      </trkpt>
      <trkpt lat="48.10201" lon="-4.16089">
        <ele>228.45</ele>
        <time>2019-07-12T11:11:48Z</time>
      </trkpt>
      <trkpt lat="48.10196" lon="-4.16091">
        <ele>228.93</ele>
        <time>2019-07-12T11:12:03Z</time>
      </trkpt>
      <trkpt lat="48.10195" lon="-4.16094">
        <ele>228.93</ele>
        <time>2019-07-12T11:12:18Z</time>
      </trkpt>
      <trkpt lat="48.10195" lon="-4.16094">
        <ele>228.93</ele>
        <time>2019-07-12T11:12:33Z</time>
      </trkpt>
      <trkpt lat="48.10197" lon="-4.16098">
        <ele>228.93</ele>
        <time>2019-07-12T11:12:48Z</time>
      </trkpt>
      <trkpt lat="48.10201" lon="-4.16106">
        <ele>229.89</ele>
        <time>2019-07-12T11:13:03Z</time>
      </trkpt>
      <trkpt lat="48.102" lon="-4.1613">
        <ele>231.33</ele>
        <time>2019-07-12T11:13:18Z</time>
      </trkpt>
      <trkpt lat="48.10202" lon="-4.16151">
        <ele>231.81</ele>
        <time>2019-07-12T11:13:33Z</time>
      </trkpt>
      <trkpt lat="48.10202" lon="-4.16175">
        <ele>232.3</ele>
        <time>2019-07-12T11:13:48Z</time>
      </trkpt>
      <trkpt lat="48.10207" lon="-4.16198">
        <ele>233.74</ele>
        <time>2019-07-12T11:14:03Z</time>
      </trkpt>
      <trkpt lat="48.10209" lon="-4.16225">
        <ele>234.22</ele>
        <time>2019-07-12T11:14:18Z</time>
      </trkpt>
      <trkpt lat="48.10209" lon="-4.16247">
        <ele>234.7</ele>
        <time>2019-07-12T11:14:33Z</time>
      </trkpt>
      <trkpt lat="48.10207" lon="-4.16262">
        <ele>234.7</ele>
        <time>2019-07-12T11:14:48Z</time>
      </trkpt>
      <trkpt lat="48.10206" lon="-4.16298">
        <ele>234.7</ele>
        <time>2019-07-12T11:15:03Z</time>
      </trkpt>
      <trkpt lat="48.10199" lon="-4.16318">
        <ele>235.18</ele>
        <time>2019-07-12T11:15:18Z</time>
      </trkpt>
      <trkpt lat="48.10198" lon="-4.16332">
        <ele>235.18</ele>
        <time>2019-07-12T11:15:33Z</time>
      </trkpt>
      <trkpt lat="48.10198" lon="-4.16353">
        <ele>234.7</ele>
        <time>2019-07-12T11:15:48Z</time>
      </trkpt>
      <trkpt lat="48.10194" lon="-4.16373">
        <ele>235.18</ele>
        <time>2019-07-12T11:16:03Z</time>
      </trkpt>
      <trkpt lat="48.10193" lon="-4.16401">
        <ele>235.66</ele>
        <time>2019-07-12T11:16:18Z</time>
      </trkpt>
      <trkpt lat="48.10189" lon="-4.16422">
        <ele>235.66</ele>
        <time>2019-07-12T11:16:33Z</time>
      </trkpt>
      <trkpt lat="48.10184" lon="-4.16441">
        <ele>235.66</ele>
        <time>2019-07-12T11:16:48Z</time>
      </trkpt>
      <trkpt lat="48.10184" lon="-4.16463">
        <ele>236.14</ele>
        <time>2019-07-12T11:17:03Z</time>
      </trkpt>
      <trkpt lat="48.10179" lon="-4.16477">
        <ele>235.66</ele>
        <time>2019-07-12T11:17:18Z</time>
      </trkpt>
      <trkpt lat="48.10178" lon="-4.16479">
        <ele>235.66</ele>
        <time>2019-07-12T11:17:33Z</time>
      </trkpt>
      <trkpt lat="48.10173" lon="-4.16473">
        <ele>236.14</ele>
        <time>2019-07-12T11:17:48Z</time>
      </trkpt>
      <trkpt lat="48.10179" lon="-4.16478">
        <ele>236.14</ele>
        <time>2019-07-12T11:18:03Z</time>
      </trkpt>
      <trkpt lat="48.10181" lon="-4.16497">
        <ele>236.62</ele>
        <time>2019-07-12T11:18:18Z</time>
      </trkpt>
      <trkpt lat="48.10182" lon="-4.16522">
        <ele>237.1</ele>
        <time>2019-07-12T11:18:33Z</time>
      </trkpt>
      <trkpt lat="48.10181" lon="-4.16544">
        <ele>237.58</ele>
        <time>2019-07-12T11:18:48Z</time>
      </trkpt>
      <trkpt lat="48.10179" lon="-4.16558">
        <ele>238.06</ele>
        <time>2019-07-12T11:19:03Z</time>
      </trkpt>
      <trkpt lat="48.10183" lon="-4.16587">
        <ele>239.51</ele>
        <time>2019-07-12T11:19:18Z</time>
      </trkpt>
      <trkpt lat="48.10182" lon="-4.16615">
        <ele>240.47</ele>
        <time>2019-07-12T11:19:33Z</time>
      </trkpt>
      <trkpt lat="48.10181" lon="-4.16639">
        <ele>240.95</ele>
        <time>2019-07-12T11:19:48Z</time>
      </trkpt>
      <trkpt lat="48.10176" lon="-4.16658">
        <ele>241.43</ele>
        <time>2019-07-12T11:20:03Z</time>
      </trkpt>
      <trkpt lat="48.10168" lon="-4.16674">
        <ele>241.91</ele>
        <time>2019-07-12T11:20:18Z</time>
      </trkpt>
      <trkpt lat="48.10163" lon="-4.16695">
        <ele>243.35</ele>
        <time>2019-07-12T11:20:33Z</time>
      </trkpt>
      <trkpt lat="48.10161" lon="-4.16721">
        <ele>243.35</ele>
        <time>2019-07-12T11:20:48Z</time>
      </trkpt>
      <trkpt lat="48.1016" lon="-4.16742">
        <ele>243.35</ele>
        <time>2019-07-12T11:21:03Z</time>
      </trkpt>
      <trkpt lat="48.10159" lon="-4.16763">
        <ele>243.83</ele>
        <time>2019-07-12T11:21:18Z</time>
      </trkpt>
      <trkpt lat="48.1016" lon="-4.16787">
        <ele>244.79</ele>
        <time>2019-07-12T11:21:33Z</time>
      </trkpt>
      <trkpt lat="48.10163" lon="-4.16801">
        <ele>244.31</ele>
        <time>2019-07-12T11:21:48Z</time>
      </trkpt>
      <trkpt lat="48.10172" lon="-4.16806">
        <ele>243.83</ele>
        <time>2019-07-12T11:22:03Z</time>
      </trkpt>
      <trkpt lat="48.10174" lon="-4.16812">
        <ele>244.31</ele>
        <time>2019-07-12T11:22:18Z</time>
      </trkpt>
      <trkpt lat="48.10178" lon="-4.16813">
        <ele>244.31</ele>
        <time>2019-07-12T11:22:33Z</time>
      </trkpt>
      <trkpt lat="48.10179" lon="-4.16812">
        <ele>244.31</ele>
        <time>2019-07-12T11:22:48Z</time>
      </trkpt>
      <trkpt lat="48.10167" lon="-4.16833">
        <ele>245.27</ele>
        <time>2019-07-12T11:23:03Z</time>
      </trkpt>
      <trkpt lat="48.10162" lon="-4.16849">
        <ele>245.75</ele>
        <time>2019-07-12T11:23:18Z</time>
      </trkpt>
      <trkpt lat="48.10161" lon="-4.16872">
        <ele>246.72</ele>
        <time>2019-07-12T11:23:33Z</time>
      </trkpt>
      <trkpt lat="48.10159" lon="-4.16896">
        <ele>247.2</ele>
        <time>2019-07-12T11:23:48Z</time>
      </trkpt>
      <trkpt lat="48.10158" lon="-4.16918">
        <ele>247.68</ele>
        <time>2019-07-12T11:24:03Z</time>
      </trkpt>
      <trkpt lat="48.10154" lon="-4.16944">
        <ele>247.68</ele>
        <time>2019-07-12T11:24:18Z</time>
      </trkpt>
      <trkpt lat="48.10149" lon="-4.16969">
        <ele>248.16</ele>
        <time>2019-07-12T11:24:33Z</time>
      </trkpt>
      <trkpt lat="48.10149" lon="-4.16993">
        <ele>249.12</ele>
        <time>2019-07-12T11:24:48Z</time>
      </trkpt>
      <trkpt lat="48.10149" lon="-4.17019">
        <ele>249.6</ele>
        <time>2019-07-12T11:25:03Z</time>
      </trkpt>
      <trkpt lat="48.10151" lon="-4.1704">
        <ele>249.6</ele>
        <time>2019-07-12T11:25:18Z</time>
      </trkpt>
      <trkpt lat="48.10152" lon="-4.17053">
        <ele>249.12</ele>
        <time>2019-07-12T11:25:33Z</time>
      </trkpt>
      <trkpt lat="48.10152" lon="-4.17062">
        <ele>249.12</ele>
        <time>2019-07-12T11:25:48Z</time>
      </trkpt>
      <trkpt lat="48.10152" lon="-4.17084">
        <ele>248.16</ele>
        <time>2019-07-12T11:26:03Z</time>
      </trkpt>
      <trkpt lat="48.10153" lon="-4.17105">
        <ele>249.12</ele>
        <time>2019-07-12T11:26:18Z</time>
      </trkpt>
      <trkpt lat="48.10146" lon="-4.17129">
        <ele>249.12</ele>
        <time>2019-07-12T11:26:33Z</time>
      </trkpt>
      <trkpt lat="48.10143" lon="-4.1715">
        <ele>249.12</ele>
        <time>2019-07-12T11:26:48Z</time>
      </trkpt>
      <trkpt lat="48.10142" lon="-4.17177">
        <ele>249.6</ele>
        <time>2019-07-12T11:27:03Z</time>
      </trkpt>
      <trkpt lat="48.1014" lon="-4.17202">
        <ele>251.52</ele>
        <time>2019-07-12T11:27:18Z</time>
      </trkpt>
      <trkpt lat="48.10139" lon="-4.17224">
        <ele>251.52</ele>
        <time>2019-07-12T11:27:33Z</time>
      </trkpt>
      <trkpt lat="48.10138" lon="-4.17252">
        <ele>251.52</ele>
        <time>2019-07-12T11:27:48Z</time>
      </trkpt>
      <trkpt lat="48.10135" lon="-4.17274">
        <ele>250.56</ele>
        <time>2019-07-12T11:28:03Z</time>
      </trkpt>
      <trkpt lat="48.10132" lon="-4.17299">
        <ele>250.56</ele>
        <time>2019-07-12T11:28:18Z</time>
      </trkpt>
      <trkpt lat="48.10131" lon="-4.17328">
        <ele>249.6</ele>
        <time>2019-07-12T11:28:33Z</time>
      </trkpt>
      <trkpt lat="48.10131" lon="-4.17354">
        <ele>249.6</ele>
        <time>2019-07-12T11:28:48Z</time>
      </trkpt>
      <trkpt lat="48.10133" lon="-4.17382">
        <ele>249.12</ele>
        <time>2019-07-12T11:29:03Z</time>
      </trkpt>
      <trkpt lat="48.10128" lon="-4.17414">
        <ele>249.6</ele>
        <time>2019-07-12T11:29:18Z</time>
      </trkpt>
      <trkpt lat="48.10124" lon="-4.17439">
        <ele>249.6</ele>
        <time>2019-07-12T11:29:33Z</time>
      </trkpt>
      <trkpt lat="48.10116" lon="-4.1746">
        <ele>250.56</ele>
        <time>2019-07-12T11:29:48Z</time>
      </trkpt>
      <trkpt lat="48.10106" lon="-4.17481">
        <ele>250.56</ele>
        <time>2019-07-12T11:30:03Z</time>
      </trkpt>
      <trkpt lat="48.10097" lon="-4.17503">
        <ele>250.08</ele>
        <time>2019-07-12T11:30:18Z</time>
      </trkpt>
      <trkpt lat="48.10088" lon="-4.17526">
        <ele>251.04</ele>
        <time>2019-07-12T11:30:33Z</time>
      </trkpt>
      <trkpt lat="48.10081" lon="-4.17549">
        <ele>252</ele>
        <time>2019-07-12T11:30:48Z</time>
      </trkpt>
      <trkpt lat="48.10076" lon="-4.17572">
        <ele>252.96</ele>
        <time>2019-07-12T11:31:03Z</time>
      </trkpt>
      <trkpt lat="48.10075" lon="-4.17584">
        <ele>252.96</ele>
        <time>2019-07-12T11:31:18Z</time>
      </trkpt>
      <trkpt lat="48.10073" lon="-4.17591">
        <ele>253.44</ele>
        <time>2019-07-12T11:31:33Z</time>
      </trkpt>
      <trkpt lat="48.10071" lon="-4.17598">
        <ele>252.96</ele>
        <time>2019-07-12T11:31:48Z</time>
      </trkpt>
      <trkpt lat="48.10075" lon="-4.176">
        <ele>252.96</ele>
        <time>2019-07-12T11:32:03Z</time>
      </trkpt>
      <trkpt lat="48.1007" lon="-4.17608">
        <ele>253.44</ele>
        <time>2019-07-12T11:32:18Z</time>
      </trkpt>
      <trkpt lat="48.10065" lon="-4.17619">
        <ele>254.89</ele>
        <time>2019-07-12T11:32:33Z</time>
      </trkpt>
      <trkpt lat="48.10057" lon="-4.17637">
        <ele>256.33</ele>
        <time>2019-07-12T11:32:48Z</time>
      </trkpt>
      <trkpt lat="48.10048" lon="-4.17655">
        <ele>257.29</ele>
        <time>2019-07-12T11:33:03Z</time>
      </trkpt>
      <trkpt lat="48.10037" lon="-4.17673">
        <ele>258.25</ele>
        <time>2019-07-12T11:33:18Z</time>
      </trkpt>
      <trkpt lat="48.10033" lon="-4.17694">
        <ele>259.69</ele>
        <time>2019-07-12T11:33:33Z</time>
      </trkpt>
      <trkpt lat="48.10023" lon="-4.17713">
        <ele>260.65</ele>
        <time>2019-07-12T11:33:48Z</time>
      </trkpt>
      <trkpt lat="48.1001" lon="-4.17728">
        <ele>262.1</ele>
        <time>2019-07-12T11:34:03Z</time>
      </trkpt>
      <trkpt lat="48.09996" lon="-4.1774">
        <ele>263.54</ele>
        <time>2019-07-12T11:34:18Z</time>
      </trkpt>
      <trkpt lat="48.09979" lon="-4.17752">
        <ele>264.98</ele>
        <time>2019-07-12T11:34:33Z</time>
      </trkpt>
      <trkpt lat="48.09965" lon="-4.17767">
        <ele>265.94</ele>
        <time>2019-07-12T11:34:48Z</time>
      </trkpt>
      <trkpt lat="48.09952" lon="-4.17781">
        <ele>267.38</ele>
        <time>2019-07-12T11:35:03Z</time>
      </trkpt>
      <trkpt lat="48.09937" lon="-4.17797">
        <ele>267.86</ele>
        <time>2019-07-12T11:35:18Z</time>
      </trkpt>
      <trkpt lat="48.09928" lon="-4.1781">
        <ele>268.83</ele>
        <time>2019-07-12T11:35:33Z</time>
      </trkpt>
      <trkpt lat="48.09925" lon="-4.17814">
        <ele>267.86</ele>
        <time>2019-07-12T11:35:48Z</time>
      </trkpt>
      <trkpt lat="48.09924" lon="-4.17818">
        <ele>268.35</ele>
        <time>2019-07-12T11:36:03Z</time>
      </trkpt>
      <trkpt lat="48.09929" lon="-4.17814">
        <ele>268.35</ele>
        <time>2019-07-12T11:36:18Z</time>
      </trkpt>
      <trkpt lat="48.0993" lon="-4.1782">
        <ele>267.86</ele>
        <time>2019-07-12T11:36:33Z</time>
      </trkpt>
      <trkpt lat="48.09931" lon="-4.17822">
        <ele>267.86</ele>
        <time>2019-07-12T11:36:48Z</time>
      </trkpt>
      <trkpt lat="48.0993" lon="-4.17832">
        <ele>268.35</ele>
        <time>2019-07-12T11:37:03Z</time>
      </trkpt>
      <trkpt lat="48.09927" lon="-4.1785">
        <ele>269.31</ele>
        <time>2019-07-12T11:37:18Z</time>
      </trkpt>
      <trkpt lat="48.09924" lon="-4.17868">
        <ele>270.27</ele>
        <time>2019-07-12T11:37:33Z</time>
      </trkpt>
      <trkpt lat="48.09917" lon="-4.17887">
        <ele>271.23</ele>
        <time>2019-07-12T11:37:48Z</time>
      </trkpt>
      <trkpt lat="48.09907" lon="-4.17905">
        <ele>271.71</ele>
        <time>2019-07-12T11:38:03Z</time>
      </trkpt>
      <trkpt lat="48.099" lon="-4.17926">
        <ele>272.67</ele>
        <time>2019-07-12T11:38:18Z</time>
      </trkpt>
      <trkpt lat="48.09897" lon="-4.1795">
        <ele>273.15</ele>
        <time>2019-07-12T11:38:33Z</time>
      </trkpt>
      <trkpt lat="48.09897" lon="-4.17964">
        <ele>273.15</ele>
        <time>2019-07-12T11:38:48Z</time>
      </trkpt>
      <trkpt lat="48.09897" lon="-4.17985">
        <ele>272.67</ele>
        <time>2019-07-12T11:39:03Z</time>
      </trkpt>
      <trkpt lat="48.09893" lon="-4.18011">
        <ele>272.19</ele>
        <time>2019-07-12T11:39:18Z</time>
      </trkpt>
      <trkpt lat="48.09892" lon="-4.18039">
        <ele>272.67</ele>
        <time>2019-07-12T11:39:33Z</time>
      </trkpt>
      <trkpt lat="48.0989" lon="-4.18056">
        <ele>272.19</ele>
        <time>2019-07-12T11:39:48Z</time>
      </trkpt>
      <trkpt lat="48.09886" lon="-4.18081">
        <ele>272.19</ele>
        <time>2019-07-12T11:40:03Z</time>
      </trkpt>
      <trkpt lat="48.09882" lon="-4.18107">
        <ele>272.19</ele>
        <time>2019-07-12T11:40:18Z</time>
      </trkpt>
      <trkpt lat="48.09881" lon="-4.18134">
        <ele>272.67</ele>
        <time>2019-07-12T11:40:33Z</time>
      </trkpt>
      <trkpt lat="48.09883" lon="-4.18143">
        <ele>273.15</ele>
        <time>2019-07-12T11:40:48Z</time>
      </trkpt>
      <trkpt lat="48.09884" lon="-4.18146">
        <ele>273.15</ele>
        <time>2019-07-12T11:41:03Z</time>
      </trkpt>
      <trkpt lat="48.09883" lon="-4.18148">
        <ele>273.63</ele>
        <time>2019-07-12T11:41:18Z</time>
      </trkpt>
      <trkpt lat="48.09884" lon="-4.18142">
        <ele>273.63</ele>
        <time>2019-07-12T11:41:33Z</time>
      </trkpt>
      <trkpt lat="48.09886" lon="-4.18142">
        <ele>273.63</ele>
        <time>2019-07-12T11:41:48Z</time>
      </trkpt>
      <trkpt lat="48.09886" lon="-4.18151">
        <ele>274.59</ele>
        <time>2019-07-12T11:42:03Z</time>
      </trkpt>
      <trkpt lat="48.09886" lon="-4.18151">
        <ele>274.11</ele>
        <time>2019-07-12T11:42:18Z</time>
      </trkpt>
      <trkpt lat="48.09887" lon="-4.18152">
        <ele>274.59</ele>
        <time>2019-07-12T11:42:33Z</time>
      </trkpt>
      <trkpt lat="48.09888" lon="-4.18153">
        <ele>274.59</ele>
        <time>2019-07-12T11:42:48Z</time>
      </trkpt>
      <trkpt lat="48.09894" lon="-4.18155">
        <ele>274.59</ele>
        <time>2019-07-12T11:43:03Z</time>
      </trkpt>
      <trkpt lat="48.099" lon="-4.18172">
        <ele>274.59</ele>
        <time>2019-07-12T11:43:18Z</time>
      </trkpt>
      <trkpt lat="48.09907" lon="-4.18177">
        <ele>274.11</ele>
        <time>2019-07-12T11:43:33Z</time>
      </trkpt>
      <trkpt lat="48.09906" lon="-4.18177">
        <ele>274.59</ele>
        <time>2019-07-12T11:43:48Z</time>
      </trkpt>
      <trkpt lat="48.09899" lon="-4.18179">
        <ele>274.59</ele>
        <time>2019-07-12T11:44:03Z</time>
      </trkpt>
      <trkpt lat="48.09898" lon="-4.18176">
        <ele>274.59</ele>
        <time>2019-07-12T11:44:18Z</time>
      </trkpt>
      <trkpt lat="48.0991" lon="-4.18194">
        <ele>274.11</ele>
        <time>2019-07-12T11:44:33Z</time>
      </trkpt>
      <trkpt lat="48.09913" lon="-4.18196">
        <ele>274.11</ele>
        <time>2019-07-12T11:44:48Z</time>
      </trkpt>
      <trkpt lat="48.09914" lon="-4.182">
        <ele>274.59</ele>
        <time>2019-07-12T11:45:03Z</time>
      </trkpt>
      <trkpt lat="48.09914" lon="-4.18201">
        <ele>274.59</ele>
        <time>2019-07-12T11:45:18Z</time>
      </trkpt>
      <trkpt lat="48.09911" lon="-4.18198">
        <ele>274.11</ele>
        <time>2019-07-12T11:45:33Z</time>
      </trkpt>
      <trkpt lat="48.09903" lon="-4.18192">
        <ele>274.59</ele>
        <time>2019-07-12T11:45:48Z</time>
      </trkpt>
      <trkpt lat="48.09901" lon="-4.1818">
        <ele>275.07</ele>
        <time>2019-07-12T11:46:03Z</time>
      </trkpt>
      <trkpt lat="48.09898" lon="-4.18166">
        <ele>275.07</ele>
        <time>2019-07-12T11:46:18Z</time>
      </trkpt>
      <trkpt lat="48.09896" lon="-4.18146">
        <ele>275.07</ele>
        <time>2019-07-12T11:46:33Z</time>
      </trkpt>
      <trkpt lat="48.09896" lon="-4.18134">
        <ele>275.07</ele>
        <time>2019-07-12T11:46:48Z</time>
      </trkpt>
      <trkpt lat="48.09902" lon="-4.18134">
        <ele>275.07</ele>
        <time>2019-07-12T11:47:03Z</time>
      </trkpt>
      <trkpt lat="48.099" lon="-4.18146">
        <ele>275.07</ele>
        <time>2019-07-12T11:47:18Z</time>
      </trkpt>
      <trkpt lat="48.09895" lon="-4.18155">
        <ele>275.07</ele>
        <time>2019-07-12T11:47:33Z</time>
      </trkpt>
      <trkpt lat="48.09892" lon="-4.18154">
        <ele>275.07</ele>
        <time>2019-07-12T11:47:48Z</time>
      </trkpt>
      <trkpt lat="48.09888" lon="-4.1816">
        <ele>275.07</ele>
        <time>2019-07-12T11:48:03Z</time>
      </trkpt>
      <trkpt lat="48.09888" lon="-4.18167">
        <ele>276.04</ele>
        <time>2019-07-12T11:48:18Z</time>
      </trkpt>
      <trkpt lat="48.0989" lon="-4.18164">
        <ele>276.04</ele>
        <time>2019-07-12T11:48:33Z</time>
      </trkpt>
      <trkpt lat="48.09891" lon="-4.18165">
        <ele>276.04</ele>
        <time>2019-07-12T11:48:48Z</time>
      </trkpt>
      <trkpt lat="48.09892" lon="-4.18164">
        <ele>276.04</ele>
        <time>2019-07-12T11:49:03Z</time>
      </trkpt>
      <trkpt lat="48.0989" lon="-4.18165">
        <ele>275.07</ele>
        <time>2019-07-12T11:49:18Z</time>
      </trkpt>
      <trkpt lat="48.09889" lon="-4.18166">
        <ele>275.07</ele>
        <time>2019-07-12T11:49:33Z</time>
      </trkpt>
      <trkpt lat="48.09889" lon="-4.18165">
        <ele>275.07</ele>
        <time>2019-07-12T11:49:48Z</time>
      </trkpt>
      <trkpt lat="48.09891" lon="-4.18163">
        <ele>275.07</ele>
        <time>2019-07-12T11:50:03Z</time>
      </trkpt>
      <trkpt lat="48.0989" lon="-4.18161">
        <ele>275.07</ele>
        <time>2019-07-12T11:50:18Z</time>
      </trkpt>
      <trkpt lat="48.09893" lon="-4.18163">
        <ele>275.56</ele>
        <time>2019-07-12T11:50:33Z</time>
      </trkpt>
      <trkpt lat="48.09892" lon="-4.18164">
        <ele>275.07</ele>
        <time>2019-07-12T11:50:48Z</time>
      </trkpt>
      <trkpt lat="48.09894" lon="-4.18165">
        <ele>275.56</ele>
        <time>2019-07-12T11:51:03Z</time>
      </trkpt>
      <trkpt lat="48.09892" lon="-4.18164">
        <ele>275.56</ele>
        <time>2019-07-12T11:51:18Z</time>
      </trkpt>
      <trkpt lat="48.09891" lon="-4.18165">
        <ele>276.04</ele>
        <time>2019-07-12T11:51:33Z</time>
      </trkpt>
      <trkpt lat="48.0989" lon="-4.18164">
        <ele>276.04</ele>
        <time>2019-07-12T11:51:48Z</time>
      </trkpt>
      <trkpt lat="48.09891" lon="-4.18162">
        <ele>276.52</ele>
        <time>2019-07-12T11:52:03Z</time>
      </trkpt>
      <trkpt lat="48.09892" lon="-4.18163">
        <ele>276.04</ele>
        <time>2019-07-12T11:52:18Z</time>
      </trkpt>
      <trkpt lat="48.09892" lon="-4.18164">
        <ele>276.04</ele>
        <time>2019-07-12T11:52:33Z</time>
      </trkpt>
      <trkpt lat="48.0989" lon="-4.18165">
        <ele>276.04</ele>
        <time>2019-07-12T11:52:48Z</time>
      </trkpt>
      <trkpt lat="48.09891" lon="-4.18166">
        <ele>276.04</ele>
        <time>2019-07-12T11:53:03Z</time>
      </trkpt>
      <trkpt lat="48.09891" lon="-4.18166">
        <ele>276.04</ele>
        <time>2019-07-12T11:53:18Z</time>
      </trkpt>
      <trkpt lat="48.09889" lon="-4.18165">
        <ele>276.04</ele>
        <time>2019-07-12T11:53:33Z</time>
      </trkpt>
      <trkpt lat="48.09889" lon="-4.18164">
        <ele>276.04</ele>
        <time>2019-07-12T11:53:48Z</time>
      </trkpt>
      <trkpt lat="48.09888" lon="-4.18164">
        <ele>276.04</ele>
        <time>2019-07-12T11:54:03Z</time>
      </trkpt>
      <trkpt lat="48.09889" lon="-4.18165">
        <ele>275.56</ele>
        <time>2019-07-12T11:54:18Z</time>
      </trkpt>
      <trkpt lat="48.09888" lon="-4.18165">
        <ele>276.52</ele>
        <time>2019-07-12T11:54:33Z</time>
      </trkpt>
      <trkpt lat="48.09889" lon="-4.18165">
        <ele>277</ele>
        <time>2019-07-12T11:54:48Z</time>
      </trkpt>
      <trkpt lat="48.09891" lon="-4.18166">
        <ele>277.96</ele>
        <time>2019-07-12T11:55:03Z</time>
      </trkpt>
      <trkpt lat="48.09886" lon="-4.18159">
        <ele>277.48</ele>
        <time>2019-07-12T11:55:18Z</time>
      </trkpt>
      <trkpt lat="48.09886" lon="-4.18185">
        <ele>277.96</ele>
        <time>2019-07-12T11:55:33Z</time>
      </trkpt>
      <trkpt lat="48.09887" lon="-4.18207">
        <ele>277</ele>
        <time>2019-07-12T11:55:48Z</time>
      </trkpt>
      <trkpt lat="48.09887" lon="-4.1823">
        <ele>276.52</ele>
        <time>2019-07-12T11:56:03Z</time>
      </trkpt>
      <trkpt lat="48.09886" lon="-4.18231">
        <ele>277</ele>
        <time>2019-07-12T11:56:18Z</time>
      </trkpt>
      <trkpt lat="48.09881" lon="-4.18244">
        <ele>275.56</ele>
        <time>2019-07-12T11:56:33Z</time>
      </trkpt>
      <trkpt lat="48.09877" lon="-4.1827">
        <ele>274.59</ele>
        <time>2019-07-12T11:56:48Z</time>
      </trkpt>
      <trkpt lat="48.09873" lon="-4.18298">
        <ele>274.59</ele>
        <time>2019-07-12T11:57:03Z</time>
      </trkpt>
      <trkpt lat="48.09866" lon="-4.18323">
        <ele>274.11</ele>
        <time>2019-07-12T11:57:18Z</time>
      </trkpt>
      <trkpt lat="48.09856" lon="-4.18344">
        <ele>273.63</ele>
        <time>2019-07-12T11:57:33Z</time>
      </trkpt>
      <trkpt lat="48.09849" lon="-4.18362">
        <ele>272.67</ele>
        <time>2019-07-12T11:57:48Z</time>
      </trkpt>
      <trkpt lat="48.09841" lon="-4.18385">
        <ele>272.19</ele>
        <time>2019-07-12T11:58:03Z</time>
      </trkpt>
      <trkpt lat="48.09834" lon="-4.18406">
        <ele>271.23</ele>
        <time>2019-07-12T11:58:18Z</time>
      </trkpt>
      <trkpt lat="48.09826" lon="-4.18427">
        <ele>269.79</ele>
        <time>2019-07-12T11:58:33Z</time>
      </trkpt>
      <trkpt lat="48.09814" lon="-4.18448">
        <ele>267.38</ele>
        <time>2019-07-12T11:58:48Z</time>
      </trkpt>
      <trkpt lat="48.09803" lon="-4.18465">
        <ele>265.94</ele>
        <time>2019-07-12T11:59:03Z</time>
      </trkpt>
      <trkpt lat="48.09789" lon="-4.18486">
        <ele>264.02</ele>
        <time>2019-07-12T11:59:18Z</time>
      </trkpt>
      <trkpt lat="48.09783" lon="-4.18494">
        <ele>263.06</ele>
        <time>2019-07-12T11:59:33Z</time>
      </trkpt>
      <trkpt lat="48.09783" lon="-4.18496">
        <ele>263.06</ele>
        <time>2019-07-12T11:59:48Z</time>
      </trkpt>
      <trkpt lat="48.09783" lon="-4.18498">
        <ele>262.58</ele>
        <time>2019-07-12T12:00:03Z</time>
      </trkpt>
      <trkpt lat="48.09783" lon="-4.18496">
        <ele>263.06</ele>
        <time>2019-07-12T12:00:18Z</time>
      </trkpt>
      <trkpt lat="48.09781" lon="-4.18496">
        <ele>263.06</ele>
        <time>2019-07-12T12:00:33Z</time>
      </trkpt>
      <trkpt lat="48.09781" lon="-4.18496">
        <ele>263.54</ele>
        <time>2019-07-12T12:00:48Z</time>
      </trkpt>
      <trkpt lat="48.09781" lon="-4.18494">
        <ele>263.54</ele>
        <time>2019-07-12T12:01:03Z</time>
      </trkpt>
      <trkpt lat="48.09781" lon="-4.18493">
        <ele>263.06</ele>
        <time>2019-07-12T12:01:18Z</time>
      </trkpt>
      <trkpt lat="48.09782" lon="-4.18494">
        <ele>263.06</ele>
        <time>2019-07-12T12:01:33Z</time>
      </trkpt>
      <trkpt lat="48.09779" lon="-4.18495">
        <ele>264.02</ele>
        <time>2019-07-12T12:01:48Z</time>
      </trkpt>
      <trkpt lat="48.09781" lon="-4.18493">
        <ele>263.54</ele>
        <time>2019-07-12T12:02:03Z</time>
      </trkpt>
      <trkpt lat="48.09782" lon="-4.18493">
        <ele>264.02</ele>
        <time>2019-07-12T12:02:18Z</time>
      </trkpt>
      <trkpt lat="48.09783" lon="-4.18494">
        <ele>263.54</ele>
        <time>2019-07-12T12:02:33Z</time>
      </trkpt>
      <trkpt lat="48.09782" lon="-4.18495">
        <ele>264.02</ele>
        <time>2019-07-12T12:02:48Z</time>
      </trkpt>
      <trkpt lat="48.09783" lon="-4.18494">
        <ele>264.02</ele>
        <time>2019-07-12T12:03:03Z</time>
      </trkpt>
      <trkpt lat="48.09781" lon="-4.18496">
        <ele>264.5</ele>
        <time>2019-07-12T12:03:18Z</time>
      </trkpt>
      <trkpt lat="48.09781" lon="-4.18498">
        <ele>264.02</ele>
        <time>2019-07-12T12:03:33Z</time>
      </trkpt>
      <trkpt lat="48.09782" lon="-4.18498">
        <ele>264.5</ele>
        <time>2019-07-12T12:03:48Z</time>
      </trkpt>
      <trkpt lat="48.0978" lon="-4.18499">
        <ele>264.02</ele>
        <time>2019-07-12T12:04:03Z</time>
      </trkpt>
      <trkpt lat="48.0978" lon="-4.18498">
        <ele>263.54</ele>
        <time>2019-07-12T12:04:18Z</time>
      </trkpt>
      <trkpt lat="48.0978" lon="-4.18501">
        <ele>263.54</ele>
        <time>2019-07-12T12:04:33Z</time>
      </trkpt>
      <trkpt lat="48.09777" lon="-4.18504">
        <ele>263.54</ele>
        <time>2019-07-12T12:04:48Z</time>
      </trkpt>
      <trkpt lat="48.09763" lon="-4.18522">
        <ele>261.62</ele>
        <time>2019-07-12T12:05:03Z</time>
      </trkpt>
      <trkpt lat="48.09752" lon="-4.18539">
        <ele>260.17</ele>
        <time>2019-07-12T12:05:18Z</time>
      </trkpt>
      <trkpt lat="48.09742" lon="-4.18558">
        <ele>258.25</ele>
        <time>2019-07-12T12:05:33Z</time>
      </trkpt>
      <trkpt lat="48.09733" lon="-4.18581">
        <ele>255.85</ele>
        <time>2019-07-12T12:05:48Z</time>
      </trkpt>
      <trkpt lat="48.09725" lon="-4.18603">
        <ele>253.93</ele>
        <time>2019-07-12T12:06:03Z</time>
      </trkpt>
      <trkpt lat="48.09718" lon="-4.18627">
        <ele>251.04</ele>
        <time>2019-07-12T12:06:18Z</time>
      </trkpt>
      <trkpt lat="48.0971" lon="-4.18651">
        <ele>249.12</ele>
        <time>2019-07-12T12:06:33Z</time>
      </trkpt>
      <trkpt lat="48.09703" lon="-4.18676">
        <ele>247.2</ele>
        <time>2019-07-12T12:06:48Z</time>
      </trkpt>
      <trkpt lat="48.097" lon="-4.18705">
        <ele>246.23</ele>
        <time>2019-07-12T12:07:03Z</time>
      </trkpt>
      <trkpt lat="48.09703" lon="-4.18735">
        <ele>245.27</ele>
        <time>2019-07-12T12:07:18Z</time>
      </trkpt>
      <trkpt lat="48.09709" lon="-4.18763">
        <ele>243.83</ele>
        <time>2019-07-12T12:07:33Z</time>
      </trkpt>
      <trkpt lat="48.09722" lon="-4.18779">
        <ele>243.35</ele>
        <time>2019-07-12T12:07:48Z</time>
      </trkpt>
      <trkpt lat="48.09723" lon="-4.1878">
        <ele>243.83</ele>
        <time>2019-07-12T12:08:03Z</time>
      </trkpt>
      <trkpt lat="48.09722" lon="-4.1878">
        <ele>242.87</ele>
        <time>2019-07-12T12:08:18Z</time>
      </trkpt>
      <trkpt lat="48.09722" lon="-4.1878">
        <ele>242.39</ele>
        <time>2019-07-12T12:08:33Z</time>
      </trkpt>
      <trkpt lat="48.09722" lon="-4.1878">
        <ele>241.91</ele>
        <time>2019-07-12T12:08:48Z</time>
      </trkpt>
      <trkpt lat="48.09723" lon="-4.1878">
        <ele>242.39</ele>
        <time>2019-07-12T12:09:03Z</time>
      </trkpt>
      <trkpt lat="48.09722" lon="-4.18779">
        <ele>242.39</ele>
        <time>2019-07-12T12:09:18Z</time>
      </trkpt>
      <trkpt lat="48.09721" lon="-4.18779">
        <ele>241.91</ele>
        <time>2019-07-12T12:09:33Z</time>
      </trkpt>
      <trkpt lat="48.09722" lon="-4.18779">
        <ele>242.87</ele>
        <time>2019-07-12T12:09:48Z</time>
      </trkpt>
      <trkpt lat="48.09723" lon="-4.1878">
        <ele>242.87</ele>
        <time>2019-07-12T12:10:03Z</time>
      </trkpt>
      <trkpt lat="48.09723" lon="-4.18779">
        <ele>241.91</ele>
        <time>2019-07-12T12:10:18Z</time>
      </trkpt>
      <trkpt lat="48.09721" lon="-4.18781">
        <ele>242.87</ele>
        <time>2019-07-12T12:10:33Z</time>
      </trkpt>
      <trkpt lat="48.09721" lon="-4.18781">
        <ele>242.39</ele>
        <time>2019-07-12T12:10:48Z</time>
      </trkpt>
      <trkpt lat="48.0972" lon="-4.18778">
        <ele>242.87</ele>
        <time>2019-07-12T12:11:03Z</time>
      </trkpt>
      <trkpt lat="48.0972" lon="-4.18779">
        <ele>242.87</ele>
        <time>2019-07-12T12:11:18Z</time>
      </trkpt>
      <trkpt lat="48.09721" lon="-4.1878">
        <ele>242.87</ele>
        <time>2019-07-12T12:11:33Z</time>
      </trkpt>
      <trkpt lat="48.0972" lon="-4.18779">
        <ele>242.87</ele>
        <time>2019-07-12T12:11:48Z</time>
      </trkpt>
      <trkpt lat="48.09722" lon="-4.1878">
        <ele>242.87</ele>
        <time>2019-07-12T12:12:03Z</time>
      </trkpt>
      <trkpt lat="48.09723" lon="-4.1878">
        <ele>243.35</ele>
        <time>2019-07-12T12:12:18Z</time>
      </trkpt>
      <trkpt lat="48.09723" lon="-4.18778">
        <ele>242.87</ele>
        <time>2019-07-12T12:12:33Z</time>
      </trkpt>
      <trkpt lat="48.09723" lon="-4.18778">
        <ele>243.35</ele>
        <time>2019-07-12T12:12:48Z</time>
      </trkpt>
      <trkpt lat="48.09722" lon="-4.18779">
        <ele>243.35</ele>
        <time>2019-07-12T12:13:03Z</time>
      </trkpt>
      <trkpt lat="48.09722" lon="-4.18778">
        <ele>243.35</ele>
        <time>2019-07-12T12:13:18Z</time>
      </trkpt>
      <trkpt lat="48.09721" lon="-4.18779">
        <ele>243.35</ele>
        <time>2019-07-12T12:13:33Z</time>
      </trkpt>
      <trkpt lat="48.09721" lon="-4.18777">
        <ele>242.87</ele>
        <time>2019-07-12T12:13:48Z</time>
      </trkpt>
      <trkpt lat="48.09721" lon="-4.18779">
        <ele>243.35</ele>
        <time>2019-07-12T12:14:03Z</time>
      </trkpt>
      <trkpt lat="48.09721" lon="-4.18779">
        <ele>242.87</ele>
        <time>2019-07-12T12:14:18Z</time>
      </trkpt>
      <trkpt lat="48.09723" lon="-4.18782">
        <ele>243.83</ele>
        <time>2019-07-12T12:14:33Z</time>
      </trkpt>
      <trkpt lat="48.09724" lon="-4.18781">
        <ele>244.79</ele>
        <time>2019-07-12T12:14:48Z</time>
      </trkpt>
      <trkpt lat="48.09727" lon="-4.1878">
        <ele>244.79</ele>
        <time>2019-07-12T12:15:03Z</time>
      </trkpt>
      <trkpt lat="48.09727" lon="-4.18783">
        <ele>244.79</ele>
        <time>2019-07-12T12:15:18Z</time>
      </trkpt>
      <trkpt lat="48.09715" lon="-4.18797">
        <ele>243.83</ele>
        <time>2019-07-12T12:15:33Z</time>
      </trkpt>
      <trkpt lat="48.09717" lon="-4.18823">
        <ele>243.35</ele>
        <time>2019-07-12T12:15:48Z</time>
      </trkpt>
      <trkpt lat="48.09716" lon="-4.18848">
        <ele>241.43</ele>
        <time>2019-07-12T12:16:03Z</time>
      </trkpt>
      <trkpt lat="48.09715" lon="-4.18875">
        <ele>240.47</ele>
        <time>2019-07-12T12:16:18Z</time>
      </trkpt>
      <trkpt lat="48.09715" lon="-4.18881">
        <ele>239.51</ele>
        <time>2019-07-12T12:16:33Z</time>
      </trkpt>
      <trkpt lat="48.09716" lon="-4.18883">
        <ele>240.47</ele>
        <time>2019-07-12T12:16:48Z</time>
      </trkpt>
      <trkpt lat="48.09713" lon="-4.18909">
        <ele>238.54</ele>
        <time>2019-07-12T12:17:03Z</time>
      </trkpt>
      <trkpt lat="48.09713" lon="-4.18934">
        <ele>238.06</ele>
        <time>2019-07-12T12:17:18Z</time>
      </trkpt>
      <trkpt lat="48.09712" lon="-4.1896">
        <ele>236.14</ele>
        <time>2019-07-12T12:17:33Z</time>
      </trkpt>
      <trkpt lat="48.09712" lon="-4.18985">
        <ele>235.18</ele>
        <time>2019-07-12T12:17:48Z</time>
      </trkpt>
      <trkpt lat="48.09712" lon="-4.19012">
        <ele>234.22</ele>
        <time>2019-07-12T12:18:03Z</time>
      </trkpt>
      <trkpt lat="48.0971" lon="-4.19039">
        <ele>233.26</ele>
        <time>2019-07-12T12:18:18Z</time>
      </trkpt>
      <trkpt lat="48.09711" lon="-4.19066">
        <ele>231.33</ele>
        <time>2019-07-12T12:18:33Z</time>
      </trkpt>
      <trkpt lat="48.09711" lon="-4.19092">
        <ele>229.41</ele>
        <time>2019-07-12T12:18:48Z</time>
      </trkpt>
      <trkpt lat="48.09711" lon="-4.19117">
        <ele>228.45</ele>
        <time>2019-07-12T12:19:03Z</time>
      </trkpt>
      <trkpt lat="48.0971" lon="-4.19143">
        <ele>227.01</ele>
        <time>2019-07-12T12:19:18Z</time>
      </trkpt>
      <trkpt lat="48.0971" lon="-4.19168">
        <ele>225.57</ele>
        <time>2019-07-12T12:19:33Z</time>
      </trkpt>
      <trkpt lat="48.09709" lon="-4.19191">
        <ele>223.64</ele>
        <time>2019-07-12T12:19:48Z</time>
      </trkpt>
      <trkpt lat="48.09708" lon="-4.19217">
        <ele>221.24</ele>
        <time>2019-07-12T12:20:03Z</time>
      </trkpt>
      <trkpt lat="48.09708" lon="-4.19238">
        <ele>219.32</ele>
        <time>2019-07-12T12:20:18Z</time>
      </trkpt>
      <trkpt lat="48.09707" lon="-4.19265">
        <ele>217.88</ele>
        <time>2019-07-12T12:20:33Z</time>
      </trkpt>
      <trkpt lat="48.09705" lon="-4.19289">
        <ele>215.47</ele>
        <time>2019-07-12T12:20:48Z</time>
      </trkpt>
      <trkpt lat="48.09706" lon="-4.19314">
        <ele>213.55</ele>
        <time>2019-07-12T12:21:03Z</time>
      </trkpt>
      <trkpt lat="48.09704" lon="-4.19341">
        <ele>211.63</ele>
        <time>2019-07-12T12:21:18Z</time>
      </trkpt>
      <trkpt lat="48.09709" lon="-4.19369">
        <ele>210.19</ele>
        <time>2019-07-12T12:21:33Z</time>
      </trkpt>
      <trkpt lat="48.09709" lon="-4.19397">
        <ele>207.78</ele>
        <time>2019-07-12T12:21:48Z</time>
      </trkpt>
      <trkpt lat="48.09707" lon="-4.19421">
        <ele>206.34</ele>
        <time>2019-07-12T12:22:03Z</time>
      </trkpt>
      <trkpt lat="48.09706" lon="-4.19445">
        <ele>204.42</ele>
        <time>2019-07-12T12:22:18Z</time>
      </trkpt>
      <trkpt lat="48.09706" lon="-4.19466">
        <ele>202.49</ele>
        <time>2019-07-12T12:22:33Z</time>
      </trkpt>
      <trkpt lat="48.09708" lon="-4.19487">
        <ele>201.05</ele>
        <time>2019-07-12T12:22:48Z</time>
      </trkpt>
      <trkpt lat="48.09706" lon="-4.1951">
        <ele>199.61</ele>
        <time>2019-07-12T12:23:03Z</time>
      </trkpt>
      <trkpt lat="48.09705" lon="-4.19529">
        <ele>196.73</ele>
        <time>2019-07-12T12:23:18Z</time>
      </trkpt>
      <trkpt lat="48.09705" lon="-4.1955">
        <ele>194.32</ele>
        <time>2019-07-12T12:23:33Z</time>
      </trkpt>
      <trkpt lat="48.09703" lon="-4.19571">
        <ele>192.88</ele>
        <time>2019-07-12T12:23:48Z</time>
      </trkpt>
      <trkpt lat="48.097" lon="-4.19597">
        <ele>190.48</ele>
        <time>2019-07-12T12:24:03Z</time>
      </trkpt>
      <trkpt lat="48.09701" lon="-4.19622">
        <ele>189.04</ele>
        <time>2019-07-12T12:24:18Z</time>
      </trkpt>
      <trkpt lat="48.09697" lon="-4.19648">
        <ele>187.59</ele>
        <time>2019-07-12T12:24:33Z</time>
      </trkpt>
      <trkpt lat="48.09693" lon="-4.19678">
        <ele>185.67</ele>
        <time>2019-07-12T12:24:48Z</time>
      </trkpt>
      <trkpt lat="48.09688" lon="-4.19707">
        <ele>183.75</ele>
        <time>2019-07-12T12:25:03Z</time>
      </trkpt>
      <trkpt lat="48.09683" lon="-4.19737">
        <ele>181.83</ele>
        <time>2019-07-12T12:25:18Z</time>
      </trkpt>
      <trkpt lat="48.09678" lon="-4.19762">
        <ele>179.42</ele>
        <time>2019-07-12T12:25:33Z</time>
      </trkpt>
      <trkpt lat="48.09676" lon="-4.19768">
        <ele>178.94</ele>
        <time>2019-07-12T12:25:48Z</time>
      </trkpt>
      <trkpt lat="48.09676" lon="-4.1977">
        <ele>178.46</ele>
        <time>2019-07-12T12:26:03Z</time>
      </trkpt>
      <trkpt lat="48.09676" lon="-4.19773">
        <ele>179.42</ele>
        <time>2019-07-12T12:26:18Z</time>
      </trkpt>
      <trkpt lat="48.09677" lon="-4.19777">
        <ele>178.46</ele>
        <time>2019-07-12T12:26:33Z</time>
      </trkpt>
      <trkpt lat="48.09674" lon="-4.19798">
        <ele>176.54</ele>
        <time>2019-07-12T12:26:48Z</time>
      </trkpt>
      <trkpt lat="48.09671" lon="-4.19804">
        <ele>176.06</ele>
        <time>2019-07-12T12:27:03Z</time>
      </trkpt>
      <trkpt lat="48.09669" lon="-4.19813">
        <ele>176.54</ele>
        <time>2019-07-12T12:27:18Z</time>
      </trkpt>
      <trkpt lat="48.09669" lon="-4.19815">
        <ele>176.54</ele>
        <time>2019-07-12T12:27:33Z</time>
      </trkpt>
      <trkpt lat="48.09669" lon="-4.19814">
        <ele>176.54</ele>
        <time>2019-07-12T12:27:48Z</time>
      </trkpt>
      <trkpt lat="48.09675" lon="-4.198">
        <ele>175.58</ele>
        <time>2019-07-12T12:28:03Z</time>
      </trkpt>
      <trkpt lat="48.09674" lon="-4.19797">
        <ele>175.1</ele>
        <time>2019-07-12T12:28:18Z</time>
      </trkpt>
      <trkpt lat="48.09674" lon="-4.19797">
        <ele>175.58</ele>
        <time>2019-07-12T12:28:33Z</time>
      </trkpt>
      <trkpt lat="48.09675" lon="-4.19798">
        <ele>175.58</ele>
        <time>2019-07-12T12:28:48Z</time>
      </trkpt>
      <trkpt lat="48.09675" lon="-4.19796">
        <ele>175.1</ele>
        <time>2019-07-12T12:29:03Z</time>
      </trkpt>
      <trkpt lat="48.09677" lon="-4.19796">
        <ele>175.58</ele>
        <time>2019-07-12T12:29:18Z</time>
      </trkpt>
      <trkpt lat="48.09677" lon="-4.19793">
        <ele>175.58</ele>
        <time>2019-07-12T12:29:33Z</time>
      </trkpt>
      <trkpt lat="48.09678" lon="-4.19795">
        <ele>175.58</ele>
        <time>2019-07-12T12:29:48Z</time>
      </trkpt>
      <trkpt lat="48.09679" lon="-4.19793">
        <ele>176.06</ele>
        <time>2019-07-12T12:30:03Z</time>
      </trkpt>
      <trkpt lat="48.09677" lon="-4.19795">
        <ele>176.06</ele>
        <time>2019-07-12T12:30:18Z</time>
      </trkpt>
      <trkpt lat="48.09677" lon="-4.19797">
        <ele>176.54</ele>
        <time>2019-07-12T12:30:33Z</time>
      </trkpt>
      <trkpt lat="48.09677" lon="-4.19799">
        <ele>176.54</ele>
        <time>2019-07-12T12:30:48Z</time>
      </trkpt>
      <trkpt lat="48.09675" lon="-4.19798">
        <ele>177.02</ele>
        <time>2019-07-12T12:31:03Z</time>
      </trkpt>
      <trkpt lat="48.0967" lon="-4.19801">
        <ele>177.5</ele>
        <time>2019-07-12T12:31:18Z</time>
      </trkpt>
      <trkpt lat="48.09668" lon="-4.1981">
        <ele>177.5</ele>
        <time>2019-07-12T12:31:33Z</time>
      </trkpt>
      <trkpt lat="48.09672" lon="-4.19816">
        <ele>177.02</ele>
        <time>2019-07-12T12:31:48Z</time>
      </trkpt>
      <trkpt lat="48.09669" lon="-4.19837">
        <ele>175.58</ele>
        <time>2019-07-12T12:32:03Z</time>
      </trkpt>
      <trkpt lat="48.0967" lon="-4.1985">
        <ele>174.62</ele>
        <time>2019-07-12T12:32:18Z</time>
      </trkpt>
      <trkpt lat="48.09671" lon="-4.19846">
        <ele>174.14</ele>
        <time>2019-07-12T12:32:33Z</time>
      </trkpt>
      <trkpt lat="48.09676" lon="-4.19874">
        <ele>173.17</ele>
        <time>2019-07-12T12:32:48Z</time>
      </trkpt>
      <trkpt lat="48.09681" lon="-4.19898">
        <ele>170.77</ele>
        <time>2019-07-12T12:33:03Z</time>
      </trkpt>
      <trkpt lat="48.09688" lon="-4.1992">
        <ele>169.33</ele>
        <time>2019-07-12T12:33:18Z</time>
      </trkpt>
      <trkpt lat="48.09693" lon="-4.19938">
        <ele>168.37</ele>
        <time>2019-07-12T12:33:33Z</time>
      </trkpt>
      <trkpt lat="48.09705" lon="-4.19955">
        <ele>165.96</ele>
        <time>2019-07-12T12:33:48Z</time>
      </trkpt>
      <trkpt lat="48.0971" lon="-4.19972">
        <ele>165.48</ele>
        <time>2019-07-12T12:34:03Z</time>
      </trkpt>
      <trkpt lat="48.09722" lon="-4.19981">
        <ele>163.56</ele>
        <time>2019-07-12T12:34:18Z</time>
      </trkpt>
      <trkpt lat="48.09728" lon="-4.19976">
        <ele>163.56</ele>
        <time>2019-07-12T12:34:33Z</time>
      </trkpt>
      <trkpt lat="48.09734" lon="-4.19975">
        <ele>163.08</ele>
        <time>2019-07-12T12:34:48Z</time>
      </trkpt>
      <trkpt lat="48.09745" lon="-4.19974">
        <ele>161.64</ele>
        <time>2019-07-12T12:35:03Z</time>
      </trkpt>
      <trkpt lat="48.09759" lon="-4.19975">
        <ele>159.72</ele>
        <time>2019-07-12T12:35:18Z</time>
      </trkpt>
      <trkpt lat="48.09769" lon="-4.19972">
        <ele>157.79</ele>
        <time>2019-07-12T12:35:33Z</time>
      </trkpt>
      <trkpt lat="48.09778" lon="-4.19979">
        <ele>155.39</ele>
        <time>2019-07-12T12:35:48Z</time>
      </trkpt>
      <trkpt lat="48.09787" lon="-4.19984">
        <ele>152.03</ele>
        <time>2019-07-12T12:36:03Z</time>
      </trkpt>
      <trkpt lat="48.09799" lon="-4.1998">
        <ele>149.14</ele>
        <time>2019-07-12T12:36:18Z</time>
      </trkpt>
      <trkpt lat="48.09809" lon="-4.19988">
        <ele>146.74</ele>
        <time>2019-07-12T12:36:33Z</time>
      </trkpt>
      <trkpt lat="48.09824" lon="-4.19989">
        <ele>144.34</ele>
        <time>2019-07-12T12:36:48Z</time>
      </trkpt>
      <trkpt lat="48.09835" lon="-4.19993">
        <ele>142.41</ele>
        <time>2019-07-12T12:37:03Z</time>
      </trkpt>
      <trkpt lat="48.09849" lon="-4.19994">
        <ele>140.97</ele>
        <time>2019-07-12T12:37:18Z</time>
      </trkpt>
      <trkpt lat="48.09865" lon="-4.19988">
        <ele>138.57</ele>
        <time>2019-07-12T12:37:33Z</time>
      </trkpt>
      <trkpt lat="48.0987" lon="-4.20001">
        <ele>138.09</ele>
        <time>2019-07-12T12:37:48Z</time>
      </trkpt>
      <trkpt lat="48.09874" lon="-4.20008">
        <ele>136.64</ele>
        <time>2019-07-12T12:38:03Z</time>
      </trkpt>
      <trkpt lat="48.09882" lon="-4.20004">
        <ele>136.64</ele>
        <time>2019-07-12T12:38:18Z</time>
      </trkpt>
      <trkpt lat="48.09886" lon="-4.20004">
        <ele>136.16</ele>
        <time>2019-07-12T12:38:33Z</time>
      </trkpt>
      <trkpt lat="48.099" lon="-4.20003">
        <ele>135.2</ele>
        <time>2019-07-12T12:38:48Z</time>
      </trkpt>
      <trkpt lat="48.09921" lon="-4.20011">
        <ele>133.76</ele>
        <time>2019-07-12T12:39:03Z</time>
      </trkpt>
      <trkpt lat="48.0993" lon="-4.20031">
        <ele>133.76</ele>
        <time>2019-07-12T12:39:18Z</time>
      </trkpt>
      <trkpt lat="48.09932" lon="-4.20054">
        <ele>133.28</ele>
        <time>2019-07-12T12:39:33Z</time>
      </trkpt>
      <trkpt lat="48.09937" lon="-4.20073">
        <ele>133.76</ele>
        <time>2019-07-12T12:39:48Z</time>
      </trkpt>
      <trkpt lat="48.09935" lon="-4.20093">
        <ele>135.68</ele>
        <time>2019-07-12T12:40:03Z</time>
      </trkpt>
      <trkpt lat="48.09938" lon="-4.20115">
        <ele>135.68</ele>
        <time>2019-07-12T12:40:18Z</time>
      </trkpt>
      <trkpt lat="48.09947" lon="-4.20129">
        <ele>134.72</ele>
        <time>2019-07-12T12:40:33Z</time>
      </trkpt>
      <trkpt lat="48.09957" lon="-4.20143">
        <ele>132.8</ele>
        <time>2019-07-12T12:40:48Z</time>
      </trkpt>
      <trkpt lat="48.09966" lon="-4.20142">
        <ele>130.4</ele>
        <time>2019-07-12T12:41:03Z</time>
      </trkpt>
      <trkpt lat="48.0997" lon="-4.20142">
        <ele>130.88</ele>
        <time>2019-07-12T12:41:18Z</time>
      </trkpt>
      <trkpt lat="48.09973" lon="-4.20143">
        <ele>130.88</ele>
        <time>2019-07-12T12:41:33Z</time>
      </trkpt>
      <trkpt lat="48.09977" lon="-4.20159">
        <ele>131.36</ele>
        <time>2019-07-12T12:41:48Z</time>
      </trkpt>
      <trkpt lat="48.09977" lon="-4.20182">
        <ele>132.32</ele>
        <time>2019-07-12T12:42:03Z</time>
      </trkpt>
      <trkpt lat="48.09976" lon="-4.20202">
        <ele>132.8</ele>
        <time>2019-07-12T12:42:18Z</time>
      </trkpt>
      <trkpt lat="48.09975" lon="-4.20229">
        <ele>133.28</ele>
        <time>2019-07-12T12:42:33Z</time>
      </trkpt>
      <trkpt lat="48.09975" lon="-4.20253">
        <ele>134.24</ele>
        <time>2019-07-12T12:42:48Z</time>
      </trkpt>
      <trkpt lat="48.09974" lon="-4.2028">
        <ele>134.24</ele>
        <time>2019-07-12T12:43:03Z</time>
      </trkpt>
      <trkpt lat="48.09974" lon="-4.20307">
        <ele>134.72</ele>
        <time>2019-07-12T12:43:18Z</time>
      </trkpt>
      <trkpt lat="48.09974" lon="-4.20331">
        <ele>135.68</ele>
        <time>2019-07-12T12:43:33Z</time>
      </trkpt>
      <trkpt lat="48.09974" lon="-4.20359">
        <ele>137.13</ele>
        <time>2019-07-12T12:43:48Z</time>
      </trkpt>
      <trkpt lat="48.09974" lon="-4.20382">
        <ele>137.13</ele>
        <time>2019-07-12T12:44:03Z</time>
      </trkpt>
      <trkpt lat="48.09973" lon="-4.20407">
        <ele>138.57</ele>
        <time>2019-07-12T12:44:18Z</time>
      </trkpt>
      <trkpt lat="48.09973" lon="-4.20431">
        <ele>139.05</ele>
        <time>2019-07-12T12:44:33Z</time>
      </trkpt>
      <trkpt lat="48.09976" lon="-4.20458">
        <ele>139.05</ele>
        <time>2019-07-12T12:44:48Z</time>
      </trkpt>
      <trkpt lat="48.09977" lon="-4.20483">
        <ele>140.49</ele>
        <time>2019-07-12T12:45:03Z</time>
      </trkpt>
      <trkpt lat="48.09978" lon="-4.20509">
        <ele>141.45</ele>
        <time>2019-07-12T12:45:18Z</time>
      </trkpt>
      <trkpt lat="48.09977" lon="-4.20534">
        <ele>142.41</ele>
        <time>2019-07-12T12:45:33Z</time>
      </trkpt>
      <trkpt lat="48.09975" lon="-4.20561">
        <ele>143.37</ele>
        <time>2019-07-12T12:45:48Z</time>
      </trkpt>
      <trkpt lat="48.09971" lon="-4.20587">
        <ele>143.37</ele>
        <time>2019-07-12T12:46:03Z</time>
      </trkpt>
      <trkpt lat="48.09967" lon="-4.2061">
        <ele>143.85</ele>
        <time>2019-07-12T12:46:18Z</time>
      </trkpt>
      <trkpt lat="48.09963" lon="-4.20633">
        <ele>145.78</ele>
        <time>2019-07-12T12:46:33Z</time>
      </trkpt>
      <trkpt lat="48.09954" lon="-4.20653">
        <ele>145.78</ele>
        <time>2019-07-12T12:46:48Z</time>
      </trkpt>
      <trkpt lat="48.09949" lon="-4.20669">
        <ele>147.22</ele>
        <time>2019-07-12T12:47:03Z</time>
      </trkpt>
      <trkpt lat="48.09944" lon="-4.20684">
        <ele>147.22</ele>
        <time>2019-07-12T12:47:18Z</time>
      </trkpt>
      <trkpt lat="48.09937" lon="-4.207">
        <ele>148.18</ele>
        <time>2019-07-12T12:47:33Z</time>
      </trkpt>
      <trkpt lat="48.09935" lon="-4.20697">
        <ele>148.18</ele>
        <time>2019-07-12T12:47:48Z</time>
      </trkpt>
      <trkpt lat="48.09935" lon="-4.20697">
        <ele>148.18</ele>
        <time>2019-07-12T12:48:03Z</time>
      </trkpt>
      <trkpt lat="48.09933" lon="-4.20698">
        <ele>148.18</ele>
        <time>2019-07-12T12:48:18Z</time>
      </trkpt>
      <trkpt lat="48.09933" lon="-4.20698">
        <ele>147.7</ele>
        <time>2019-07-12T12:48:33Z</time>
      </trkpt>
      <trkpt lat="48.0993" lon="-4.20717">
        <ele>148.18</ele>
        <time>2019-07-12T12:48:48Z</time>
      </trkpt>
    </trkseg>
  </trk>
</gpx>